<?xml version="1.0" encoding="UTF-8" standalone="no" ?>
<gpx xmlns="http://www.topografix.com/GPX/1/1" xmlns:xsi="http://www.w3.org/2001/XMLSchema-instance" xsi:schemaLocation="http://www.topografix.com/GPX/1/1 http://www.topografix.com/GPX/1/1/gpx.xsd" version="1.1" creator="VisuGPX - https://www.visugpx.com">
  <metadata>
    <name>Gerardmer</name>
    <desc><![CDATA[boucle entre les deux lacs Gerardmer Longemer]]></desc>
  </metadata>
  <trk>
    <name><![CDATA[20-AOU-19 05:20:59 PM]]></name>
    <trkseg>
      <trkpt lat="48.07926" lon="6.94335">
        <ele>746.6</ele>
        <time>2019-08-20T07:44:08Z</time>
      </trkpt>
      <trkpt lat="48.07927" lon="6.94335">
        <ele>747.08</ele>
        <time>2019-08-20T07:44:43Z</time>
      </trkpt>
      <trkpt lat="48.07929" lon="6.94337">
        <ele>747.08</ele>
        <time>2019-08-20T07:45:16Z</time>
      </trkpt>
      <trkpt lat="48.07927" lon="6.94337">
        <ele>747.08</ele>
        <time>2019-08-20T07:45:41Z</time>
      </trkpt>
      <trkpt lat="48.07927" lon="6.94336">
        <ele>747.08</ele>
        <time>2019-08-20T07:46:14Z</time>
      </trkpt>
      <trkpt lat="48.07927" lon="6.94336">
        <ele>747.08</ele>
        <time>2019-08-20T07:46:43Z</time>
      </trkpt>
      <trkpt lat="48.07925" lon="6.94333">
        <ele>747.08</ele>
        <time>2019-08-20T07:47:09Z</time>
      </trkpt>
      <trkpt lat="48.07924" lon="6.9433">
        <ele>747.08</ele>
        <time>2019-08-20T07:47:36Z</time>
      </trkpt>
      <trkpt lat="48.07922" lon="6.94327">
        <ele>747.08</ele>
        <time>2019-08-20T07:48:06Z</time>
      </trkpt>
      <trkpt lat="48.07919" lon="6.94329">
        <ele>747.08</ele>
        <time>2019-08-20T07:48:41Z</time>
      </trkpt>
      <trkpt lat="48.07919" lon="6.94329">
        <ele>747.56</ele>
        <time>2019-08-20T07:49:25Z</time>
      </trkpt>
      <trkpt lat="48.07928" lon="6.94341">
        <ele>747.08</ele>
        <time>2019-08-20T07:49:26Z</time>
      </trkpt>
      <trkpt lat="48.07925" lon="6.9433">
        <ele>744.2</ele>
        <time>2019-08-20T07:49:47Z</time>
      </trkpt>
      <trkpt lat="48.07927" lon="6.94335">
        <ele>742.76</ele>
        <time>2019-08-20T07:50:01Z</time>
      </trkpt>
      <trkpt lat="48.07926" lon="6.94332">
        <ele>741.31</ele>
        <time>2019-08-20T07:50:24Z</time>
      </trkpt>
      <trkpt lat="48.07926" lon="6.94333">
        <ele>741.79</ele>
        <time>2019-08-20T07:50:49Z</time>
      </trkpt>
      <trkpt lat="48.07927" lon="6.94336">
        <ele>741.79</ele>
        <time>2019-08-20T07:51:11Z</time>
      </trkpt>
      <trkpt lat="48.07927" lon="6.94335">
        <ele>742.76</ele>
        <time>2019-08-20T07:51:18Z</time>
      </trkpt>
      <trkpt lat="48.07927" lon="6.94333">
        <ele>742.28</ele>
        <time>2019-08-20T07:51:46Z</time>
      </trkpt>
      <trkpt lat="48.07922" lon="6.94338">
        <ele>742.28</ele>
        <time>2019-08-20T07:52:21Z</time>
      </trkpt>
      <trkpt lat="48.07926" lon="6.94336">
        <ele>741.31</ele>
        <time>2019-08-20T07:52:54Z</time>
      </trkpt>
      <trkpt lat="48.07902" lon="6.94293">
        <ele>738.91</ele>
        <time>2019-08-20T08:08:10Z</time>
      </trkpt>
      <trkpt lat="48.07901" lon="6.94292">
        <ele>738.43</ele>
        <time>2019-08-20T08:08:11Z</time>
      </trkpt>
      <trkpt lat="48.079" lon="6.94292">
        <ele>740.35</ele>
        <time>2019-08-20T08:08:24Z</time>
      </trkpt>
      <trkpt lat="48.07897" lon="6.94289">
        <ele>740.35</ele>
        <time>2019-08-20T08:08:41Z</time>
      </trkpt>
      <trkpt lat="48.07895" lon="6.94289">
        <ele>740.83</ele>
        <time>2019-08-20T08:09:01Z</time>
      </trkpt>
      <trkpt lat="48.07895" lon="6.9429">
        <ele>739.87</ele>
        <time>2019-08-20T08:09:06Z</time>
      </trkpt>
      <trkpt lat="48.07891" lon="6.94283">
        <ele>739.87</ele>
        <time>2019-08-20T08:09:14Z</time>
      </trkpt>
      <trkpt lat="48.07884" lon="6.94272">
        <ele>739.87</ele>
        <time>2019-08-20T08:09:28Z</time>
      </trkpt>
      <trkpt lat="48.07878" lon="6.94274">
        <ele>739.87</ele>
        <time>2019-08-20T08:09:45Z</time>
      </trkpt>
      <trkpt lat="48.07871" lon="6.94272">
        <ele>740.35</ele>
        <time>2019-08-20T08:10:01Z</time>
      </trkpt>
      <trkpt lat="48.07874" lon="6.94272">
        <ele>740.35</ele>
        <time>2019-08-20T08:10:15Z</time>
      </trkpt>
      <trkpt lat="48.07872" lon="6.94268">
        <ele>740.35</ele>
        <time>2019-08-20T08:10:34Z</time>
      </trkpt>
      <trkpt lat="48.07869" lon="6.94264">
        <ele>740.35</ele>
        <time>2019-08-20T08:10:45Z</time>
      </trkpt>
      <trkpt lat="48.07863" lon="6.9425">
        <ele>740.83</ele>
        <time>2019-08-20T08:10:55Z</time>
      </trkpt>
      <trkpt lat="48.07859" lon="6.94246">
        <ele>740.35</ele>
        <time>2019-08-20T08:10:59Z</time>
      </trkpt>
      <trkpt lat="48.07857" lon="6.94242">
        <ele>740.83</ele>
        <time>2019-08-20T08:11:02Z</time>
      </trkpt>
      <trkpt lat="48.07845" lon="6.94242">
        <ele>740.35</ele>
        <time>2019-08-20T08:11:11Z</time>
      </trkpt>
      <trkpt lat="48.07831" lon="6.94245">
        <ele>741.31</ele>
        <time>2019-08-20T08:11:26Z</time>
      </trkpt>
      <trkpt lat="48.07828" lon="6.94236">
        <ele>741.31</ele>
        <time>2019-08-20T08:11:31Z</time>
      </trkpt>
      <trkpt lat="48.07827" lon="6.94232">
        <ele>741.31</ele>
        <time>2019-08-20T08:11:34Z</time>
      </trkpt>
      <trkpt lat="48.07824" lon="6.94227">
        <ele>741.79</ele>
        <time>2019-08-20T08:11:38Z</time>
      </trkpt>
      <trkpt lat="48.07822" lon="6.94221">
        <ele>741.31</ele>
        <time>2019-08-20T08:11:41Z</time>
      </trkpt>
      <trkpt lat="48.07818" lon="6.94208">
        <ele>741.79</ele>
        <time>2019-08-20T08:11:50Z</time>
      </trkpt>
      <trkpt lat="48.07816" lon="6.94201">
        <ele>741.31</ele>
        <time>2019-08-20T08:11:54Z</time>
      </trkpt>
      <trkpt lat="48.07809" lon="6.94175">
        <ele>741.31</ele>
        <time>2019-08-20T08:12:09Z</time>
      </trkpt>
      <trkpt lat="48.078" lon="6.94152">
        <ele>741.31</ele>
        <time>2019-08-20T08:12:24Z</time>
      </trkpt>
      <trkpt lat="48.07799" lon="6.9412">
        <ele>741.31</ele>
        <time>2019-08-20T08:12:41Z</time>
      </trkpt>
      <trkpt lat="48.078" lon="6.94118">
        <ele>741.31</ele>
        <time>2019-08-20T08:12:42Z</time>
      </trkpt>
      <trkpt lat="48.07805" lon="6.94111">
        <ele>741.79</ele>
        <time>2019-08-20T08:12:58Z</time>
      </trkpt>
      <trkpt lat="48.07802" lon="6.94107">
        <ele>742.28</ele>
        <time>2019-08-20T08:13:20Z</time>
      </trkpt>
      <trkpt lat="48.07799" lon="6.94103">
        <ele>741.31</ele>
        <time>2019-08-20T08:13:31Z</time>
      </trkpt>
      <trkpt lat="48.07801" lon="6.94094">
        <ele>742.28</ele>
        <time>2019-08-20T08:13:39Z</time>
      </trkpt>
      <trkpt lat="48.07803" lon="6.94104">
        <ele>741.79</ele>
        <time>2019-08-20T08:13:57Z</time>
      </trkpt>
      <trkpt lat="48.07802" lon="6.9411">
        <ele>741.79</ele>
        <time>2019-08-20T08:14:26Z</time>
      </trkpt>
      <trkpt lat="48.07807" lon="6.94108">
        <ele>741.79</ele>
        <time>2019-08-20T08:14:40Z</time>
      </trkpt>
      <trkpt lat="48.07813" lon="6.94092">
        <ele>742.76</ele>
        <time>2019-08-20T08:14:50Z</time>
      </trkpt>
      <trkpt lat="48.07826" lon="6.94076">
        <ele>742.28</ele>
        <time>2019-08-20T08:15:04Z</time>
      </trkpt>
      <trkpt lat="48.07836" lon="6.94052">
        <ele>742.76</ele>
        <time>2019-08-20T08:15:20Z</time>
      </trkpt>
      <trkpt lat="48.07847" lon="6.94031">
        <ele>742.76</ele>
        <time>2019-08-20T08:15:35Z</time>
      </trkpt>
      <trkpt lat="48.07851" lon="6.94025">
        <ele>742.76</ele>
        <time>2019-08-20T08:15:41Z</time>
      </trkpt>
      <trkpt lat="48.07861" lon="6.93999">
        <ele>743.24</ele>
        <time>2019-08-20T08:15:55Z</time>
      </trkpt>
      <trkpt lat="48.07869" lon="6.93971">
        <ele>743.72</ele>
        <time>2019-08-20T08:16:11Z</time>
      </trkpt>
      <trkpt lat="48.0788" lon="6.93948">
        <ele>744.2</ele>
        <time>2019-08-20T08:16:27Z</time>
      </trkpt>
      <trkpt lat="48.07894" lon="6.93937">
        <ele>742.76</ele>
        <time>2019-08-20T08:16:42Z</time>
      </trkpt>
      <trkpt lat="48.07905" lon="6.93923">
        <ele>741.79</ele>
        <time>2019-08-20T08:16:52Z</time>
      </trkpt>
      <trkpt lat="48.07913" lon="6.93889">
        <ele>740.83</ele>
        <time>2019-08-20T08:17:08Z</time>
      </trkpt>
      <trkpt lat="48.07923" lon="6.9386">
        <ele>740.35</ele>
        <time>2019-08-20T08:17:24Z</time>
      </trkpt>
      <trkpt lat="48.07931" lon="6.93827">
        <ele>740.35</ele>
        <time>2019-08-20T08:17:42Z</time>
      </trkpt>
      <trkpt lat="48.07939" lon="6.93802">
        <ele>739.39</ele>
        <time>2019-08-20T08:17:57Z</time>
      </trkpt>
      <trkpt lat="48.07954" lon="6.93779">
        <ele>738.91</ele>
        <time>2019-08-20T08:18:15Z</time>
      </trkpt>
      <trkpt lat="48.07976" lon="6.93779">
        <ele>738.43</ele>
        <time>2019-08-20T08:18:33Z</time>
      </trkpt>
      <trkpt lat="48.08001" lon="6.93769">
        <ele>738.43</ele>
        <time>2019-08-20T08:18:52Z</time>
      </trkpt>
      <trkpt lat="48.08019" lon="6.93755">
        <ele>737.47</ele>
        <time>2019-08-20T08:19:11Z</time>
      </trkpt>
      <trkpt lat="48.08027" lon="6.93753">
        <ele>737.47</ele>
        <time>2019-08-20T08:19:17Z</time>
      </trkpt>
      <trkpt lat="48.08053" lon="6.9376">
        <ele>736.51</ele>
        <time>2019-08-20T08:19:36Z</time>
      </trkpt>
      <trkpt lat="48.08079" lon="6.9376">
        <ele>736.03</ele>
        <time>2019-08-20T08:19:55Z</time>
      </trkpt>
      <trkpt lat="48.08085" lon="6.93757">
        <ele>736.03</ele>
        <time>2019-08-20T08:19:59Z</time>
      </trkpt>
      <trkpt lat="48.08102" lon="6.93746">
        <ele>736.03</ele>
        <time>2019-08-20T08:20:14Z</time>
      </trkpt>
      <trkpt lat="48.08111" lon="6.93738">
        <ele>735.55</ele>
        <time>2019-08-20T08:20:22Z</time>
      </trkpt>
      <trkpt lat="48.08123" lon="6.93715">
        <ele>735.55</ele>
        <time>2019-08-20T08:20:36Z</time>
      </trkpt>
      <trkpt lat="48.08135" lon="6.9369">
        <ele>735.07</ele>
        <time>2019-08-20T08:20:51Z</time>
      </trkpt>
      <trkpt lat="48.08136" lon="6.93689">
        <ele>735.07</ele>
        <time>2019-08-20T08:20:52Z</time>
      </trkpt>
      <trkpt lat="48.08144" lon="6.93667">
        <ele>734.58</ele>
        <time>2019-08-20T08:21:05Z</time>
      </trkpt>
      <trkpt lat="48.08151" lon="6.93638">
        <ele>733.62</ele>
        <time>2019-08-20T08:21:21Z</time>
      </trkpt>
      <trkpt lat="48.08159" lon="6.93604">
        <ele>734.1</ele>
        <time>2019-08-20T08:21:41Z</time>
      </trkpt>
      <trkpt lat="48.08161" lon="6.93597">
        <ele>733.62</ele>
        <time>2019-08-20T08:21:44Z</time>
      </trkpt>
      <trkpt lat="48.08168" lon="6.93584">
        <ele>733.62</ele>
        <time>2019-08-20T08:21:53Z</time>
      </trkpt>
      <trkpt lat="48.08174" lon="6.93568">
        <ele>733.14</ele>
        <time>2019-08-20T08:22:03Z</time>
      </trkpt>
      <trkpt lat="48.0819" lon="6.9357">
        <ele>732.66</ele>
        <time>2019-08-20T08:22:18Z</time>
      </trkpt>
      <trkpt lat="48.08203" lon="6.93562">
        <ele>732.18</ele>
        <time>2019-08-20T08:22:30Z</time>
      </trkpt>
      <trkpt lat="48.08222" lon="6.93547">
        <ele>731.7</ele>
        <time>2019-08-20T08:22:45Z</time>
      </trkpt>
      <trkpt lat="48.08239" lon="6.9353">
        <ele>731.22</ele>
        <time>2019-08-20T08:23:03Z</time>
      </trkpt>
      <trkpt lat="48.0825" lon="6.93516">
        <ele>730.74</ele>
        <time>2019-08-20T08:23:20Z</time>
      </trkpt>
      <trkpt lat="48.08254" lon="6.93505">
        <ele>730.26</ele>
        <time>2019-08-20T08:23:27Z</time>
      </trkpt>
      <trkpt lat="48.0826" lon="6.9349">
        <ele>730.74</ele>
        <time>2019-08-20T08:23:37Z</time>
      </trkpt>
      <trkpt lat="48.08269" lon="6.93461">
        <ele>730.74</ele>
        <time>2019-08-20T08:23:53Z</time>
      </trkpt>
      <trkpt lat="48.08276" lon="6.93439">
        <ele>730.26</ele>
        <time>2019-08-20T08:24:08Z</time>
      </trkpt>
      <trkpt lat="48.08282" lon="6.9342">
        <ele>729.3</ele>
        <time>2019-08-20T08:24:22Z</time>
      </trkpt>
      <trkpt lat="48.08288" lon="6.93392">
        <ele>728.82</ele>
        <time>2019-08-20T08:24:36Z</time>
      </trkpt>
      <trkpt lat="48.08286" lon="6.93357">
        <ele>729.3</ele>
        <time>2019-08-20T08:24:53Z</time>
      </trkpt>
      <trkpt lat="48.08276" lon="6.93335">
        <ele>728.82</ele>
        <time>2019-08-20T08:25:06Z</time>
      </trkpt>
      <trkpt lat="48.08263" lon="6.93317">
        <ele>728.34</ele>
        <time>2019-08-20T08:25:23Z</time>
      </trkpt>
      <trkpt lat="48.08261" lon="6.93315">
        <ele>728.34</ele>
        <time>2019-08-20T08:25:30Z</time>
      </trkpt>
      <trkpt lat="48.08267" lon="6.93282">
        <ele>727.86</ele>
        <time>2019-08-20T08:25:50Z</time>
      </trkpt>
      <trkpt lat="48.08267" lon="6.93248">
        <ele>727.37</ele>
        <time>2019-08-20T08:26:10Z</time>
      </trkpt>
      <trkpt lat="48.08265" lon="6.9322">
        <ele>726.89</ele>
        <time>2019-08-20T08:26:26Z</time>
      </trkpt>
      <trkpt lat="48.08268" lon="6.93191">
        <ele>726.89</ele>
        <time>2019-08-20T08:26:43Z</time>
      </trkpt>
      <trkpt lat="48.08269" lon="6.93185">
        <ele>726.41</ele>
        <time>2019-08-20T08:26:47Z</time>
      </trkpt>
      <trkpt lat="48.08271" lon="6.93169">
        <ele>726.41</ele>
        <time>2019-08-20T08:26:57Z</time>
      </trkpt>
      <trkpt lat="48.08277" lon="6.93144">
        <ele>725.45</ele>
        <time>2019-08-20T08:27:12Z</time>
      </trkpt>
      <trkpt lat="48.08281" lon="6.93117">
        <ele>725.45</ele>
        <time>2019-08-20T08:27:26Z</time>
      </trkpt>
      <trkpt lat="48.08281" lon="6.93111">
        <ele>724.97</ele>
        <time>2019-08-20T08:27:29Z</time>
      </trkpt>
      <trkpt lat="48.08278" lon="6.93102">
        <ele>724.97</ele>
        <time>2019-08-20T08:27:44Z</time>
      </trkpt>
      <trkpt lat="48.08282" lon="6.93071">
        <ele>724.97</ele>
        <time>2019-08-20T08:28:02Z</time>
      </trkpt>
      <trkpt lat="48.08278" lon="6.93042">
        <ele>724.97</ele>
        <time>2019-08-20T08:28:18Z</time>
      </trkpt>
      <trkpt lat="48.08272" lon="6.93018">
        <ele>724.49</ele>
        <time>2019-08-20T08:28:31Z</time>
      </trkpt>
      <trkpt lat="48.08264" lon="6.92986">
        <ele>724.49</ele>
        <time>2019-08-20T08:28:48Z</time>
      </trkpt>
      <trkpt lat="48.08259" lon="6.92953">
        <ele>724.01</ele>
        <time>2019-08-20T08:29:06Z</time>
      </trkpt>
      <trkpt lat="48.0825" lon="6.92925">
        <ele>723.53</ele>
        <time>2019-08-20T08:29:22Z</time>
      </trkpt>
      <trkpt lat="48.08245" lon="6.92893">
        <ele>723.53</ele>
        <time>2019-08-20T08:29:39Z</time>
      </trkpt>
      <trkpt lat="48.08252" lon="6.92859">
        <ele>723.53</ele>
        <time>2019-08-20T08:29:58Z</time>
      </trkpt>
      <trkpt lat="48.08255" lon="6.92825">
        <ele>723.53</ele>
        <time>2019-08-20T08:30:16Z</time>
      </trkpt>
      <trkpt lat="48.08255" lon="6.92823">
        <ele>723.53</ele>
        <time>2019-08-20T08:30:17Z</time>
      </trkpt>
      <trkpt lat="48.08254" lon="6.92819">
        <ele>723.05</ele>
        <time>2019-08-20T08:30:20Z</time>
      </trkpt>
      <trkpt lat="48.08253" lon="6.92815">
        <ele>723.53</ele>
        <time>2019-08-20T08:30:23Z</time>
      </trkpt>
      <trkpt lat="48.08258" lon="6.92784">
        <ele>723.53</ele>
        <time>2019-08-20T08:30:40Z</time>
      </trkpt>
      <trkpt lat="48.08254" lon="6.92749">
        <ele>723.05</ele>
        <time>2019-08-20T08:30:57Z</time>
      </trkpt>
      <trkpt lat="48.08258" lon="6.92723">
        <ele>723.05</ele>
        <time>2019-08-20T08:31:10Z</time>
      </trkpt>
      <trkpt lat="48.08262" lon="6.92702">
        <ele>723.53</ele>
        <time>2019-08-20T08:31:27Z</time>
      </trkpt>
      <trkpt lat="48.08262" lon="6.92702">
        <ele>723.53</ele>
        <time>2019-08-20T08:31:45Z</time>
      </trkpt>
      <trkpt lat="48.0827" lon="6.92702">
        <ele>724.01</ele>
        <time>2019-08-20T08:32:07Z</time>
      </trkpt>
      <trkpt lat="48.08274" lon="6.92697">
        <ele>723.53</ele>
        <time>2019-08-20T08:32:32Z</time>
      </trkpt>
      <trkpt lat="48.08276" lon="6.92698">
        <ele>724.01</ele>
        <time>2019-08-20T08:33:01Z</time>
      </trkpt>
      <trkpt lat="48.08276" lon="6.92699">
        <ele>724.01</ele>
        <time>2019-08-20T08:33:30Z</time>
      </trkpt>
      <trkpt lat="48.08269" lon="6.92702">
        <ele>724.01</ele>
        <time>2019-08-20T08:33:52Z</time>
      </trkpt>
      <trkpt lat="48.08259" lon="6.92711">
        <ele>724.49</ele>
        <time>2019-08-20T08:34:20Z</time>
      </trkpt>
      <trkpt lat="48.0825" lon="6.92704">
        <ele>724.01</ele>
        <time>2019-08-20T08:34:47Z</time>
      </trkpt>
      <trkpt lat="48.08256" lon="6.92683">
        <ele>724.01</ele>
        <time>2019-08-20T08:35:16Z</time>
      </trkpt>
      <trkpt lat="48.08249" lon="6.92679">
        <ele>724.01</ele>
        <time>2019-08-20T08:35:50Z</time>
      </trkpt>
      <trkpt lat="48.08255" lon="6.92688">
        <ele>724.49</ele>
        <time>2019-08-20T08:36:12Z</time>
      </trkpt>
      <trkpt lat="48.08258" lon="6.92676">
        <ele>724.01</ele>
        <time>2019-08-20T08:36:31Z</time>
      </trkpt>
      <trkpt lat="48.0826" lon="6.92654">
        <ele>723.53</ele>
        <time>2019-08-20T08:36:47Z</time>
      </trkpt>
      <trkpt lat="48.08248" lon="6.92643">
        <ele>723.53</ele>
        <time>2019-08-20T08:36:57Z</time>
      </trkpt>
      <trkpt lat="48.08208" lon="6.92631">
        <ele>724.01</ele>
        <time>2019-08-20T08:37:21Z</time>
      </trkpt>
      <trkpt lat="48.08184" lon="6.92629">
        <ele>724.49</ele>
        <time>2019-08-20T08:37:42Z</time>
      </trkpt>
      <trkpt lat="48.08176" lon="6.92626">
        <ele>725.45</ele>
        <time>2019-08-20T08:37:59Z</time>
      </trkpt>
      <trkpt lat="48.08164" lon="6.92612">
        <ele>724.49</ele>
        <time>2019-08-20T08:38:17Z</time>
      </trkpt>
      <trkpt lat="48.08163" lon="6.9261">
        <ele>724.49</ele>
        <time>2019-08-20T08:38:18Z</time>
      </trkpt>
      <trkpt lat="48.08149" lon="6.92588">
        <ele>724.01</ele>
        <time>2019-08-20T08:38:38Z</time>
      </trkpt>
      <trkpt lat="48.08137" lon="6.92575">
        <ele>724.01</ele>
        <time>2019-08-20T08:38:48Z</time>
      </trkpt>
      <trkpt lat="48.0813" lon="6.92552">
        <ele>723.53</ele>
        <time>2019-08-20T08:39:09Z</time>
      </trkpt>
      <trkpt lat="48.08115" lon="6.92554">
        <ele>724.49</ele>
        <time>2019-08-20T08:39:32Z</time>
      </trkpt>
      <trkpt lat="48.08109" lon="6.92556">
        <ele>724.49</ele>
        <time>2019-08-20T08:39:57Z</time>
      </trkpt>
      <trkpt lat="48.08108" lon="6.92555">
        <ele>724.49</ele>
        <time>2019-08-20T08:39:59Z</time>
      </trkpt>
      <trkpt lat="48.08099" lon="6.92552">
        <ele>724.49</ele>
        <time>2019-08-20T08:40:12Z</time>
      </trkpt>
      <trkpt lat="48.08099" lon="6.92551">
        <ele>724.49</ele>
        <time>2019-08-20T08:40:37Z</time>
      </trkpt>
      <trkpt lat="48.08102" lon="6.92561">
        <ele>724.49</ele>
        <time>2019-08-20T08:41:11Z</time>
      </trkpt>
      <trkpt lat="48.08104" lon="6.92558">
        <ele>724.01</ele>
        <time>2019-08-20T08:41:44Z</time>
      </trkpt>
      <trkpt lat="48.08098" lon="6.9256">
        <ele>724.49</ele>
        <time>2019-08-20T08:42:08Z</time>
      </trkpt>
      <trkpt lat="48.08099" lon="6.92558">
        <ele>724.49</ele>
        <time>2019-08-20T08:42:32Z</time>
      </trkpt>
      <trkpt lat="48.08102" lon="6.9256">
        <ele>724.49</ele>
        <time>2019-08-20T08:43:03Z</time>
      </trkpt>
      <trkpt lat="48.08102" lon="6.92551">
        <ele>724.49</ele>
        <time>2019-08-20T08:43:34Z</time>
      </trkpt>
      <trkpt lat="48.08105" lon="6.92555">
        <ele>724.49</ele>
        <time>2019-08-20T08:44:02Z</time>
      </trkpt>
      <trkpt lat="48.08098" lon="6.9255">
        <ele>724.49</ele>
        <time>2019-08-20T08:44:21Z</time>
      </trkpt>
      <trkpt lat="48.08097" lon="6.92551">
        <ele>724.97</ele>
        <time>2019-08-20T08:44:33Z</time>
      </trkpt>
      <trkpt lat="48.08101" lon="6.92554">
        <ele>724.49</ele>
        <time>2019-08-20T08:44:36Z</time>
      </trkpt>
      <trkpt lat="48.08104" lon="6.9255">
        <ele>723.53</ele>
        <time>2019-08-20T08:44:52Z</time>
      </trkpt>
      <trkpt lat="48.08106" lon="6.92553">
        <ele>724.97</ele>
        <time>2019-08-20T08:45:21Z</time>
      </trkpt>
      <trkpt lat="48.08108" lon="6.92556">
        <ele>724.49</ele>
        <time>2019-08-20T08:45:53Z</time>
      </trkpt>
      <trkpt lat="48.08118" lon="6.92555">
        <ele>724.49</ele>
        <time>2019-08-20T08:46:12Z</time>
      </trkpt>
      <trkpt lat="48.08119" lon="6.92554">
        <ele>724.49</ele>
        <time>2019-08-20T08:46:13Z</time>
      </trkpt>
      <trkpt lat="48.08121" lon="6.92551">
        <ele>724.01</ele>
        <time>2019-08-20T08:46:15Z</time>
      </trkpt>
      <trkpt lat="48.08122" lon="6.92539">
        <ele>724.01</ele>
        <time>2019-08-20T08:46:28Z</time>
      </trkpt>
      <trkpt lat="48.08115" lon="6.92515">
        <ele>724.49</ele>
        <time>2019-08-20T08:46:43Z</time>
      </trkpt>
      <trkpt lat="48.08107" lon="6.92503">
        <ele>724.97</ele>
        <time>2019-08-20T08:46:56Z</time>
      </trkpt>
      <trkpt lat="48.08106" lon="6.92502">
        <ele>724.49</ele>
        <time>2019-08-20T08:46:58Z</time>
      </trkpt>
      <trkpt lat="48.08099" lon="6.92495">
        <ele>724.97</ele>
        <time>2019-08-20T08:47:07Z</time>
      </trkpt>
      <trkpt lat="48.08081" lon="6.9248">
        <ele>725.93</ele>
        <time>2019-08-20T08:47:23Z</time>
      </trkpt>
      <trkpt lat="48.08066" lon="6.92464">
        <ele>726.89</ele>
        <time>2019-08-20T08:47:42Z</time>
      </trkpt>
      <trkpt lat="48.08042" lon="6.92449">
        <ele>728.34</ele>
        <time>2019-08-20T08:47:59Z</time>
      </trkpt>
      <trkpt lat="48.08017" lon="6.92437">
        <ele>728.82</ele>
        <time>2019-08-20T08:48:16Z</time>
      </trkpt>
      <trkpt lat="48.08015" lon="6.92436">
        <ele>728.82</ele>
        <time>2019-08-20T08:48:18Z</time>
      </trkpt>
      <trkpt lat="48.08009" lon="6.92437">
        <ele>729.3</ele>
        <time>2019-08-20T08:48:26Z</time>
      </trkpt>
      <trkpt lat="48.07996" lon="6.9244">
        <ele>729.78</ele>
        <time>2019-08-20T08:48:43Z</time>
      </trkpt>
      <trkpt lat="48.07984" lon="6.92431">
        <ele>730.26</ele>
        <time>2019-08-20T08:48:54Z</time>
      </trkpt>
      <trkpt lat="48.07966" lon="6.9242">
        <ele>731.22</ele>
        <time>2019-08-20T08:49:11Z</time>
      </trkpt>
      <trkpt lat="48.07963" lon="6.92417">
        <ele>731.7</ele>
        <time>2019-08-20T08:49:15Z</time>
      </trkpt>
      <trkpt lat="48.07957" lon="6.92405">
        <ele>732.66</ele>
        <time>2019-08-20T08:49:27Z</time>
      </trkpt>
      <trkpt lat="48.07947" lon="6.92388">
        <ele>733.62</ele>
        <time>2019-08-20T08:49:43Z</time>
      </trkpt>
      <trkpt lat="48.07943" lon="6.9238">
        <ele>734.1</ele>
        <time>2019-08-20T08:49:48Z</time>
      </trkpt>
      <trkpt lat="48.07925" lon="6.92362">
        <ele>735.55</ele>
        <time>2019-08-20T08:50:07Z</time>
      </trkpt>
      <trkpt lat="48.07909" lon="6.92349">
        <ele>736.03</ele>
        <time>2019-08-20T08:50:25Z</time>
      </trkpt>
      <trkpt lat="48.07899" lon="6.92338">
        <ele>736.99</ele>
        <time>2019-08-20T08:50:36Z</time>
      </trkpt>
      <trkpt lat="48.07897" lon="6.92332">
        <ele>737.95</ele>
        <time>2019-08-20T08:50:48Z</time>
      </trkpt>
      <trkpt lat="48.07894" lon="6.92333">
        <ele>737.95</ele>
        <time>2019-08-20T08:51:05Z</time>
      </trkpt>
      <trkpt lat="48.07892" lon="6.9234">
        <ele>738.43</ele>
        <time>2019-08-20T08:51:30Z</time>
      </trkpt>
      <trkpt lat="48.0789" lon="6.92337">
        <ele>737.95</ele>
        <time>2019-08-20T08:51:49Z</time>
      </trkpt>
      <trkpt lat="48.07889" lon="6.92338">
        <ele>737.95</ele>
        <time>2019-08-20T08:51:50Z</time>
      </trkpt>
      <trkpt lat="48.07875" lon="6.92333">
        <ele>738.43</ele>
        <time>2019-08-20T08:52:02Z</time>
      </trkpt>
      <trkpt lat="48.07858" lon="6.92324">
        <ele>738.91</ele>
        <time>2019-08-20T08:52:17Z</time>
      </trkpt>
      <trkpt lat="48.07846" lon="6.92313">
        <ele>739.39</ele>
        <time>2019-08-20T08:52:29Z</time>
      </trkpt>
      <trkpt lat="48.07842" lon="6.92297">
        <ele>739.87</ele>
        <time>2019-08-20T08:52:41Z</time>
      </trkpt>
      <trkpt lat="48.07839" lon="6.92286">
        <ele>740.83</ele>
        <time>2019-08-20T08:52:56Z</time>
      </trkpt>
      <trkpt lat="48.07838" lon="6.92283">
        <ele>740.83</ele>
        <time>2019-08-20T08:53:00Z</time>
      </trkpt>
      <trkpt lat="48.07837" lon="6.92273">
        <ele>740.83</ele>
        <time>2019-08-20T08:53:06Z</time>
      </trkpt>
      <trkpt lat="48.07837" lon="6.92262">
        <ele>740.35</ele>
        <time>2019-08-20T08:53:15Z</time>
      </trkpt>
      <trkpt lat="48.0784" lon="6.92252">
        <ele>740.35</ele>
        <time>2019-08-20T08:53:29Z</time>
      </trkpt>
      <trkpt lat="48.0784" lon="6.92255">
        <ele>740.35</ele>
        <time>2019-08-20T08:53:31Z</time>
      </trkpt>
      <trkpt lat="48.07844" lon="6.92257">
        <ele>740.35</ele>
        <time>2019-08-20T08:53:47Z</time>
      </trkpt>
      <trkpt lat="48.07839" lon="6.92254">
        <ele>739.87</ele>
        <time>2019-08-20T08:54:05Z</time>
      </trkpt>
      <trkpt lat="48.07828" lon="6.92243">
        <ele>740.35</ele>
        <time>2019-08-20T08:54:20Z</time>
      </trkpt>
      <trkpt lat="48.07819" lon="6.92234">
        <ele>739.87</ele>
        <time>2019-08-20T08:54:34Z</time>
      </trkpt>
      <trkpt lat="48.07811" lon="6.92229">
        <ele>740.83</ele>
        <time>2019-08-20T08:54:45Z</time>
      </trkpt>
      <trkpt lat="48.07802" lon="6.92225">
        <ele>742.76</ele>
        <time>2019-08-20T08:54:57Z</time>
      </trkpt>
      <trkpt lat="48.07799" lon="6.9222">
        <ele>744.2</ele>
        <time>2019-08-20T08:55:09Z</time>
      </trkpt>
      <trkpt lat="48.07796" lon="6.92222">
        <ele>745.16</ele>
        <time>2019-08-20T08:55:16Z</time>
      </trkpt>
      <trkpt lat="48.0779" lon="6.92212">
        <ele>746.6</ele>
        <time>2019-08-20T08:55:30Z</time>
      </trkpt>
      <trkpt lat="48.07784" lon="6.92202">
        <ele>749.97</ele>
        <time>2019-08-20T08:55:42Z</time>
      </trkpt>
      <trkpt lat="48.07777" lon="6.92196">
        <ele>751.41</ele>
        <time>2019-08-20T08:55:55Z</time>
      </trkpt>
      <trkpt lat="48.07772" lon="6.92193">
        <ele>753.33</ele>
        <time>2019-08-20T08:56:06Z</time>
      </trkpt>
      <trkpt lat="48.07767" lon="6.9219">
        <ele>755.25</ele>
        <time>2019-08-20T08:56:22Z</time>
      </trkpt>
      <trkpt lat="48.07761" lon="6.92183">
        <ele>757.18</ele>
        <time>2019-08-20T08:56:39Z</time>
      </trkpt>
      <trkpt lat="48.07758" lon="6.92179">
        <ele>759.1</ele>
        <time>2019-08-20T08:56:52Z</time>
      </trkpt>
      <trkpt lat="48.07753" lon="6.92173">
        <ele>761.5</ele>
        <time>2019-08-20T08:57:02Z</time>
      </trkpt>
      <trkpt lat="48.07752" lon="6.92172">
        <ele>762.46</ele>
        <time>2019-08-20T08:57:16Z</time>
      </trkpt>
      <trkpt lat="48.07752" lon="6.92168">
        <ele>762.46</ele>
        <time>2019-08-20T08:57:30Z</time>
      </trkpt>
      <trkpt lat="48.07752" lon="6.92164">
        <ele>762.94</ele>
        <time>2019-08-20T08:57:34Z</time>
      </trkpt>
      <trkpt lat="48.07754" lon="6.92153">
        <ele>765.35</ele>
        <time>2019-08-20T08:57:44Z</time>
      </trkpt>
      <trkpt lat="48.07758" lon="6.92149">
        <ele>763.9</ele>
        <time>2019-08-20T08:57:56Z</time>
      </trkpt>
      <trkpt lat="48.07758" lon="6.92146">
        <ele>763.9</ele>
        <time>2019-08-20T08:58:11Z</time>
      </trkpt>
      <trkpt lat="48.07758" lon="6.92146">
        <ele>764.39</ele>
        <time>2019-08-20T08:58:16Z</time>
      </trkpt>
      <trkpt lat="48.07761" lon="6.92141">
        <ele>763.9</ele>
        <time>2019-08-20T08:58:20Z</time>
      </trkpt>
      <trkpt lat="48.07768" lon="6.92121">
        <ele>762.46</ele>
        <time>2019-08-20T08:58:33Z</time>
      </trkpt>
      <trkpt lat="48.07769" lon="6.92113">
        <ele>761.98</ele>
        <time>2019-08-20T08:58:50Z</time>
      </trkpt>
      <trkpt lat="48.07773" lon="6.92097">
        <ele>759.58</ele>
        <time>2019-08-20T08:59:01Z</time>
      </trkpt>
      <trkpt lat="48.07772" lon="6.92075">
        <ele>757.66</ele>
        <time>2019-08-20T08:59:16Z</time>
      </trkpt>
      <trkpt lat="48.07765" lon="6.92045">
        <ele>754.77</ele>
        <time>2019-08-20T08:59:35Z</time>
      </trkpt>
      <trkpt lat="48.07767" lon="6.92025">
        <ele>753.33</ele>
        <time>2019-08-20T08:59:46Z</time>
      </trkpt>
      <trkpt lat="48.07775" lon="6.92007">
        <ele>751.41</ele>
        <time>2019-08-20T09:00:04Z</time>
      </trkpt>
      <trkpt lat="48.07785" lon="6.91994">
        <ele>750.45</ele>
        <time>2019-08-20T09:00:22Z</time>
      </trkpt>
      <trkpt lat="48.078" lon="6.91977">
        <ele>749.49</ele>
        <time>2019-08-20T09:00:39Z</time>
      </trkpt>
      <trkpt lat="48.07812" lon="6.91961">
        <ele>748.04</ele>
        <time>2019-08-20T09:00:55Z</time>
      </trkpt>
      <trkpt lat="48.07812" lon="6.91961">
        <ele>748.04</ele>
        <time>2019-08-20T09:00:56Z</time>
      </trkpt>
      <trkpt lat="48.07824" lon="6.91948">
        <ele>747.56</ele>
        <time>2019-08-20T09:01:10Z</time>
      </trkpt>
      <trkpt lat="48.07841" lon="6.91924">
        <ele>746.6</ele>
        <time>2019-08-20T09:01:30Z</time>
      </trkpt>
      <trkpt lat="48.07852" lon="6.91895">
        <ele>746.6</ele>
        <time>2019-08-20T09:01:48Z</time>
      </trkpt>
      <trkpt lat="48.07856" lon="6.91886">
        <ele>746.12</ele>
        <time>2019-08-20T09:01:53Z</time>
      </trkpt>
      <trkpt lat="48.07862" lon="6.91852">
        <ele>748.04</ele>
        <time>2019-08-20T09:02:14Z</time>
      </trkpt>
      <trkpt lat="48.07867" lon="6.91822">
        <ele>748.52</ele>
        <time>2019-08-20T09:02:32Z</time>
      </trkpt>
      <trkpt lat="48.07872" lon="6.91796">
        <ele>749.97</ele>
        <time>2019-08-20T09:02:49Z</time>
      </trkpt>
      <trkpt lat="48.07876" lon="6.91772">
        <ele>749.97</ele>
        <time>2019-08-20T09:03:05Z</time>
      </trkpt>
      <trkpt lat="48.07875" lon="6.91755">
        <ele>749.97</ele>
        <time>2019-08-20T09:03:14Z</time>
      </trkpt>
      <trkpt lat="48.07871" lon="6.91741">
        <ele>751.41</ele>
        <time>2019-08-20T09:03:21Z</time>
      </trkpt>
      <trkpt lat="48.0787" lon="6.91728">
        <ele>752.37</ele>
        <time>2019-08-20T09:03:36Z</time>
      </trkpt>
      <trkpt lat="48.07873" lon="6.9173">
        <ele>752.85</ele>
        <time>2019-08-20T09:04:06Z</time>
      </trkpt>
      <trkpt lat="48.07867" lon="6.91723">
        <ele>752.85</ele>
        <time>2019-08-20T09:04:24Z</time>
      </trkpt>
      <trkpt lat="48.07867" lon="6.91709">
        <ele>754.29</ele>
        <time>2019-08-20T09:04:36Z</time>
      </trkpt>
      <trkpt lat="48.07867" lon="6.9169">
        <ele>755.25</ele>
        <time>2019-08-20T09:04:48Z</time>
      </trkpt>
      <trkpt lat="48.07866" lon="6.91684">
        <ele>755.25</ele>
        <time>2019-08-20T09:04:53Z</time>
      </trkpt>
      <trkpt lat="48.07861" lon="6.91665">
        <ele>757.66</ele>
        <time>2019-08-20T09:05:10Z</time>
      </trkpt>
      <trkpt lat="48.07852" lon="6.91651">
        <ele>759.1</ele>
        <time>2019-08-20T09:05:23Z</time>
      </trkpt>
      <trkpt lat="48.0785" lon="6.91639">
        <ele>761.02</ele>
        <time>2019-08-20T09:05:39Z</time>
      </trkpt>
      <trkpt lat="48.07847" lon="6.91621">
        <ele>763.9</ele>
        <time>2019-08-20T09:05:57Z</time>
      </trkpt>
      <trkpt lat="48.07842" lon="6.91604">
        <ele>766.31</ele>
        <time>2019-08-20T09:06:15Z</time>
      </trkpt>
      <trkpt lat="48.07827" lon="6.91588">
        <ele>769.67</ele>
        <time>2019-08-20T09:06:34Z</time>
      </trkpt>
      <trkpt lat="48.07821" lon="6.91572">
        <ele>772.08</ele>
        <time>2019-08-20T09:06:54Z</time>
      </trkpt>
      <trkpt lat="48.07812" lon="6.91551">
        <ele>774.96</ele>
        <time>2019-08-20T09:07:14Z</time>
      </trkpt>
      <trkpt lat="48.07796" lon="6.91541">
        <ele>775.92</ele>
        <time>2019-08-20T09:07:29Z</time>
      </trkpt>
      <trkpt lat="48.07788" lon="6.91534">
        <ele>777.84</ele>
        <time>2019-08-20T09:07:44Z</time>
      </trkpt>
      <trkpt lat="48.07768" lon="6.91525">
        <ele>780.73</ele>
        <time>2019-08-20T09:08:05Z</time>
      </trkpt>
      <trkpt lat="48.07752" lon="6.91514">
        <ele>782.65</ele>
        <time>2019-08-20T09:08:28Z</time>
      </trkpt>
      <trkpt lat="48.07738" lon="6.91494">
        <ele>785.53</ele>
        <time>2019-08-20T09:08:53Z</time>
      </trkpt>
      <trkpt lat="48.07731" lon="6.91485">
        <ele>787.94</ele>
        <time>2019-08-20T09:09:17Z</time>
      </trkpt>
      <trkpt lat="48.07734" lon="6.91463">
        <ele>788.42</ele>
        <time>2019-08-20T09:09:39Z</time>
      </trkpt>
      <trkpt lat="48.07743" lon="6.91438">
        <ele>789.86</ele>
        <time>2019-08-20T09:09:59Z</time>
      </trkpt>
      <trkpt lat="48.0774" lon="6.91408">
        <ele>789.86</ele>
        <time>2019-08-20T09:10:18Z</time>
      </trkpt>
      <trkpt lat="48.0775" lon="6.91401">
        <ele>790.34</ele>
        <time>2019-08-20T09:10:37Z</time>
      </trkpt>
      <trkpt lat="48.07773" lon="6.91397">
        <ele>790.82</ele>
        <time>2019-08-20T09:10:58Z</time>
      </trkpt>
      <trkpt lat="48.07792" lon="6.91378">
        <ele>790.82</ele>
        <time>2019-08-20T09:11:18Z</time>
      </trkpt>
      <trkpt lat="48.07794" lon="6.91374">
        <ele>790.82</ele>
        <time>2019-08-20T09:11:20Z</time>
      </trkpt>
      <trkpt lat="48.07804" lon="6.91365">
        <ele>790.34</ele>
        <time>2019-08-20T09:11:35Z</time>
      </trkpt>
      <trkpt lat="48.07814" lon="6.91358">
        <ele>790.34</ele>
        <time>2019-08-20T09:11:47Z</time>
      </trkpt>
      <trkpt lat="48.07823" lon="6.9135">
        <ele>789.86</ele>
        <time>2019-08-20T09:12:05Z</time>
      </trkpt>
      <trkpt lat="48.07825" lon="6.91347">
        <ele>790.34</ele>
        <time>2019-08-20T09:12:24Z</time>
      </trkpt>
      <trkpt lat="48.07839" lon="6.9133">
        <ele>789.86</ele>
        <time>2019-08-20T09:12:40Z</time>
      </trkpt>
      <trkpt lat="48.0784" lon="6.9133">
        <ele>789.38</ele>
        <time>2019-08-20T09:12:41Z</time>
      </trkpt>
      <trkpt lat="48.07843" lon="6.91326">
        <ele>789.38</ele>
        <time>2019-08-20T09:12:44Z</time>
      </trkpt>
      <trkpt lat="48.07857" lon="6.91311">
        <ele>789.38</ele>
        <time>2019-08-20T09:13:00Z</time>
      </trkpt>
      <trkpt lat="48.07867" lon="6.91301">
        <ele>788.9</ele>
        <time>2019-08-20T09:13:15Z</time>
      </trkpt>
      <trkpt lat="48.07883" lon="6.91272">
        <ele>788.42</ele>
        <time>2019-08-20T09:13:31Z</time>
      </trkpt>
      <trkpt lat="48.07891" lon="6.9125">
        <ele>787.94</ele>
        <time>2019-08-20T09:13:45Z</time>
      </trkpt>
      <trkpt lat="48.07892" lon="6.91248">
        <ele>788.42</ele>
        <time>2019-08-20T09:13:47Z</time>
      </trkpt>
      <trkpt lat="48.07899" lon="6.91224">
        <ele>788.42</ele>
        <time>2019-08-20T09:14:00Z</time>
      </trkpt>
      <trkpt lat="48.07899" lon="6.91222">
        <ele>787.94</ele>
        <time>2019-08-20T09:14:01Z</time>
      </trkpt>
      <trkpt lat="48.07909" lon="6.91195">
        <ele>787.94</ele>
        <time>2019-08-20T09:14:20Z</time>
      </trkpt>
      <trkpt lat="48.07921" lon="6.91177">
        <ele>786.98</ele>
        <time>2019-08-20T09:14:33Z</time>
      </trkpt>
      <trkpt lat="48.07922" lon="6.91173">
        <ele>787.46</ele>
        <time>2019-08-20T09:14:49Z</time>
      </trkpt>
      <trkpt lat="48.07927" lon="6.91177">
        <ele>787.94</ele>
        <time>2019-08-20T09:15:20Z</time>
      </trkpt>
      <trkpt lat="48.07911" lon="6.9118">
        <ele>788.42</ele>
        <time>2019-08-20T09:15:40Z</time>
      </trkpt>
      <trkpt lat="48.07906" lon="6.91183">
        <ele>789.38</ele>
        <time>2019-08-20T09:15:49Z</time>
      </trkpt>
      <trkpt lat="48.079" lon="6.91179">
        <ele>792.26</ele>
        <time>2019-08-20T09:16:05Z</time>
      </trkpt>
      <trkpt lat="48.07891" lon="6.91187">
        <ele>795.15</ele>
        <time>2019-08-20T09:16:25Z</time>
      </trkpt>
      <trkpt lat="48.07885" lon="6.91191">
        <ele>797.07</ele>
        <time>2019-08-20T09:16:42Z</time>
      </trkpt>
      <trkpt lat="48.07874" lon="6.91195">
        <ele>799.95</ele>
        <time>2019-08-20T09:16:59Z</time>
      </trkpt>
      <trkpt lat="48.07864" lon="6.91198">
        <ele>802.84</ele>
        <time>2019-08-20T09:17:18Z</time>
      </trkpt>
      <trkpt lat="48.07848" lon="6.91197">
        <ele>805.24</ele>
        <time>2019-08-20T09:17:36Z</time>
      </trkpt>
      <trkpt lat="48.07844" lon="6.91207">
        <ele>808.13</ele>
        <time>2019-08-20T09:17:52Z</time>
      </trkpt>
      <trkpt lat="48.07838" lon="6.91206">
        <ele>809.09</ele>
        <time>2019-08-20T09:18:09Z</time>
      </trkpt>
      <trkpt lat="48.07837" lon="6.91209">
        <ele>809.57</ele>
        <time>2019-08-20T09:18:27Z</time>
      </trkpt>
      <trkpt lat="48.07831" lon="6.91206">
        <ele>811.01</ele>
        <time>2019-08-20T09:18:40Z</time>
      </trkpt>
      <trkpt lat="48.0783" lon="6.91204">
        <ele>811.97</ele>
        <time>2019-08-20T09:18:42Z</time>
      </trkpt>
      <trkpt lat="48.07819" lon="6.91199">
        <ele>813.89</ele>
        <time>2019-08-20T09:18:58Z</time>
      </trkpt>
      <trkpt lat="48.07811" lon="6.9119">
        <ele>816.3</ele>
        <time>2019-08-20T09:19:13Z</time>
      </trkpt>
      <trkpt lat="48.07799" lon="6.91191">
        <ele>818.22</ele>
        <time>2019-08-20T09:19:29Z</time>
      </trkpt>
      <trkpt lat="48.07789" lon="6.91191">
        <ele>820.14</ele>
        <time>2019-08-20T09:19:45Z</time>
      </trkpt>
      <trkpt lat="48.07777" lon="6.91187">
        <ele>822.06</ele>
        <time>2019-08-20T09:20:04Z</time>
      </trkpt>
      <trkpt lat="48.07772" lon="6.91197">
        <ele>823.03</ele>
        <time>2019-08-20T09:20:24Z</time>
      </trkpt>
      <trkpt lat="48.07767" lon="6.91202">
        <ele>825.91</ele>
        <time>2019-08-20T09:20:42Z</time>
      </trkpt>
      <trkpt lat="48.07765" lon="6.91197">
        <ele>829.27</ele>
        <time>2019-08-20T09:20:58Z</time>
      </trkpt>
      <trkpt lat="48.07767" lon="6.91188">
        <ele>830.72</ele>
        <time>2019-08-20T09:21:15Z</time>
      </trkpt>
      <trkpt lat="48.07771" lon="6.91174">
        <ele>834.08</ele>
        <time>2019-08-20T09:21:31Z</time>
      </trkpt>
      <trkpt lat="48.07764" lon="6.91168">
        <ele>836.96</ele>
        <time>2019-08-20T09:21:47Z</time>
      </trkpt>
      <trkpt lat="48.07758" lon="6.91167">
        <ele>840.33</ele>
        <time>2019-08-20T09:22:04Z</time>
      </trkpt>
      <trkpt lat="48.07764" lon="6.91156">
        <ele>843.21</ele>
        <time>2019-08-20T09:22:22Z</time>
      </trkpt>
      <trkpt lat="48.07765" lon="6.91143">
        <ele>846.1</ele>
        <time>2019-08-20T09:22:41Z</time>
      </trkpt>
      <trkpt lat="48.07762" lon="6.91123">
        <ele>848.98</ele>
        <time>2019-08-20T09:22:57Z</time>
      </trkpt>
      <trkpt lat="48.0774" lon="6.91117">
        <ele>850.9</ele>
        <time>2019-08-20T09:23:15Z</time>
      </trkpt>
      <trkpt lat="48.07729" lon="6.91119">
        <ele>853.31</ele>
        <time>2019-08-20T09:23:33Z</time>
      </trkpt>
      <trkpt lat="48.07721" lon="6.91122">
        <ele>855.71</ele>
        <time>2019-08-20T09:23:50Z</time>
      </trkpt>
      <trkpt lat="48.07704" lon="6.91124">
        <ele>857.15</ele>
        <time>2019-08-20T09:24:08Z</time>
      </trkpt>
      <trkpt lat="48.07698" lon="6.91126">
        <ele>859.56</ele>
        <time>2019-08-20T09:24:20Z</time>
      </trkpt>
      <trkpt lat="48.077" lon="6.91115">
        <ele>859.56</ele>
        <time>2019-08-20T09:24:34Z</time>
      </trkpt>
      <trkpt lat="48.07694" lon="6.91101">
        <ele>859.56</ele>
        <time>2019-08-20T09:25:04Z</time>
      </trkpt>
      <trkpt lat="48.07693" lon="6.91103">
        <ele>859.56</ele>
        <time>2019-08-20T09:25:27Z</time>
      </trkpt>
      <trkpt lat="48.07699" lon="6.91105">
        <ele>859.56</ele>
        <time>2019-08-20T09:25:42Z</time>
      </trkpt>
      <trkpt lat="48.07709" lon="6.91101">
        <ele>859.08</ele>
        <time>2019-08-20T09:25:57Z</time>
      </trkpt>
      <trkpt lat="48.07711" lon="6.91097">
        <ele>859.56</ele>
        <time>2019-08-20T09:26:00Z</time>
      </trkpt>
      <trkpt lat="48.07719" lon="6.91085">
        <ele>859.08</ele>
        <time>2019-08-20T09:26:12Z</time>
      </trkpt>
      <trkpt lat="48.07718" lon="6.9107">
        <ele>858.59</ele>
        <time>2019-08-20T09:26:28Z</time>
      </trkpt>
      <trkpt lat="48.07718" lon="6.91064">
        <ele>858.59</ele>
        <time>2019-08-20T09:26:39Z</time>
      </trkpt>
      <trkpt lat="48.07729" lon="6.91055">
        <ele>857.15</ele>
        <time>2019-08-20T09:26:56Z</time>
      </trkpt>
      <trkpt lat="48.07732" lon="6.91037">
        <ele>857.15</ele>
        <time>2019-08-20T09:27:15Z</time>
      </trkpt>
      <trkpt lat="48.0774" lon="6.91014">
        <ele>858.11</ele>
        <time>2019-08-20T09:27:33Z</time>
      </trkpt>
      <trkpt lat="48.0774" lon="6.90985">
        <ele>859.56</ele>
        <time>2019-08-20T09:27:51Z</time>
      </trkpt>
      <trkpt lat="48.07739" lon="6.90955">
        <ele>860.52</ele>
        <time>2019-08-20T09:28:08Z</time>
      </trkpt>
      <trkpt lat="48.07741" lon="6.90932">
        <ele>860.52</ele>
        <time>2019-08-20T09:28:21Z</time>
      </trkpt>
      <trkpt lat="48.07743" lon="6.90905">
        <ele>860.04</ele>
        <time>2019-08-20T09:28:34Z</time>
      </trkpt>
      <trkpt lat="48.07744" lon="6.90877">
        <ele>860.04</ele>
        <time>2019-08-20T09:28:49Z</time>
      </trkpt>
      <trkpt lat="48.07741" lon="6.90847">
        <ele>861</ele>
        <time>2019-08-20T09:29:05Z</time>
      </trkpt>
      <trkpt lat="48.07743" lon="6.90825">
        <ele>860.52</ele>
        <time>2019-08-20T09:29:19Z</time>
      </trkpt>
      <trkpt lat="48.07734" lon="6.90799">
        <ele>862.44</ele>
        <time>2019-08-20T09:29:34Z</time>
      </trkpt>
      <trkpt lat="48.07728" lon="6.90783">
        <ele>862.44</ele>
        <time>2019-08-20T09:29:50Z</time>
      </trkpt>
      <trkpt lat="48.07726" lon="6.90787">
        <ele>861.96</ele>
        <time>2019-08-20T09:30:16Z</time>
      </trkpt>
      <trkpt lat="48.07729" lon="6.90788">
        <ele>862.44</ele>
        <time>2019-08-20T09:30:52Z</time>
      </trkpt>
      <trkpt lat="48.07735" lon="6.90794">
        <ele>862.92</ele>
        <time>2019-08-20T09:31:24Z</time>
      </trkpt>
      <trkpt lat="48.07726" lon="6.90792">
        <ele>864.36</ele>
        <time>2019-08-20T09:31:57Z</time>
      </trkpt>
      <trkpt lat="48.07725" lon="6.90767">
        <ele>862.92</ele>
        <time>2019-08-20T09:32:15Z</time>
      </trkpt>
      <trkpt lat="48.07727" lon="6.90743">
        <ele>861.96</ele>
        <time>2019-08-20T09:32:33Z</time>
      </trkpt>
      <trkpt lat="48.07732" lon="6.90738">
        <ele>862.92</ele>
        <time>2019-08-20T09:32:56Z</time>
      </trkpt>
      <trkpt lat="48.07725" lon="6.90716">
        <ele>862.44</ele>
        <time>2019-08-20T09:33:13Z</time>
      </trkpt>
      <trkpt lat="48.07726" lon="6.90713">
        <ele>861.96</ele>
        <time>2019-08-20T09:33:39Z</time>
      </trkpt>
      <trkpt lat="48.07725" lon="6.90709">
        <ele>862.44</ele>
        <time>2019-08-20T09:33:41Z</time>
      </trkpt>
      <trkpt lat="48.07721" lon="6.90675">
        <ele>862.44</ele>
        <time>2019-08-20T09:34:01Z</time>
      </trkpt>
      <trkpt lat="48.07722" lon="6.90667">
        <ele>862.92</ele>
        <time>2019-08-20T09:34:06Z</time>
      </trkpt>
      <trkpt lat="48.07722" lon="6.90649">
        <ele>863.88</ele>
        <time>2019-08-20T09:34:17Z</time>
      </trkpt>
      <trkpt lat="48.0772" lon="6.90628">
        <ele>863.88</ele>
        <time>2019-08-20T09:34:32Z</time>
      </trkpt>
      <trkpt lat="48.07711" lon="6.90611">
        <ele>863.88</ele>
        <time>2019-08-20T09:34:47Z</time>
      </trkpt>
      <trkpt lat="48.0771" lon="6.90608">
        <ele>864.36</ele>
        <time>2019-08-20T09:34:49Z</time>
      </trkpt>
      <trkpt lat="48.07712" lon="6.90596">
        <ele>863.88</ele>
        <time>2019-08-20T09:34:55Z</time>
      </trkpt>
      <trkpt lat="48.07712" lon="6.9059">
        <ele>864.84</ele>
        <time>2019-08-20T09:34:58Z</time>
      </trkpt>
      <trkpt lat="48.0771" lon="6.90575">
        <ele>864.36</ele>
        <time>2019-08-20T09:35:06Z</time>
      </trkpt>
      <trkpt lat="48.07706" lon="6.90551">
        <ele>865.32</ele>
        <time>2019-08-20T09:35:24Z</time>
      </trkpt>
      <trkpt lat="48.07703" lon="6.90526">
        <ele>864.84</ele>
        <time>2019-08-20T09:35:38Z</time>
      </trkpt>
      <trkpt lat="48.077" lon="6.90493">
        <ele>863.88</ele>
        <time>2019-08-20T09:35:57Z</time>
      </trkpt>
      <trkpt lat="48.07702" lon="6.90466">
        <ele>863.4</ele>
        <time>2019-08-20T09:36:16Z</time>
      </trkpt>
      <trkpt lat="48.077" lon="6.90441">
        <ele>863.4</ele>
        <time>2019-08-20T09:36:33Z</time>
      </trkpt>
      <trkpt lat="48.077" lon="6.90408">
        <ele>861.96</ele>
        <time>2019-08-20T09:36:49Z</time>
      </trkpt>
      <trkpt lat="48.077" lon="6.90392">
        <ele>860.04</ele>
        <time>2019-08-20T09:36:57Z</time>
      </trkpt>
      <trkpt lat="48.07696" lon="6.90366">
        <ele>858.59</ele>
        <time>2019-08-20T09:37:13Z</time>
      </trkpt>
      <trkpt lat="48.07691" lon="6.90345">
        <ele>857.15</ele>
        <time>2019-08-20T09:37:28Z</time>
      </trkpt>
      <trkpt lat="48.07678" lon="6.90321">
        <ele>855.71</ele>
        <time>2019-08-20T09:37:45Z</time>
      </trkpt>
      <trkpt lat="48.0767" lon="6.90296">
        <ele>853.79</ele>
        <time>2019-08-20T09:38:03Z</time>
      </trkpt>
      <trkpt lat="48.07667" lon="6.90272">
        <ele>850.42</ele>
        <time>2019-08-20T09:38:17Z</time>
      </trkpt>
      <trkpt lat="48.07662" lon="6.90248">
        <ele>848.02</ele>
        <time>2019-08-20T09:38:31Z</time>
      </trkpt>
      <trkpt lat="48.07666" lon="6.90233">
        <ele>847.54</ele>
        <time>2019-08-20T09:38:44Z</time>
      </trkpt>
      <trkpt lat="48.07669" lon="6.90232">
        <ele>847.06</ele>
        <time>2019-08-20T09:39:02Z</time>
      </trkpt>
      <trkpt lat="48.07668" lon="6.90229">
        <ele>848.02</ele>
        <time>2019-08-20T09:39:15Z</time>
      </trkpt>
      <trkpt lat="48.07657" lon="6.90215">
        <ele>848.02</ele>
        <time>2019-08-20T09:39:29Z</time>
      </trkpt>
      <trkpt lat="48.07654" lon="6.90203">
        <ele>845.14</ele>
        <time>2019-08-20T09:39:43Z</time>
      </trkpt>
      <trkpt lat="48.07644" lon="6.90186">
        <ele>844.18</ele>
        <time>2019-08-20T09:39:57Z</time>
      </trkpt>
      <trkpt lat="48.07642" lon="6.90171">
        <ele>842.25</ele>
        <time>2019-08-20T09:40:09Z</time>
      </trkpt>
      <trkpt lat="48.07643" lon="6.90168">
        <ele>841.77</ele>
        <time>2019-08-20T09:40:21Z</time>
      </trkpt>
      <trkpt lat="48.07644" lon="6.90166">
        <ele>841.77</ele>
        <time>2019-08-20T09:40:24Z</time>
      </trkpt>
      <trkpt lat="48.07644" lon="6.90146">
        <ele>840.81</ele>
        <time>2019-08-20T09:40:39Z</time>
      </trkpt>
      <trkpt lat="48.07645" lon="6.90136">
        <ele>840.33</ele>
        <time>2019-08-20T09:40:54Z</time>
      </trkpt>
      <trkpt lat="48.07642" lon="6.9013">
        <ele>839.37</ele>
        <time>2019-08-20T09:41:08Z</time>
      </trkpt>
      <trkpt lat="48.07638" lon="6.90125">
        <ele>839.37</ele>
        <time>2019-08-20T09:41:19Z</time>
      </trkpt>
      <trkpt lat="48.07637" lon="6.90129">
        <ele>839.37</ele>
        <time>2019-08-20T09:41:47Z</time>
      </trkpt>
      <trkpt lat="48.07641" lon="6.90133">
        <ele>839.85</ele>
        <time>2019-08-20T09:42:14Z</time>
      </trkpt>
      <trkpt lat="48.07639" lon="6.90142">
        <ele>841.29</ele>
        <time>2019-08-20T09:42:27Z</time>
      </trkpt>
      <trkpt lat="48.0764" lon="6.90161">
        <ele>842.25</ele>
        <time>2019-08-20T09:42:44Z</time>
      </trkpt>
      <trkpt lat="48.07639" lon="6.90178">
        <ele>845.14</ele>
        <time>2019-08-20T09:42:59Z</time>
      </trkpt>
      <trkpt lat="48.07644" lon="6.90199">
        <ele>848.02</ele>
        <time>2019-08-20T09:43:13Z</time>
      </trkpt>
      <trkpt lat="48.07646" lon="6.90206">
        <ele>849.94</ele>
        <time>2019-08-20T09:43:28Z</time>
      </trkpt>
      <trkpt lat="48.07646" lon="6.90205">
        <ele>849.94</ele>
        <time>2019-08-20T09:43:35Z</time>
      </trkpt>
      <trkpt lat="48.07641" lon="6.90193">
        <ele>849.46</ele>
        <time>2019-08-20T09:43:46Z</time>
      </trkpt>
      <trkpt lat="48.07634" lon="6.90176">
        <ele>848.98</ele>
        <time>2019-08-20T09:44:00Z</time>
      </trkpt>
      <trkpt lat="48.07629" lon="6.90158">
        <ele>849.46</ele>
        <time>2019-08-20T09:44:15Z</time>
      </trkpt>
      <trkpt lat="48.07621" lon="6.90139">
        <ele>850.42</ele>
        <time>2019-08-20T09:44:29Z</time>
      </trkpt>
      <trkpt lat="48.07615" lon="6.90123">
        <ele>850.42</ele>
        <time>2019-08-20T09:44:45Z</time>
      </trkpt>
      <trkpt lat="48.07614" lon="6.90122">
        <ele>849.94</ele>
        <time>2019-08-20T09:44:46Z</time>
      </trkpt>
      <trkpt lat="48.07609" lon="6.90112">
        <ele>850.42</ele>
        <time>2019-08-20T09:44:58Z</time>
      </trkpt>
      <trkpt lat="48.07606" lon="6.901">
        <ele>850.42</ele>
        <time>2019-08-20T09:45:12Z</time>
      </trkpt>
      <trkpt lat="48.07602" lon="6.90089">
        <ele>850.42</ele>
        <time>2019-08-20T09:45:33Z</time>
      </trkpt>
      <trkpt lat="48.07595" lon="6.9007">
        <ele>850.42</ele>
        <time>2019-08-20T09:45:48Z</time>
      </trkpt>
      <trkpt lat="48.07581" lon="6.90052">
        <ele>849.94</ele>
        <time>2019-08-20T09:46:04Z</time>
      </trkpt>
      <trkpt lat="48.07579" lon="6.90036">
        <ele>850.9</ele>
        <time>2019-08-20T09:46:22Z</time>
      </trkpt>
      <trkpt lat="48.07572" lon="6.90019">
        <ele>850.42</ele>
        <time>2019-08-20T09:46:40Z</time>
      </trkpt>
      <trkpt lat="48.07569" lon="6.90001">
        <ele>851.38</ele>
        <time>2019-08-20T09:46:56Z</time>
      </trkpt>
      <trkpt lat="48.07562" lon="6.89983">
        <ele>851.87</ele>
        <time>2019-08-20T09:47:15Z</time>
      </trkpt>
      <trkpt lat="48.0756" lon="6.89981">
        <ele>851.87</ele>
        <time>2019-08-20T09:47:18Z</time>
      </trkpt>
      <trkpt lat="48.07555" lon="6.8996">
        <ele>852.35</ele>
        <time>2019-08-20T09:47:33Z</time>
      </trkpt>
      <trkpt lat="48.07555" lon="6.89957">
        <ele>851.87</ele>
        <time>2019-08-20T09:47:36Z</time>
      </trkpt>
      <trkpt lat="48.07543" lon="6.89939">
        <ele>852.35</ele>
        <time>2019-08-20T09:47:53Z</time>
      </trkpt>
      <trkpt lat="48.07539" lon="6.89935">
        <ele>852.35</ele>
        <time>2019-08-20T09:48:01Z</time>
      </trkpt>
      <trkpt lat="48.07534" lon="6.89914">
        <ele>852.83</ele>
        <time>2019-08-20T09:48:17Z</time>
      </trkpt>
      <trkpt lat="48.07534" lon="6.89913">
        <ele>852.83</ele>
        <time>2019-08-20T09:48:19Z</time>
      </trkpt>
      <trkpt lat="48.07527" lon="6.89891">
        <ele>852.35</ele>
        <time>2019-08-20T09:48:35Z</time>
      </trkpt>
      <trkpt lat="48.07522" lon="6.89878">
        <ele>852.83</ele>
        <time>2019-08-20T09:48:49Z</time>
      </trkpt>
      <trkpt lat="48.07516" lon="6.89859">
        <ele>853.31</ele>
        <time>2019-08-20T09:49:03Z</time>
      </trkpt>
      <trkpt lat="48.0751" lon="6.89846">
        <ele>853.31</ele>
        <time>2019-08-20T09:49:18Z</time>
      </trkpt>
      <trkpt lat="48.07503" lon="6.89838">
        <ele>854.75</ele>
        <time>2019-08-20T09:49:40Z</time>
      </trkpt>
      <trkpt lat="48.07504" lon="6.89829">
        <ele>853.79</ele>
        <time>2019-08-20T09:49:59Z</time>
      </trkpt>
      <trkpt lat="48.07504" lon="6.89821">
        <ele>852.83</ele>
        <time>2019-08-20T09:50:15Z</time>
      </trkpt>
      <trkpt lat="48.07503" lon="6.89815">
        <ele>853.31</ele>
        <time>2019-08-20T09:50:28Z</time>
      </trkpt>
      <trkpt lat="48.07496" lon="6.8979">
        <ele>853.79</ele>
        <time>2019-08-20T09:50:45Z</time>
      </trkpt>
      <trkpt lat="48.07488" lon="6.8978">
        <ele>853.79</ele>
        <time>2019-08-20T09:51:00Z</time>
      </trkpt>
      <trkpt lat="48.07486" lon="6.89766">
        <ele>851.87</ele>
        <time>2019-08-20T09:51:13Z</time>
      </trkpt>
      <trkpt lat="48.07482" lon="6.89758">
        <ele>851.87</ele>
        <time>2019-08-20T09:51:28Z</time>
      </trkpt>
      <trkpt lat="48.07479" lon="6.89755">
        <ele>848.98</ele>
        <time>2019-08-20T09:51:39Z</time>
      </trkpt>
      <trkpt lat="48.07484" lon="6.89742">
        <ele>848.02</ele>
        <time>2019-08-20T09:52:00Z</time>
      </trkpt>
      <trkpt lat="48.07487" lon="6.89737">
        <ele>845.14</ele>
        <time>2019-08-20T09:52:10Z</time>
      </trkpt>
      <trkpt lat="48.07491" lon="6.89726">
        <ele>841.77</ele>
        <time>2019-08-20T09:52:23Z</time>
      </trkpt>
      <trkpt lat="48.07494" lon="6.89716">
        <ele>838.41</ele>
        <time>2019-08-20T09:52:37Z</time>
      </trkpt>
      <trkpt lat="48.07496" lon="6.89695">
        <ele>835.52</ele>
        <time>2019-08-20T09:52:54Z</time>
      </trkpt>
      <trkpt lat="48.07493" lon="6.89666">
        <ele>832.64</ele>
        <time>2019-08-20T09:53:11Z</time>
      </trkpt>
      <trkpt lat="48.07492" lon="6.89649">
        <ele>832.16</ele>
        <time>2019-08-20T09:53:31Z</time>
      </trkpt>
      <trkpt lat="48.07491" lon="6.89642">
        <ele>830.24</ele>
        <time>2019-08-20T09:53:46Z</time>
      </trkpt>
      <trkpt lat="48.0749" lon="6.89639">
        <ele>828.79</ele>
        <time>2019-08-20T09:53:49Z</time>
      </trkpt>
      <trkpt lat="48.07493" lon="6.89611">
        <ele>825.91</ele>
        <time>2019-08-20T09:54:05Z</time>
      </trkpt>
      <trkpt lat="48.07492" lon="6.89589">
        <ele>823.03</ele>
        <time>2019-08-20T09:54:20Z</time>
      </trkpt>
      <trkpt lat="48.07482" lon="6.89563">
        <ele>822.06</ele>
        <time>2019-08-20T09:54:39Z</time>
      </trkpt>
      <trkpt lat="48.07474" lon="6.89553">
        <ele>822.06</ele>
        <time>2019-08-20T09:54:56Z</time>
      </trkpt>
      <trkpt lat="48.07475" lon="6.89555">
        <ele>821.58</ele>
        <time>2019-08-20T09:55:10Z</time>
      </trkpt>
      <trkpt lat="48.07478" lon="6.89557">
        <ele>822.55</ele>
        <time>2019-08-20T09:55:26Z</time>
      </trkpt>
      <trkpt lat="48.07474" lon="6.89555">
        <ele>822.55</ele>
        <time>2019-08-20T09:55:45Z</time>
      </trkpt>
      <trkpt lat="48.07471" lon="6.89563">
        <ele>822.55</ele>
        <time>2019-08-20T09:56:17Z</time>
      </trkpt>
      <trkpt lat="48.07474" lon="6.89558">
        <ele>822.55</ele>
        <time>2019-08-20T09:56:28Z</time>
      </trkpt>
      <trkpt lat="48.07476" lon="6.89552">
        <ele>822.55</ele>
        <time>2019-08-20T09:56:45Z</time>
      </trkpt>
      <trkpt lat="48.07476" lon="6.89552">
        <ele>822.06</ele>
        <time>2019-08-20T09:57:10Z</time>
      </trkpt>
      <trkpt lat="48.07471" lon="6.89539">
        <ele>821.58</ele>
        <time>2019-08-20T09:57:22Z</time>
      </trkpt>
      <trkpt lat="48.07465" lon="6.89525">
        <ele>818.22</ele>
        <time>2019-08-20T09:57:35Z</time>
      </trkpt>
      <trkpt lat="48.07458" lon="6.8951">
        <ele>816.78</ele>
        <time>2019-08-20T09:57:53Z</time>
      </trkpt>
      <trkpt lat="48.07456" lon="6.89497">
        <ele>815.82</ele>
        <time>2019-08-20T09:58:02Z</time>
      </trkpt>
      <trkpt lat="48.07452" lon="6.89473">
        <ele>814.85</ele>
        <time>2019-08-20T09:58:18Z</time>
      </trkpt>
      <trkpt lat="48.07442" lon="6.89446">
        <ele>812.93</ele>
        <time>2019-08-20T09:58:36Z</time>
      </trkpt>
      <trkpt lat="48.07437" lon="6.89427">
        <ele>811.97</ele>
        <time>2019-08-20T09:58:51Z</time>
      </trkpt>
      <trkpt lat="48.07431" lon="6.89406">
        <ele>811.97</ele>
        <time>2019-08-20T09:59:04Z</time>
      </trkpt>
      <trkpt lat="48.07422" lon="6.89387">
        <ele>810.53</ele>
        <time>2019-08-20T09:59:17Z</time>
      </trkpt>
      <trkpt lat="48.07414" lon="6.89361">
        <ele>808.61</ele>
        <time>2019-08-20T09:59:33Z</time>
      </trkpt>
      <trkpt lat="48.07409" lon="6.89336">
        <ele>806.68</ele>
        <time>2019-08-20T09:59:50Z</time>
      </trkpt>
      <trkpt lat="48.07409" lon="6.89332">
        <ele>806.2</ele>
        <time>2019-08-20T09:59:52Z</time>
      </trkpt>
      <trkpt lat="48.07403" lon="6.89311">
        <ele>804.28</ele>
        <time>2019-08-20T10:00:06Z</time>
      </trkpt>
      <trkpt lat="48.07403" lon="6.89309">
        <ele>804.28</ele>
        <time>2019-08-20T10:00:07Z</time>
      </trkpt>
      <trkpt lat="48.074" lon="6.89286">
        <ele>801.4</ele>
        <time>2019-08-20T10:00:24Z</time>
      </trkpt>
      <trkpt lat="48.07393" lon="6.89264">
        <ele>798.99</ele>
        <time>2019-08-20T10:00:39Z</time>
      </trkpt>
      <trkpt lat="48.0739" lon="6.89257">
        <ele>798.51</ele>
        <time>2019-08-20T10:00:55Z</time>
      </trkpt>
      <trkpt lat="48.07386" lon="6.89243">
        <ele>797.55</ele>
        <time>2019-08-20T10:01:08Z</time>
      </trkpt>
      <trkpt lat="48.07379" lon="6.89231">
        <ele>797.07</ele>
        <time>2019-08-20T10:01:14Z</time>
      </trkpt>
      <trkpt lat="48.07375" lon="6.89211">
        <ele>795.63</ele>
        <time>2019-08-20T10:01:28Z</time>
      </trkpt>
      <trkpt lat="48.07377" lon="6.89196">
        <ele>795.15</ele>
        <time>2019-08-20T10:01:41Z</time>
      </trkpt>
      <trkpt lat="48.0737" lon="6.89183">
        <ele>794.67</ele>
        <time>2019-08-20T10:01:54Z</time>
      </trkpt>
      <trkpt lat="48.07359" lon="6.89172">
        <ele>794.67</ele>
        <time>2019-08-20T10:02:13Z</time>
      </trkpt>
      <trkpt lat="48.07359" lon="6.89171">
        <ele>794.67</ele>
        <time>2019-08-20T10:02:24Z</time>
      </trkpt>
      <trkpt lat="48.07357" lon="6.89164">
        <ele>793.71</ele>
        <time>2019-08-20T10:02:31Z</time>
      </trkpt>
      <trkpt lat="48.07354" lon="6.89165">
        <ele>793.71</ele>
        <time>2019-08-20T10:02:42Z</time>
      </trkpt>
      <trkpt lat="48.0735" lon="6.89163">
        <ele>792.74</ele>
        <time>2019-08-20T10:02:57Z</time>
      </trkpt>
      <trkpt lat="48.0735" lon="6.89161">
        <ele>793.22</ele>
        <time>2019-08-20T10:03:13Z</time>
      </trkpt>
      <trkpt lat="48.07346" lon="6.89148">
        <ele>791.78</ele>
        <time>2019-08-20T10:03:29Z</time>
      </trkpt>
      <trkpt lat="48.07334" lon="6.89121">
        <ele>788.9</ele>
        <time>2019-08-20T10:03:47Z</time>
      </trkpt>
      <trkpt lat="48.07329" lon="6.89104">
        <ele>786.98</ele>
        <time>2019-08-20T10:04:00Z</time>
      </trkpt>
      <trkpt lat="48.07325" lon="6.89089">
        <ele>785.53</ele>
        <time>2019-08-20T10:04:12Z</time>
      </trkpt>
      <trkpt lat="48.07319" lon="6.89073">
        <ele>783.13</ele>
        <time>2019-08-20T10:04:24Z</time>
      </trkpt>
      <trkpt lat="48.07306" lon="6.8905">
        <ele>781.69</ele>
        <time>2019-08-20T10:04:41Z</time>
      </trkpt>
      <trkpt lat="48.07302" lon="6.89035">
        <ele>780.73</ele>
        <time>2019-08-20T10:04:55Z</time>
      </trkpt>
      <trkpt lat="48.0729" lon="6.89023">
        <ele>779.77</ele>
        <time>2019-08-20T10:05:09Z</time>
      </trkpt>
      <trkpt lat="48.07287" lon="6.8901">
        <ele>779.29</ele>
        <time>2019-08-20T10:05:20Z</time>
      </trkpt>
      <trkpt lat="48.07279" lon="6.8899">
        <ele>775.92</ele>
        <time>2019-08-20T10:05:34Z</time>
      </trkpt>
      <trkpt lat="48.07269" lon="6.8897">
        <ele>773.04</ele>
        <time>2019-08-20T10:05:50Z</time>
      </trkpt>
      <trkpt lat="48.07263" lon="6.88957">
        <ele>771.11</ele>
        <time>2019-08-20T10:06:06Z</time>
      </trkpt>
      <trkpt lat="48.07255" lon="6.88957">
        <ele>771.6</ele>
        <time>2019-08-20T10:06:34Z</time>
      </trkpt>
      <trkpt lat="48.07237" lon="6.88935">
        <ele>768.71</ele>
        <time>2019-08-20T10:06:52Z</time>
      </trkpt>
      <trkpt lat="48.07229" lon="6.88923">
        <ele>767.27</ele>
        <time>2019-08-20T10:07:06Z</time>
      </trkpt>
      <trkpt lat="48.07221" lon="6.8891">
        <ele>766.31</ele>
        <time>2019-08-20T10:07:18Z</time>
      </trkpt>
      <trkpt lat="48.07212" lon="6.88886">
        <ele>763.42</ele>
        <time>2019-08-20T10:07:35Z</time>
      </trkpt>
      <trkpt lat="48.07204" lon="6.88865">
        <ele>759.58</ele>
        <time>2019-08-20T10:07:50Z</time>
      </trkpt>
      <trkpt lat="48.07197" lon="6.88841">
        <ele>757.66</ele>
        <time>2019-08-20T10:08:04Z</time>
      </trkpt>
      <trkpt lat="48.07192" lon="6.88823">
        <ele>755.25</ele>
        <time>2019-08-20T10:08:19Z</time>
      </trkpt>
      <trkpt lat="48.07189" lon="6.88808">
        <ele>751.89</ele>
        <time>2019-08-20T10:08:32Z</time>
      </trkpt>
      <trkpt lat="48.07186" lon="6.8879">
        <ele>749</ele>
        <time>2019-08-20T10:08:47Z</time>
      </trkpt>
      <trkpt lat="48.07183" lon="6.8879">
        <ele>749</ele>
        <time>2019-08-20T10:09:01Z</time>
      </trkpt>
      <trkpt lat="48.07183" lon="6.88791">
        <ele>748.52</ele>
        <time>2019-08-20T10:09:18Z</time>
      </trkpt>
      <trkpt lat="48.07182" lon="6.88789">
        <ele>749</ele>
        <time>2019-08-20T10:09:35Z</time>
      </trkpt>
      <trkpt lat="48.07178" lon="6.88779">
        <ele>749</ele>
        <time>2019-08-20T10:09:42Z</time>
      </trkpt>
      <trkpt lat="48.07174" lon="6.8877">
        <ele>747.56</ele>
        <time>2019-08-20T10:09:48Z</time>
      </trkpt>
      <trkpt lat="48.07174" lon="6.88768">
        <ele>747.08</ele>
        <time>2019-08-20T10:09:54Z</time>
      </trkpt>
      <trkpt lat="48.07174" lon="6.88765">
        <ele>747.08</ele>
        <time>2019-08-20T10:09:56Z</time>
      </trkpt>
      <trkpt lat="48.0717" lon="6.88752">
        <ele>744.68</ele>
        <time>2019-08-20T10:10:12Z</time>
      </trkpt>
      <trkpt lat="48.07169" lon="6.88749">
        <ele>744.2</ele>
        <time>2019-08-20T10:10:16Z</time>
      </trkpt>
      <trkpt lat="48.07168" lon="6.88744">
        <ele>743.72</ele>
        <time>2019-08-20T10:10:21Z</time>
      </trkpt>
      <trkpt lat="48.07166" lon="6.88732">
        <ele>742.28</ele>
        <time>2019-08-20T10:10:33Z</time>
      </trkpt>
      <trkpt lat="48.07164" lon="6.88724">
        <ele>741.79</ele>
        <time>2019-08-20T10:10:41Z</time>
      </trkpt>
      <trkpt lat="48.07163" lon="6.88699">
        <ele>738.91</ele>
        <time>2019-08-20T10:10:57Z</time>
      </trkpt>
      <trkpt lat="48.07161" lon="6.88688">
        <ele>736.99</ele>
        <time>2019-08-20T10:11:10Z</time>
      </trkpt>
      <trkpt lat="48.07163" lon="6.8868">
        <ele>736.03</ele>
        <time>2019-08-20T10:11:29Z</time>
      </trkpt>
      <trkpt lat="48.07163" lon="6.88673">
        <ele>735.55</ele>
        <time>2019-08-20T10:11:38Z</time>
      </trkpt>
      <trkpt lat="48.07164" lon="6.88668">
        <ele>734.58</ele>
        <time>2019-08-20T10:11:42Z</time>
      </trkpt>
      <trkpt lat="48.07166" lon="6.8865">
        <ele>731.7</ele>
        <time>2019-08-20T10:11:56Z</time>
      </trkpt>
      <trkpt lat="48.07163" lon="6.88633">
        <ele>728.82</ele>
        <time>2019-08-20T10:12:10Z</time>
      </trkpt>
      <trkpt lat="48.07163" lon="6.88628">
        <ele>727.86</ele>
        <time>2019-08-20T10:12:14Z</time>
      </trkpt>
      <trkpt lat="48.07155" lon="6.88618">
        <ele>726.41</ele>
        <time>2019-08-20T10:12:22Z</time>
      </trkpt>
      <trkpt lat="48.07152" lon="6.88594">
        <ele>723.05</ele>
        <time>2019-08-20T10:12:40Z</time>
      </trkpt>
      <trkpt lat="48.07153" lon="6.88582">
        <ele>721.61</ele>
        <time>2019-08-20T10:12:49Z</time>
      </trkpt>
      <trkpt lat="48.07159" lon="6.88559">
        <ele>719.68</ele>
        <time>2019-08-20T10:13:04Z</time>
      </trkpt>
      <trkpt lat="48.07159" lon="6.88552">
        <ele>719.2</ele>
        <time>2019-08-20T10:13:15Z</time>
      </trkpt>
      <trkpt lat="48.07158" lon="6.88547">
        <ele>719.2</ele>
        <time>2019-08-20T10:13:18Z</time>
      </trkpt>
      <trkpt lat="48.07156" lon="6.88532">
        <ele>717.76</ele>
        <time>2019-08-20T10:13:33Z</time>
      </trkpt>
      <trkpt lat="48.07157" lon="6.88527">
        <ele>717.28</ele>
        <time>2019-08-20T10:13:39Z</time>
      </trkpt>
      <trkpt lat="48.07159" lon="6.88522">
        <ele>715.84</ele>
        <time>2019-08-20T10:13:43Z</time>
      </trkpt>
      <trkpt lat="48.07162" lon="6.88519">
        <ele>714.88</ele>
        <time>2019-08-20T10:13:48Z</time>
      </trkpt>
      <trkpt lat="48.07165" lon="6.88511">
        <ele>713.92</ele>
        <time>2019-08-20T10:13:55Z</time>
      </trkpt>
      <trkpt lat="48.07169" lon="6.88505">
        <ele>712.47</ele>
        <time>2019-08-20T10:14:02Z</time>
      </trkpt>
      <trkpt lat="48.07176" lon="6.88485">
        <ele>709.59</ele>
        <time>2019-08-20T10:14:18Z</time>
      </trkpt>
      <trkpt lat="48.07179" lon="6.88473">
        <ele>707.19</ele>
        <time>2019-08-20T10:14:30Z</time>
      </trkpt>
      <trkpt lat="48.07179" lon="6.88453">
        <ele>704.3</ele>
        <time>2019-08-20T10:14:43Z</time>
      </trkpt>
      <trkpt lat="48.0718" lon="6.88453">
        <ele>704.78</ele>
        <time>2019-08-20T10:14:44Z</time>
      </trkpt>
      <trkpt lat="48.0718" lon="6.88438">
        <ele>702.86</ele>
        <time>2019-08-20T10:14:54Z</time>
      </trkpt>
      <trkpt lat="48.07178" lon="6.8842">
        <ele>699.5</ele>
        <time>2019-08-20T10:15:06Z</time>
      </trkpt>
      <trkpt lat="48.07177" lon="6.88417">
        <ele>699.5</ele>
        <time>2019-08-20T10:15:08Z</time>
      </trkpt>
      <trkpt lat="48.07175" lon="6.88403">
        <ele>697.09</ele>
        <time>2019-08-20T10:15:19Z</time>
      </trkpt>
      <trkpt lat="48.07174" lon="6.884">
        <ele>696.61</ele>
        <time>2019-08-20T10:15:21Z</time>
      </trkpt>
      <trkpt lat="48.07169" lon="6.8837">
        <ele>693.73</ele>
        <time>2019-08-20T10:15:41Z</time>
      </trkpt>
      <trkpt lat="48.07167" lon="6.88352">
        <ele>691.81</ele>
        <time>2019-08-20T10:15:52Z</time>
      </trkpt>
      <trkpt lat="48.07162" lon="6.88338">
        <ele>691.81</ele>
        <time>2019-08-20T10:16:01Z</time>
      </trkpt>
      <trkpt lat="48.07148" lon="6.88314">
        <ele>691.81</ele>
        <time>2019-08-20T10:16:18Z</time>
      </trkpt>
      <trkpt lat="48.07145" lon="6.88306">
        <ele>691.81</ele>
        <time>2019-08-20T10:16:23Z</time>
      </trkpt>
      <trkpt lat="48.07145" lon="6.88301">
        <ele>691.33</ele>
        <time>2019-08-20T10:16:26Z</time>
      </trkpt>
      <trkpt lat="48.0715" lon="6.88289">
        <ele>690.84</ele>
        <time>2019-08-20T10:16:35Z</time>
      </trkpt>
      <trkpt lat="48.07151" lon="6.88284">
        <ele>690.36</ele>
        <time>2019-08-20T10:16:38Z</time>
      </trkpt>
      <trkpt lat="48.07149" lon="6.88278">
        <ele>690.84</ele>
        <time>2019-08-20T10:16:42Z</time>
      </trkpt>
      <trkpt lat="48.07149" lon="6.88271">
        <ele>691.33</ele>
        <time>2019-08-20T10:16:57Z</time>
      </trkpt>
      <trkpt lat="48.0715" lon="6.88268">
        <ele>690.84</ele>
        <time>2019-08-20T10:17:21Z</time>
      </trkpt>
      <trkpt lat="48.07142" lon="6.88265">
        <ele>690.84</ele>
        <time>2019-08-20T10:17:45Z</time>
      </trkpt>
      <trkpt lat="48.07134" lon="6.88253">
        <ele>690.36</ele>
        <time>2019-08-20T10:18:03Z</time>
      </trkpt>
      <trkpt lat="48.07131" lon="6.88248">
        <ele>690.36</ele>
        <time>2019-08-20T10:18:09Z</time>
      </trkpt>
      <trkpt lat="48.0712" lon="6.88225">
        <ele>690.36</ele>
        <time>2019-08-20T10:18:25Z</time>
      </trkpt>
      <trkpt lat="48.07119" lon="6.88224">
        <ele>690.36</ele>
        <time>2019-08-20T10:18:26Z</time>
      </trkpt>
      <trkpt lat="48.07115" lon="6.8822">
        <ele>690.84</ele>
        <time>2019-08-20T10:18:30Z</time>
      </trkpt>
      <trkpt lat="48.07114" lon="6.88215">
        <ele>690.36</ele>
        <time>2019-08-20T10:18:36Z</time>
      </trkpt>
      <trkpt lat="48.07116" lon="6.88199">
        <ele>689.88</ele>
        <time>2019-08-20T10:18:47Z</time>
      </trkpt>
      <trkpt lat="48.07123" lon="6.88179">
        <ele>689.4</ele>
        <time>2019-08-20T10:18:59Z</time>
      </trkpt>
      <trkpt lat="48.07133" lon="6.88156">
        <ele>688.92</ele>
        <time>2019-08-20T10:19:14Z</time>
      </trkpt>
      <trkpt lat="48.07135" lon="6.88147">
        <ele>687.48</ele>
        <time>2019-08-20T10:19:20Z</time>
      </trkpt>
      <trkpt lat="48.07134" lon="6.88145">
        <ele>687.48</ele>
        <time>2019-08-20T10:19:26Z</time>
      </trkpt>
      <trkpt lat="48.07135" lon="6.88146">
        <ele>687.96</ele>
        <time>2019-08-20T10:19:28Z</time>
      </trkpt>
      <trkpt lat="48.07137" lon="6.88136">
        <ele>687.48</ele>
        <time>2019-08-20T10:19:35Z</time>
      </trkpt>
      <trkpt lat="48.07135" lon="6.88116">
        <ele>687.48</ele>
        <time>2019-08-20T10:19:48Z</time>
      </trkpt>
      <trkpt lat="48.07135" lon="6.88114">
        <ele>687.48</ele>
        <time>2019-08-20T10:19:49Z</time>
      </trkpt>
      <trkpt lat="48.07128" lon="6.88092">
        <ele>687.48</ele>
        <time>2019-08-20T10:20:02Z</time>
      </trkpt>
      <trkpt lat="48.07126" lon="6.88087">
        <ele>687.48</ele>
        <time>2019-08-20T10:20:06Z</time>
      </trkpt>
      <trkpt lat="48.07123" lon="6.88074">
        <ele>688.44</ele>
        <time>2019-08-20T10:20:13Z</time>
      </trkpt>
      <trkpt lat="48.07117" lon="6.88053">
        <ele>688.44</ele>
        <time>2019-08-20T10:20:26Z</time>
      </trkpt>
      <trkpt lat="48.07113" lon="6.88041">
        <ele>688.44</ele>
        <time>2019-08-20T10:20:41Z</time>
      </trkpt>
      <trkpt lat="48.07111" lon="6.8804">
        <ele>687.48</ele>
        <time>2019-08-20T10:20:58Z</time>
      </trkpt>
      <trkpt lat="48.0711" lon="6.88036">
        <ele>687.48</ele>
        <time>2019-08-20T10:21:25Z</time>
      </trkpt>
      <trkpt lat="48.07109" lon="6.88026">
        <ele>687.48</ele>
        <time>2019-08-20T10:21:37Z</time>
      </trkpt>
      <trkpt lat="48.07103" lon="6.88008">
        <ele>687.96</ele>
        <time>2019-08-20T10:21:50Z</time>
      </trkpt>
      <trkpt lat="48.07102" lon="6.88004">
        <ele>687.48</ele>
        <time>2019-08-20T10:21:54Z</time>
      </trkpt>
      <trkpt lat="48.07098" lon="6.87989">
        <ele>687</ele>
        <time>2019-08-20T10:22:04Z</time>
      </trkpt>
      <trkpt lat="48.07096" lon="6.87984">
        <ele>687</ele>
        <time>2019-08-20T10:22:08Z</time>
      </trkpt>
      <trkpt lat="48.07094" lon="6.8798">
        <ele>687</ele>
        <time>2019-08-20T10:22:11Z</time>
      </trkpt>
      <trkpt lat="48.07093" lon="6.8796">
        <ele>687</ele>
        <time>2019-08-20T10:22:22Z</time>
      </trkpt>
      <trkpt lat="48.07092" lon="6.87942">
        <ele>685.56</ele>
        <time>2019-08-20T10:22:33Z</time>
      </trkpt>
      <trkpt lat="48.07092" lon="6.87937">
        <ele>686.04</ele>
        <time>2019-08-20T10:22:36Z</time>
      </trkpt>
      <trkpt lat="48.07093" lon="6.87934">
        <ele>686.04</ele>
        <time>2019-08-20T10:22:37Z</time>
      </trkpt>
      <trkpt lat="48.07093" lon="6.87919">
        <ele>686.04</ele>
        <time>2019-08-20T10:22:47Z</time>
      </trkpt>
      <trkpt lat="48.07089" lon="6.87899">
        <ele>685.56</ele>
        <time>2019-08-20T10:23:00Z</time>
      </trkpt>
      <trkpt lat="48.07087" lon="6.87895">
        <ele>685.56</ele>
        <time>2019-08-20T10:23:02Z</time>
      </trkpt>
      <trkpt lat="48.07068" lon="6.87883">
        <ele>685.08</ele>
        <time>2019-08-20T10:23:14Z</time>
      </trkpt>
      <trkpt lat="48.07065" lon="6.8787">
        <ele>685.08</ele>
        <time>2019-08-20T10:23:34Z</time>
      </trkpt>
      <trkpt lat="48.07064" lon="6.87868">
        <ele>685.08</ele>
        <time>2019-08-20T10:23:43Z</time>
      </trkpt>
      <trkpt lat="48.07064" lon="6.87868">
        <ele>685.56</ele>
        <time>2019-08-20T10:23:44Z</time>
      </trkpt>
      <trkpt lat="48.07064" lon="6.87867">
        <ele>685.08</ele>
        <time>2019-08-20T10:23:45Z</time>
      </trkpt>
      <trkpt lat="48.07066" lon="6.87865">
        <ele>684.6</ele>
        <time>2019-08-20T10:23:54Z</time>
      </trkpt>
      <trkpt lat="48.07067" lon="6.87863">
        <ele>685.08</ele>
        <time>2019-08-20T10:23:55Z</time>
      </trkpt>
      <trkpt lat="48.07068" lon="6.87855">
        <ele>684.6</ele>
        <time>2019-08-20T10:24:01Z</time>
      </trkpt>
      <trkpt lat="48.07063" lon="6.87845">
        <ele>684.12</ele>
        <time>2019-08-20T10:24:11Z</time>
      </trkpt>
      <trkpt lat="48.07062" lon="6.87847">
        <ele>684.6</ele>
        <time>2019-08-20T10:24:24Z</time>
      </trkpt>
      <trkpt lat="48.07061" lon="6.87845">
        <ele>684.6</ele>
        <time>2019-08-20T10:24:29Z</time>
      </trkpt>
      <trkpt lat="48.07061" lon="6.87843">
        <ele>684.6</ele>
        <time>2019-08-20T10:24:30Z</time>
      </trkpt>
      <trkpt lat="48.07061" lon="6.87829">
        <ele>684.12</ele>
        <time>2019-08-20T10:24:41Z</time>
      </trkpt>
      <trkpt lat="48.07062" lon="6.87827">
        <ele>684.12</ele>
        <time>2019-08-20T10:24:43Z</time>
      </trkpt>
      <trkpt lat="48.0706" lon="6.87829">
        <ele>684.12</ele>
        <time>2019-08-20T10:24:53Z</time>
      </trkpt>
      <trkpt lat="48.07062" lon="6.87826">
        <ele>684.12</ele>
        <time>2019-08-20T10:24:58Z</time>
      </trkpt>
      <trkpt lat="48.07051" lon="6.87815">
        <ele>683.63</ele>
        <time>2019-08-20T10:25:10Z</time>
      </trkpt>
      <trkpt lat="48.07051" lon="6.87813">
        <ele>683.63</ele>
        <time>2019-08-20T10:25:12Z</time>
      </trkpt>
      <trkpt lat="48.07051" lon="6.87797">
        <ele>683.63</ele>
        <time>2019-08-20T10:25:22Z</time>
      </trkpt>
      <trkpt lat="48.07053" lon="6.87795">
        <ele>683.15</ele>
        <time>2019-08-20T10:25:25Z</time>
      </trkpt>
      <trkpt lat="48.07054" lon="6.87793">
        <ele>683.63</ele>
        <time>2019-08-20T10:25:26Z</time>
      </trkpt>
      <trkpt lat="48.07053" lon="6.8779">
        <ele>682.67</ele>
        <time>2019-08-20T10:25:27Z</time>
      </trkpt>
      <trkpt lat="48.07053" lon="6.87786">
        <ele>682.67</ele>
        <time>2019-08-20T10:25:28Z</time>
      </trkpt>
      <trkpt lat="48.07052" lon="6.87783">
        <ele>683.15</ele>
        <time>2019-08-20T10:25:29Z</time>
      </trkpt>
      <trkpt lat="48.07052" lon="6.87781">
        <ele>682.67</ele>
        <time>2019-08-20T10:25:30Z</time>
      </trkpt>
      <trkpt lat="48.07052" lon="6.87779">
        <ele>683.15</ele>
        <time>2019-08-20T10:25:31Z</time>
      </trkpt>
      <trkpt lat="48.07055" lon="6.87775">
        <ele>683.15</ele>
        <time>2019-08-20T10:25:42Z</time>
      </trkpt>
      <trkpt lat="48.07046" lon="6.87769">
        <ele>682.67</ele>
        <time>2019-08-20T10:26:02Z</time>
      </trkpt>
      <trkpt lat="48.07037" lon="6.87757">
        <ele>682.67</ele>
        <time>2019-08-20T10:26:14Z</time>
      </trkpt>
      <trkpt lat="48.07036" lon="6.87754">
        <ele>684.12</ele>
        <time>2019-08-20T10:26:19Z</time>
      </trkpt>
      <trkpt lat="48.07035" lon="6.87742">
        <ele>682.67</ele>
        <time>2019-08-20T10:26:27Z</time>
      </trkpt>
      <trkpt lat="48.07034" lon="6.87739">
        <ele>682.67</ele>
        <time>2019-08-20T10:26:28Z</time>
      </trkpt>
      <trkpt lat="48.07034" lon="6.87737">
        <ele>682.67</ele>
        <time>2019-08-20T10:26:29Z</time>
      </trkpt>
      <trkpt lat="48.07034" lon="6.87734">
        <ele>683.15</ele>
        <time>2019-08-20T10:26:34Z</time>
      </trkpt>
      <trkpt lat="48.07033" lon="6.87731">
        <ele>682.67</ele>
        <time>2019-08-20T10:26:35Z</time>
      </trkpt>
      <trkpt lat="48.07033" lon="6.8773">
        <ele>683.15</ele>
        <time>2019-08-20T10:26:36Z</time>
      </trkpt>
      <trkpt lat="48.07029" lon="6.87718">
        <ele>682.67</ele>
        <time>2019-08-20T10:26:48Z</time>
      </trkpt>
      <trkpt lat="48.07024" lon="6.87709">
        <ele>682.19</ele>
        <time>2019-08-20T10:26:57Z</time>
      </trkpt>
      <trkpt lat="48.07024" lon="6.87707">
        <ele>682.19</ele>
        <time>2019-08-20T10:26:58Z</time>
      </trkpt>
      <trkpt lat="48.07025" lon="6.87701">
        <ele>682.67</ele>
        <time>2019-08-20T10:27:04Z</time>
      </trkpt>
      <trkpt lat="48.07026" lon="6.87698">
        <ele>682.67</ele>
        <time>2019-08-20T10:27:05Z</time>
      </trkpt>
      <trkpt lat="48.07028" lon="6.87676">
        <ele>682.67</ele>
        <time>2019-08-20T10:27:17Z</time>
      </trkpt>
      <trkpt lat="48.0703" lon="6.87662">
        <ele>682.19</ele>
        <time>2019-08-20T10:27:28Z</time>
      </trkpt>
      <trkpt lat="48.07034" lon="6.87652">
        <ele>682.19</ele>
        <time>2019-08-20T10:27:41Z</time>
      </trkpt>
      <trkpt lat="48.07036" lon="6.87648">
        <ele>681.71</ele>
        <time>2019-08-20T10:27:45Z</time>
      </trkpt>
      <trkpt lat="48.07036" lon="6.8764">
        <ele>682.67</ele>
        <time>2019-08-20T10:27:51Z</time>
      </trkpt>
      <trkpt lat="48.07034" lon="6.8763">
        <ele>682.19</ele>
        <time>2019-08-20T10:27:57Z</time>
      </trkpt>
      <trkpt lat="48.07026" lon="6.87617">
        <ele>682.67</ele>
        <time>2019-08-20T10:28:09Z</time>
      </trkpt>
      <trkpt lat="48.07017" lon="6.87594">
        <ele>683.15</ele>
        <time>2019-08-20T10:28:25Z</time>
      </trkpt>
      <trkpt lat="48.07014" lon="6.87582">
        <ele>683.15</ele>
        <time>2019-08-20T10:28:37Z</time>
      </trkpt>
      <trkpt lat="48.06998" lon="6.87562">
        <ele>683.15</ele>
        <time>2019-08-20T10:28:50Z</time>
      </trkpt>
      <trkpt lat="48.06993" lon="6.87557">
        <ele>683.15</ele>
        <time>2019-08-20T10:28:58Z</time>
      </trkpt>
      <trkpt lat="48.06986" lon="6.8755">
        <ele>683.15</ele>
        <time>2019-08-20T10:29:03Z</time>
      </trkpt>
      <trkpt lat="48.06979" lon="6.8753">
        <ele>683.15</ele>
        <time>2019-08-20T10:29:16Z</time>
      </trkpt>
      <trkpt lat="48.06975" lon="6.87517">
        <ele>683.15</ele>
        <time>2019-08-20T10:29:29Z</time>
      </trkpt>
      <trkpt lat="48.06969" lon="6.87501">
        <ele>683.63</ele>
        <time>2019-08-20T10:29:42Z</time>
      </trkpt>
      <trkpt lat="48.06956" lon="6.87485">
        <ele>684.12</ele>
        <time>2019-08-20T10:29:56Z</time>
      </trkpt>
      <trkpt lat="48.06946" lon="6.87475">
        <ele>684.12</ele>
        <time>2019-08-20T10:30:08Z</time>
      </trkpt>
      <trkpt lat="48.06942" lon="6.87462">
        <ele>684.6</ele>
        <time>2019-08-20T10:30:19Z</time>
      </trkpt>
      <trkpt lat="48.06938" lon="6.87456">
        <ele>684.6</ele>
        <time>2019-08-20T10:30:27Z</time>
      </trkpt>
      <trkpt lat="48.06923" lon="6.87446">
        <ele>685.08</ele>
        <time>2019-08-20T10:30:41Z</time>
      </trkpt>
      <trkpt lat="48.06914" lon="6.87432">
        <ele>685.56</ele>
        <time>2019-08-20T10:30:55Z</time>
      </trkpt>
      <trkpt lat="48.06908" lon="6.87416">
        <ele>686.04</ele>
        <time>2019-08-20T10:31:09Z</time>
      </trkpt>
      <trkpt lat="48.06899" lon="6.87402">
        <ele>686.04</ele>
        <time>2019-08-20T10:31:23Z</time>
      </trkpt>
      <trkpt lat="48.06889" lon="6.87384">
        <ele>686.52</ele>
        <time>2019-08-20T10:31:39Z</time>
      </trkpt>
      <trkpt lat="48.06886" lon="6.87385">
        <ele>686.52</ele>
        <time>2019-08-20T10:31:44Z</time>
      </trkpt>
      <trkpt lat="48.06883" lon="6.87382">
        <ele>687</ele>
        <time>2019-08-20T10:31:49Z</time>
      </trkpt>
      <trkpt lat="48.06875" lon="6.87369">
        <ele>687</ele>
        <time>2019-08-20T10:32:04Z</time>
      </trkpt>
      <trkpt lat="48.06866" lon="6.87351">
        <ele>687.48</ele>
        <time>2019-08-20T10:32:18Z</time>
      </trkpt>
      <trkpt lat="48.06857" lon="6.87338">
        <ele>687.96</ele>
        <time>2019-08-20T10:32:29Z</time>
      </trkpt>
      <trkpt lat="48.06853" lon="6.87339">
        <ele>687.96</ele>
        <time>2019-08-20T10:32:35Z</time>
      </trkpt>
      <trkpt lat="48.06841" lon="6.87332">
        <ele>688.44</ele>
        <time>2019-08-20T10:32:48Z</time>
      </trkpt>
      <trkpt lat="48.06835" lon="6.87312">
        <ele>688.92</ele>
        <time>2019-08-20T10:33:03Z</time>
      </trkpt>
      <trkpt lat="48.06828" lon="6.87295">
        <ele>689.4</ele>
        <time>2019-08-20T10:33:16Z</time>
      </trkpt>
      <trkpt lat="48.06829" lon="6.87268">
        <ele>689.88</ele>
        <time>2019-08-20T10:33:30Z</time>
      </trkpt>
      <trkpt lat="48.06833" lon="6.87259">
        <ele>690.36</ele>
        <time>2019-08-20T10:33:50Z</time>
      </trkpt>
      <trkpt lat="48.06836" lon="6.87254">
        <ele>690.36</ele>
        <time>2019-08-20T10:33:55Z</time>
      </trkpt>
      <trkpt lat="48.06839" lon="6.87241">
        <ele>689.88</ele>
        <time>2019-08-20T10:34:06Z</time>
      </trkpt>
      <trkpt lat="48.0684" lon="6.87239">
        <ele>689.88</ele>
        <time>2019-08-20T10:34:09Z</time>
      </trkpt>
      <trkpt lat="48.06848" lon="6.8723">
        <ele>689.4</ele>
        <time>2019-08-20T10:34:21Z</time>
      </trkpt>
      <trkpt lat="48.06855" lon="6.87225">
        <ele>689.4</ele>
        <time>2019-08-20T10:34:28Z</time>
      </trkpt>
      <trkpt lat="48.06866" lon="6.87211">
        <ele>688.92</ele>
        <time>2019-08-20T10:34:41Z</time>
      </trkpt>
      <trkpt lat="48.06867" lon="6.87207">
        <ele>688.44</ele>
        <time>2019-08-20T10:34:45Z</time>
      </trkpt>
      <trkpt lat="48.0687" lon="6.872">
        <ele>688.44</ele>
        <time>2019-08-20T10:34:52Z</time>
      </trkpt>
      <trkpt lat="48.06867" lon="6.87193">
        <ele>687.96</ele>
        <time>2019-08-20T10:35:07Z</time>
      </trkpt>
      <trkpt lat="48.06865" lon="6.87191">
        <ele>688.44</ele>
        <time>2019-08-20T10:35:25Z</time>
      </trkpt>
      <trkpt lat="48.06872" lon="6.87192">
        <ele>689.4</ele>
        <time>2019-08-20T10:35:38Z</time>
      </trkpt>
      <trkpt lat="48.06866" lon="6.87185">
        <ele>689.4</ele>
        <time>2019-08-20T10:35:51Z</time>
      </trkpt>
      <trkpt lat="48.06864" lon="6.87184">
        <ele>689.4</ele>
        <time>2019-08-20T10:36:06Z</time>
      </trkpt>
      <trkpt lat="48.06865" lon="6.87185">
        <ele>689.4</ele>
        <time>2019-08-20T10:36:26Z</time>
      </trkpt>
      <trkpt lat="48.06866" lon="6.87186">
        <ele>689.88</ele>
        <time>2019-08-20T10:36:44Z</time>
      </trkpt>
      <trkpt lat="48.06866" lon="6.87187">
        <ele>689.88</ele>
        <time>2019-08-20T10:37:00Z</time>
      </trkpt>
      <trkpt lat="48.06868" lon="6.87185">
        <ele>689.4</ele>
        <time>2019-08-20T10:37:25Z</time>
      </trkpt>
      <trkpt lat="48.06862" lon="6.87183">
        <ele>690.36</ele>
        <time>2019-08-20T10:37:38Z</time>
      </trkpt>
      <trkpt lat="48.06847" lon="6.87187">
        <ele>689.88</ele>
        <time>2019-08-20T10:38:05Z</time>
      </trkpt>
      <trkpt lat="48.06858" lon="6.87187">
        <ele>689.88</ele>
        <time>2019-08-20T10:38:35Z</time>
      </trkpt>
      <trkpt lat="48.06843" lon="6.87165">
        <ele>689.88</ele>
        <time>2019-08-20T10:38:56Z</time>
      </trkpt>
      <trkpt lat="48.06775" lon="6.87219">
        <ele>689.88</ele>
        <time>2019-08-20T10:40:43Z</time>
      </trkpt>
      <trkpt lat="48.06869" lon="6.87179">
        <ele>690.36</ele>
        <time>2019-08-20T10:41:04Z</time>
      </trkpt>
      <trkpt lat="48.06868" lon="6.87179">
        <ele>686.52</ele>
        <time>2019-08-20T10:41:09Z</time>
      </trkpt>
      <trkpt lat="48.06867" lon="6.8718">
        <ele>692.29</ele>
        <time>2019-08-20T10:41:10Z</time>
      </trkpt>
      <trkpt lat="48.06873" lon="6.87183">
        <ele>690.36</ele>
        <time>2019-08-20T10:41:33Z</time>
      </trkpt>
      <trkpt lat="48.06876" lon="6.87183">
        <ele>690.36</ele>
        <time>2019-08-20T10:41:58Z</time>
      </trkpt>
      <trkpt lat="48.06878" lon="6.87179">
        <ele>690.36</ele>
        <time>2019-08-20T10:42:01Z</time>
      </trkpt>
      <trkpt lat="48.06905" lon="6.8711">
        <ele>689.88</ele>
        <time>2019-08-20T10:42:38Z</time>
      </trkpt>
      <trkpt lat="48.06861" lon="6.8718">
        <ele>688.92</ele>
        <time>2019-08-20T10:47:50Z</time>
      </trkpt>
      <trkpt lat="48.06844" lon="6.87164">
        <ele>689.4</ele>
        <time>2019-08-20T10:48:06Z</time>
      </trkpt>
      <trkpt lat="48.06861" lon="6.8717">
        <ele>688.92</ele>
        <time>2019-08-20T10:48:31Z</time>
      </trkpt>
      <trkpt lat="48.06868" lon="6.8717">
        <ele>688.44</ele>
        <time>2019-08-20T10:48:59Z</time>
      </trkpt>
      <trkpt lat="48.06873" lon="6.87176">
        <ele>688.44</ele>
        <time>2019-08-20T10:49:33Z</time>
      </trkpt>
      <trkpt lat="48.06876" lon="6.87179">
        <ele>687.96</ele>
        <time>2019-08-20T10:49:59Z</time>
      </trkpt>
      <trkpt lat="48.06876" lon="6.87178">
        <ele>687.96</ele>
        <time>2019-08-20T10:50:32Z</time>
      </trkpt>
      <trkpt lat="48.06875" lon="6.87177">
        <ele>687.96</ele>
        <time>2019-08-20T10:51:05Z</time>
      </trkpt>
      <trkpt lat="48.06865" lon="6.87178">
        <ele>688.92</ele>
        <time>2019-08-20T10:51:24Z</time>
      </trkpt>
      <trkpt lat="48.06865" lon="6.87188">
        <ele>688.92</ele>
        <time>2019-08-20T10:51:39Z</time>
      </trkpt>
      <trkpt lat="48.06865" lon="6.87191">
        <ele>688.92</ele>
        <time>2019-08-20T10:51:43Z</time>
      </trkpt>
      <trkpt lat="48.06875" lon="6.87208">
        <ele>688.44</ele>
        <time>2019-08-20T10:51:58Z</time>
      </trkpt>
      <trkpt lat="48.06881" lon="6.87202">
        <ele>687.48</ele>
        <time>2019-08-20T10:52:06Z</time>
      </trkpt>
      <trkpt lat="48.06895" lon="6.8719">
        <ele>687</ele>
        <time>2019-08-20T10:52:19Z</time>
      </trkpt>
      <trkpt lat="48.06912" lon="6.8717">
        <ele>686.04</ele>
        <time>2019-08-20T10:52:35Z</time>
      </trkpt>
      <trkpt lat="48.06914" lon="6.87163">
        <ele>686.04</ele>
        <time>2019-08-20T10:52:39Z</time>
      </trkpt>
      <trkpt lat="48.06915" lon="6.87152">
        <ele>685.56</ele>
        <time>2019-08-20T10:52:45Z</time>
      </trkpt>
      <trkpt lat="48.06914" lon="6.87147">
        <ele>685.56</ele>
        <time>2019-08-20T10:52:49Z</time>
      </trkpt>
      <trkpt lat="48.06914" lon="6.87144">
        <ele>685.08</ele>
        <time>2019-08-20T10:52:51Z</time>
      </trkpt>
      <trkpt lat="48.06913" lon="6.87131">
        <ele>685.08</ele>
        <time>2019-08-20T10:52:57Z</time>
      </trkpt>
      <trkpt lat="48.06908" lon="6.87089">
        <ele>685.08</ele>
        <time>2019-08-20T10:53:17Z</time>
      </trkpt>
      <trkpt lat="48.06907" lon="6.87078">
        <ele>685.08</ele>
        <time>2019-08-20T10:53:25Z</time>
      </trkpt>
      <trkpt lat="48.06905" lon="6.8707">
        <ele>684.6</ele>
        <time>2019-08-20T10:53:29Z</time>
      </trkpt>
      <trkpt lat="48.06905" lon="6.87056">
        <ele>684.12</ele>
        <time>2019-08-20T10:53:34Z</time>
      </trkpt>
      <trkpt lat="48.06905" lon="6.87052">
        <ele>684.12</ele>
        <time>2019-08-20T10:53:35Z</time>
      </trkpt>
      <trkpt lat="48.06902" lon="6.87031">
        <ele>684.12</ele>
        <time>2019-08-20T10:53:45Z</time>
      </trkpt>
      <trkpt lat="48.06902" lon="6.87028">
        <ele>684.6</ele>
        <time>2019-08-20T10:53:47Z</time>
      </trkpt>
      <trkpt lat="48.06902" lon="6.87026">
        <ele>684.6</ele>
        <time>2019-08-20T10:53:48Z</time>
      </trkpt>
      <trkpt lat="48.06901" lon="6.87024">
        <ele>684.12</ele>
        <time>2019-08-20T10:53:49Z</time>
      </trkpt>
      <trkpt lat="48.06901" lon="6.87022">
        <ele>683.63</ele>
        <time>2019-08-20T10:53:50Z</time>
      </trkpt>
      <trkpt lat="48.06901" lon="6.8702">
        <ele>684.6</ele>
        <time>2019-08-20T10:53:51Z</time>
      </trkpt>
      <trkpt lat="48.06901" lon="6.87018">
        <ele>684.12</ele>
        <time>2019-08-20T10:53:52Z</time>
      </trkpt>
      <trkpt lat="48.06901" lon="6.87016">
        <ele>684.12</ele>
        <time>2019-08-20T10:53:53Z</time>
      </trkpt>
      <trkpt lat="48.069" lon="6.87015">
        <ele>683.63</ele>
        <time>2019-08-20T10:53:54Z</time>
      </trkpt>
      <trkpt lat="48.069" lon="6.87004">
        <ele>683.63</ele>
        <time>2019-08-20T10:54:00Z</time>
      </trkpt>
      <trkpt lat="48.06901" lon="6.87002">
        <ele>683.63</ele>
        <time>2019-08-20T10:54:01Z</time>
      </trkpt>
      <trkpt lat="48.069" lon="6.86995">
        <ele>683.63</ele>
        <time>2019-08-20T10:54:05Z</time>
      </trkpt>
      <trkpt lat="48.069" lon="6.86993">
        <ele>683.63</ele>
        <time>2019-08-20T10:54:06Z</time>
      </trkpt>
      <trkpt lat="48.06901" lon="6.86981">
        <ele>683.15</ele>
        <time>2019-08-20T10:54:12Z</time>
      </trkpt>
      <trkpt lat="48.069" lon="6.8698">
        <ele>682.67</ele>
        <time>2019-08-20T10:54:13Z</time>
      </trkpt>
      <trkpt lat="48.069" lon="6.86977">
        <ele>683.15</ele>
        <time>2019-08-20T10:54:15Z</time>
      </trkpt>
      <trkpt lat="48.06893" lon="6.86955">
        <ele>683.63</ele>
        <time>2019-08-20T10:54:27Z</time>
      </trkpt>
      <trkpt lat="48.06893" lon="6.86953">
        <ele>683.63</ele>
        <time>2019-08-20T10:54:28Z</time>
      </trkpt>
      <trkpt lat="48.06892" lon="6.86951">
        <ele>683.63</ele>
        <time>2019-08-20T10:54:29Z</time>
      </trkpt>
      <trkpt lat="48.06892" lon="6.86948">
        <ele>683.15</ele>
        <time>2019-08-20T10:54:30Z</time>
      </trkpt>
      <trkpt lat="48.06893" lon="6.86944">
        <ele>683.15</ele>
        <time>2019-08-20T10:54:31Z</time>
      </trkpt>
      <trkpt lat="48.06893" lon="6.86942">
        <ele>683.15</ele>
        <time>2019-08-20T10:54:32Z</time>
      </trkpt>
      <trkpt lat="48.0689" lon="6.86915">
        <ele>683.15</ele>
        <time>2019-08-20T10:54:47Z</time>
      </trkpt>
      <trkpt lat="48.0689" lon="6.86912">
        <ele>683.15</ele>
        <time>2019-08-20T10:54:49Z</time>
      </trkpt>
      <trkpt lat="48.06891" lon="6.8691">
        <ele>683.63</ele>
        <time>2019-08-20T10:54:50Z</time>
      </trkpt>
      <trkpt lat="48.06892" lon="6.86907">
        <ele>683.15</ele>
        <time>2019-08-20T10:54:51Z</time>
      </trkpt>
      <trkpt lat="48.06893" lon="6.86905">
        <ele>683.15</ele>
        <time>2019-08-20T10:54:52Z</time>
      </trkpt>
      <trkpt lat="48.06893" lon="6.86903">
        <ele>682.67</ele>
        <time>2019-08-20T10:54:53Z</time>
      </trkpt>
      <trkpt lat="48.06894" lon="6.86901">
        <ele>682.67</ele>
        <time>2019-08-20T10:54:54Z</time>
      </trkpt>
      <trkpt lat="48.06894" lon="6.86899">
        <ele>682.67</ele>
        <time>2019-08-20T10:54:55Z</time>
      </trkpt>
      <trkpt lat="48.06894" lon="6.86898">
        <ele>682.67</ele>
        <time>2019-08-20T10:54:56Z</time>
      </trkpt>
      <trkpt lat="48.06895" lon="6.8689">
        <ele>682.67</ele>
        <time>2019-08-20T10:55:02Z</time>
      </trkpt>
      <trkpt lat="48.06896" lon="6.86888">
        <ele>682.67</ele>
        <time>2019-08-20T10:55:03Z</time>
      </trkpt>
      <trkpt lat="48.06896" lon="6.86885">
        <ele>682.19</ele>
        <time>2019-08-20T10:55:04Z</time>
      </trkpt>
      <trkpt lat="48.06897" lon="6.86882">
        <ele>682.19</ele>
        <time>2019-08-20T10:55:05Z</time>
      </trkpt>
      <trkpt lat="48.06896" lon="6.86878">
        <ele>682.19</ele>
        <time>2019-08-20T10:55:06Z</time>
      </trkpt>
      <trkpt lat="48.06896" lon="6.86875">
        <ele>682.19</ele>
        <time>2019-08-20T10:55:07Z</time>
      </trkpt>
      <trkpt lat="48.06896" lon="6.86872">
        <ele>681.71</ele>
        <time>2019-08-20T10:55:08Z</time>
      </trkpt>
      <trkpt lat="48.06895" lon="6.86869">
        <ele>681.71</ele>
        <time>2019-08-20T10:55:09Z</time>
      </trkpt>
      <trkpt lat="48.06892" lon="6.86846">
        <ele>681.23</ele>
        <time>2019-08-20T10:55:22Z</time>
      </trkpt>
      <trkpt lat="48.06885" lon="6.86831">
        <ele>680.75</ele>
        <time>2019-08-20T10:55:34Z</time>
      </trkpt>
      <trkpt lat="48.0688" lon="6.86805">
        <ele>680.27</ele>
        <time>2019-08-20T10:55:48Z</time>
      </trkpt>
      <trkpt lat="48.06879" lon="6.86803">
        <ele>680.27</ele>
        <time>2019-08-20T10:55:49Z</time>
      </trkpt>
      <trkpt lat="48.06864" lon="6.86775">
        <ele>680.27</ele>
        <time>2019-08-20T10:56:06Z</time>
      </trkpt>
      <trkpt lat="48.06862" lon="6.86766">
        <ele>680.27</ele>
        <time>2019-08-20T10:56:11Z</time>
      </trkpt>
      <trkpt lat="48.06862" lon="6.86764">
        <ele>680.75</ele>
        <time>2019-08-20T10:56:12Z</time>
      </trkpt>
      <trkpt lat="48.06863" lon="6.86763">
        <ele>680.27</ele>
        <time>2019-08-20T10:56:13Z</time>
      </trkpt>
      <trkpt lat="48.06863" lon="6.8674">
        <ele>679.31</ele>
        <time>2019-08-20T10:56:25Z</time>
      </trkpt>
      <trkpt lat="48.06862" lon="6.86738">
        <ele>678.83</ele>
        <time>2019-08-20T10:56:26Z</time>
      </trkpt>
      <trkpt lat="48.0686" lon="6.86716">
        <ele>679.31</ele>
        <time>2019-08-20T10:56:38Z</time>
      </trkpt>
      <trkpt lat="48.06859" lon="6.86693">
        <ele>678.35</ele>
        <time>2019-08-20T10:56:50Z</time>
      </trkpt>
      <trkpt lat="48.0686" lon="6.86686">
        <ele>677.87</ele>
        <time>2019-08-20T10:56:55Z</time>
      </trkpt>
      <trkpt lat="48.06859" lon="6.86684">
        <ele>677.39</ele>
        <time>2019-08-20T10:56:56Z</time>
      </trkpt>
      <trkpt lat="48.06859" lon="6.86681">
        <ele>677.87</ele>
        <time>2019-08-20T10:56:57Z</time>
      </trkpt>
      <trkpt lat="48.06859" lon="6.86678">
        <ele>677.87</ele>
        <time>2019-08-20T10:56:58Z</time>
      </trkpt>
      <trkpt lat="48.06859" lon="6.86676">
        <ele>677.87</ele>
        <time>2019-08-20T10:56:59Z</time>
      </trkpt>
      <trkpt lat="48.06859" lon="6.86673">
        <ele>677.39</ele>
        <time>2019-08-20T10:57:00Z</time>
      </trkpt>
      <trkpt lat="48.0686" lon="6.86671">
        <ele>677.39</ele>
        <time>2019-08-20T10:57:01Z</time>
      </trkpt>
      <trkpt lat="48.0686" lon="6.86665">
        <ele>676.91</ele>
        <time>2019-08-20T10:57:06Z</time>
      </trkpt>
      <trkpt lat="48.0686" lon="6.86663">
        <ele>676.91</ele>
        <time>2019-08-20T10:57:07Z</time>
      </trkpt>
      <trkpt lat="48.0686" lon="6.86661">
        <ele>676.91</ele>
        <time>2019-08-20T10:57:08Z</time>
      </trkpt>
      <trkpt lat="48.06861" lon="6.86659">
        <ele>676.91</ele>
        <time>2019-08-20T10:57:09Z</time>
      </trkpt>
      <trkpt lat="48.06861" lon="6.86656">
        <ele>676.91</ele>
        <time>2019-08-20T10:57:10Z</time>
      </trkpt>
      <trkpt lat="48.06861" lon="6.86655">
        <ele>676.42</ele>
        <time>2019-08-20T10:57:11Z</time>
      </trkpt>
      <trkpt lat="48.06867" lon="6.86636">
        <ele>675.94</ele>
        <time>2019-08-20T10:57:23Z</time>
      </trkpt>
      <trkpt lat="48.06872" lon="6.86622">
        <ele>675.46</ele>
        <time>2019-08-20T10:57:36Z</time>
      </trkpt>
      <trkpt lat="48.06871" lon="6.86617">
        <ele>675.94</ele>
        <time>2019-08-20T10:57:58Z</time>
      </trkpt>
      <trkpt lat="48.06874" lon="6.86625">
        <ele>675.94</ele>
        <time>2019-08-20T10:58:04Z</time>
      </trkpt>
      <trkpt lat="48.06887" lon="6.86632">
        <ele>675.94</ele>
        <time>2019-08-20T10:58:20Z</time>
      </trkpt>
      <trkpt lat="48.06901" lon="6.86637">
        <ele>675.94</ele>
        <time>2019-08-20T10:58:36Z</time>
      </trkpt>
      <trkpt lat="48.06919" lon="6.86647">
        <ele>675.94</ele>
        <time>2019-08-20T10:58:53Z</time>
      </trkpt>
      <trkpt lat="48.06927" lon="6.86648">
        <ele>675.46</ele>
        <time>2019-08-20T10:59:07Z</time>
      </trkpt>
      <trkpt lat="48.06929" lon="6.8665">
        <ele>675.94</ele>
        <time>2019-08-20T10:59:10Z</time>
      </trkpt>
      <trkpt lat="48.0693" lon="6.86651">
        <ele>675.94</ele>
        <time>2019-08-20T10:59:11Z</time>
      </trkpt>
      <trkpt lat="48.06941" lon="6.86653">
        <ele>675.46</ele>
        <time>2019-08-20T10:59:22Z</time>
      </trkpt>
      <trkpt lat="48.06942" lon="6.86653">
        <ele>676.42</ele>
        <time>2019-08-20T10:59:23Z</time>
      </trkpt>
      <trkpt lat="48.06943" lon="6.86653">
        <ele>675.94</ele>
        <time>2019-08-20T10:59:24Z</time>
      </trkpt>
      <trkpt lat="48.0695" lon="6.86649">
        <ele>675.94</ele>
        <time>2019-08-20T10:59:32Z</time>
      </trkpt>
      <trkpt lat="48.06951" lon="6.8665">
        <ele>676.42</ele>
        <time>2019-08-20T10:59:33Z</time>
      </trkpt>
      <trkpt lat="48.06952" lon="6.86651">
        <ele>676.42</ele>
        <time>2019-08-20T10:59:34Z</time>
      </trkpt>
      <trkpt lat="48.06964" lon="6.86655">
        <ele>675.94</ele>
        <time>2019-08-20T10:59:46Z</time>
      </trkpt>
      <trkpt lat="48.06965" lon="6.86656">
        <ele>676.42</ele>
        <time>2019-08-20T10:59:47Z</time>
      </trkpt>
      <trkpt lat="48.06967" lon="6.86656">
        <ele>675.94</ele>
        <time>2019-08-20T10:59:48Z</time>
      </trkpt>
      <trkpt lat="48.06968" lon="6.86657">
        <ele>675.94</ele>
        <time>2019-08-20T10:59:49Z</time>
      </trkpt>
      <trkpt lat="48.0697" lon="6.86661">
        <ele>675.94</ele>
        <time>2019-08-20T10:59:52Z</time>
      </trkpt>
      <trkpt lat="48.06976" lon="6.8667">
        <ele>676.91</ele>
        <time>2019-08-20T11:00:02Z</time>
      </trkpt>
      <trkpt lat="48.06975" lon="6.86671">
        <ele>675.94</ele>
        <time>2019-08-20T11:00:03Z</time>
      </trkpt>
      <trkpt lat="48.06975" lon="6.86673">
        <ele>676.42</ele>
        <time>2019-08-20T11:00:04Z</time>
      </trkpt>
      <trkpt lat="48.06975" lon="6.86675">
        <ele>676.91</ele>
        <time>2019-08-20T11:00:05Z</time>
      </trkpt>
      <trkpt lat="48.06976" lon="6.86703">
        <ele>676.91</ele>
        <time>2019-08-20T11:00:22Z</time>
      </trkpt>
      <trkpt lat="48.06986" lon="6.86724">
        <ele>677.39</ele>
        <time>2019-08-20T11:00:35Z</time>
      </trkpt>
      <trkpt lat="48.06991" lon="6.86729">
        <ele>677.39</ele>
        <time>2019-08-20T11:00:41Z</time>
      </trkpt>
      <trkpt lat="48.06998" lon="6.86731">
        <ele>677.87</ele>
        <time>2019-08-20T11:00:47Z</time>
      </trkpt>
      <trkpt lat="48.07014" lon="6.86739">
        <ele>678.35</ele>
        <time>2019-08-20T11:01:03Z</time>
      </trkpt>
      <trkpt lat="48.07017" lon="6.8674">
        <ele>678.35</ele>
        <time>2019-08-20T11:01:06Z</time>
      </trkpt>
      <trkpt lat="48.07035" lon="6.86733">
        <ele>677.39</ele>
        <time>2019-08-20T11:01:20Z</time>
      </trkpt>
      <trkpt lat="48.07044" lon="6.86727">
        <ele>677.39</ele>
        <time>2019-08-20T11:01:27Z</time>
      </trkpt>
      <trkpt lat="48.07151" lon="6.86859">
        <ele>665.37</ele>
        <time>2019-08-20T11:04:54Z</time>
      </trkpt>
      <trkpt lat="48.07151" lon="6.86861">
        <ele>665.37</ele>
        <time>2019-08-20T11:04:55Z</time>
      </trkpt>
      <trkpt lat="48.07013" lon="6.86738">
        <ele>651.91</ele>
        <time>2019-08-20T12:19:19Z</time>
      </trkpt>
      <trkpt lat="48.07164" lon="6.86879">
        <ele>653.83</ele>
        <time>2019-08-20T12:19:36Z</time>
      </trkpt>
      <trkpt lat="48.07164" lon="6.86878">
        <ele>654.31</ele>
        <time>2019-08-20T12:19:37Z</time>
      </trkpt>
      <trkpt lat="48.07162" lon="6.86871">
        <ele>656.72</ele>
        <time>2019-08-20T12:19:44Z</time>
      </trkpt>
      <trkpt lat="48.07163" lon="6.86864">
        <ele>660.08</ele>
        <time>2019-08-20T12:19:54Z</time>
      </trkpt>
      <trkpt lat="48.07162" lon="6.86847">
        <ele>662.49</ele>
        <time>2019-08-20T12:20:09Z</time>
      </trkpt>
      <trkpt lat="48.07162" lon="6.8683">
        <ele>664.41</ele>
        <time>2019-08-20T12:20:27Z</time>
      </trkpt>
      <trkpt lat="48.07164" lon="6.8681">
        <ele>664.41</ele>
        <time>2019-08-20T12:20:44Z</time>
      </trkpt>
      <trkpt lat="48.07166" lon="6.86795">
        <ele>664.89</ele>
        <time>2019-08-20T12:20:59Z</time>
      </trkpt>
      <trkpt lat="48.0717" lon="6.86775">
        <ele>664.89</ele>
        <time>2019-08-20T12:21:16Z</time>
      </trkpt>
      <trkpt lat="48.07179" lon="6.86787">
        <ele>664.89</ele>
        <time>2019-08-20T12:21:30Z</time>
      </trkpt>
      <trkpt lat="48.07187" lon="6.86806">
        <ele>664.89</ele>
        <time>2019-08-20T12:21:47Z</time>
      </trkpt>
      <trkpt lat="48.07193" lon="6.86815">
        <ele>664.89</ele>
        <time>2019-08-20T12:21:55Z</time>
      </trkpt>
      <trkpt lat="48.072" lon="6.86833">
        <ele>664.41</ele>
        <time>2019-08-20T12:22:10Z</time>
      </trkpt>
      <trkpt lat="48.07207" lon="6.8685">
        <ele>664.89</ele>
        <time>2019-08-20T12:22:24Z</time>
      </trkpt>
      <trkpt lat="48.07212" lon="6.86863">
        <ele>664.41</ele>
        <time>2019-08-20T12:22:40Z</time>
      </trkpt>
      <trkpt lat="48.07216" lon="6.86872">
        <ele>665.37</ele>
        <time>2019-08-20T12:22:56Z</time>
      </trkpt>
      <trkpt lat="48.07223" lon="6.86886">
        <ele>665.37</ele>
        <time>2019-08-20T12:23:09Z</time>
      </trkpt>
      <trkpt lat="48.07227" lon="6.86894">
        <ele>665.37</ele>
        <time>2019-08-20T12:23:16Z</time>
      </trkpt>
      <trkpt lat="48.07229" lon="6.86902">
        <ele>665.85</ele>
        <time>2019-08-20T12:23:24Z</time>
      </trkpt>
      <trkpt lat="48.07233" lon="6.86916">
        <ele>665.85</ele>
        <time>2019-08-20T12:23:35Z</time>
      </trkpt>
      <trkpt lat="48.0724" lon="6.8693">
        <ele>664.41</ele>
        <time>2019-08-20T12:23:46Z</time>
      </trkpt>
      <trkpt lat="48.0725" lon="6.86954">
        <ele>665.85</ele>
        <time>2019-08-20T12:24:05Z</time>
      </trkpt>
      <trkpt lat="48.07261" lon="6.86973">
        <ele>666.33</ele>
        <time>2019-08-20T12:24:23Z</time>
      </trkpt>
      <trkpt lat="48.07267" lon="6.86989">
        <ele>665.85</ele>
        <time>2019-08-20T12:24:34Z</time>
      </trkpt>
      <trkpt lat="48.07274" lon="6.87005">
        <ele>666.33</ele>
        <time>2019-08-20T12:24:47Z</time>
      </trkpt>
      <trkpt lat="48.07276" lon="6.87017">
        <ele>666.33</ele>
        <time>2019-08-20T12:24:55Z</time>
      </trkpt>
      <trkpt lat="48.07274" lon="6.87026">
        <ele>665.85</ele>
        <time>2019-08-20T12:25:01Z</time>
      </trkpt>
      <trkpt lat="48.0728" lon="6.87031">
        <ele>666.33</ele>
        <time>2019-08-20T12:25:14Z</time>
      </trkpt>
      <trkpt lat="48.07284" lon="6.87035">
        <ele>666.33</ele>
        <time>2019-08-20T12:25:21Z</time>
      </trkpt>
      <trkpt lat="48.07271" lon="6.87041">
        <ele>666.33</ele>
        <time>2019-08-20T12:25:35Z</time>
      </trkpt>
      <trkpt lat="48.07266" lon="6.87049">
        <ele>666.33</ele>
        <time>2019-08-20T12:25:43Z</time>
      </trkpt>
      <trkpt lat="48.07256" lon="6.87062">
        <ele>665.85</ele>
        <time>2019-08-20T12:25:57Z</time>
      </trkpt>
      <trkpt lat="48.07247" lon="6.87073">
        <ele>665.85</ele>
        <time>2019-08-20T12:26:09Z</time>
      </trkpt>
      <trkpt lat="48.07238" lon="6.87084">
        <ele>665.85</ele>
        <time>2019-08-20T12:26:21Z</time>
      </trkpt>
      <trkpt lat="48.07227" lon="6.87098">
        <ele>665.85</ele>
        <time>2019-08-20T12:26:36Z</time>
      </trkpt>
      <trkpt lat="48.07221" lon="6.87104">
        <ele>666.33</ele>
        <time>2019-08-20T12:26:44Z</time>
      </trkpt>
      <trkpt lat="48.0721" lon="6.87117">
        <ele>666.33</ele>
        <time>2019-08-20T12:26:59Z</time>
      </trkpt>
      <trkpt lat="48.07208" lon="6.8712">
        <ele>666.33</ele>
        <time>2019-08-20T12:27:03Z</time>
      </trkpt>
      <trkpt lat="48.07203" lon="6.87125">
        <ele>665.85</ele>
        <time>2019-08-20T12:27:16Z</time>
      </trkpt>
      <trkpt lat="48.07202" lon="6.87113">
        <ele>666.33</ele>
        <time>2019-08-20T12:27:32Z</time>
      </trkpt>
      <trkpt lat="48.07193" lon="6.8713">
        <ele>666.33</ele>
        <time>2019-08-20T12:27:46Z</time>
      </trkpt>
      <trkpt lat="48.07188" lon="6.87142">
        <ele>666.81</ele>
        <time>2019-08-20T12:27:59Z</time>
      </trkpt>
      <trkpt lat="48.07177" lon="6.87151">
        <ele>666.33</ele>
        <time>2019-08-20T12:28:14Z</time>
      </trkpt>
      <trkpt lat="48.07174" lon="6.87157">
        <ele>667.29</ele>
        <time>2019-08-20T12:28:26Z</time>
      </trkpt>
      <trkpt lat="48.07165" lon="6.8717">
        <ele>666.81</ele>
        <time>2019-08-20T12:28:39Z</time>
      </trkpt>
      <trkpt lat="48.07164" lon="6.87172">
        <ele>666.81</ele>
        <time>2019-08-20T12:28:42Z</time>
      </trkpt>
      <trkpt lat="48.07159" lon="6.87181">
        <ele>667.29</ele>
        <time>2019-08-20T12:28:55Z</time>
      </trkpt>
      <trkpt lat="48.07158" lon="6.87197">
        <ele>667.29</ele>
        <time>2019-08-20T12:29:08Z</time>
      </trkpt>
      <trkpt lat="48.07155" lon="6.87212">
        <ele>667.29</ele>
        <time>2019-08-20T12:29:20Z</time>
      </trkpt>
      <trkpt lat="48.07155" lon="6.87225">
        <ele>667.77</ele>
        <time>2019-08-20T12:29:29Z</time>
      </trkpt>
      <trkpt lat="48.07158" lon="6.8724">
        <ele>667.29</ele>
        <time>2019-08-20T12:29:41Z</time>
      </trkpt>
      <trkpt lat="48.07157" lon="6.87245">
        <ele>667.77</ele>
        <time>2019-08-20T12:29:45Z</time>
      </trkpt>
      <trkpt lat="48.07146" lon="6.87262">
        <ele>667.77</ele>
        <time>2019-08-20T12:30:01Z</time>
      </trkpt>
      <trkpt lat="48.07147" lon="6.87272">
        <ele>668.25</ele>
        <time>2019-08-20T12:30:14Z</time>
      </trkpt>
      <trkpt lat="48.07138" lon="6.87279">
        <ele>668.25</ele>
        <time>2019-08-20T12:30:26Z</time>
      </trkpt>
      <trkpt lat="48.07129" lon="6.87281">
        <ele>668.73</ele>
        <time>2019-08-20T12:30:39Z</time>
      </trkpt>
      <trkpt lat="48.07127" lon="6.87279">
        <ele>668.73</ele>
        <time>2019-08-20T12:30:57Z</time>
      </trkpt>
      <trkpt lat="48.07121" lon="6.87288">
        <ele>669.22</ele>
        <time>2019-08-20T12:31:13Z</time>
      </trkpt>
      <trkpt lat="48.0712" lon="6.87292">
        <ele>669.7</ele>
        <time>2019-08-20T12:31:30Z</time>
      </trkpt>
      <trkpt lat="48.07114" lon="6.87277">
        <ele>669.22</ele>
        <time>2019-08-20T12:31:45Z</time>
      </trkpt>
      <trkpt lat="48.07116" lon="6.87283">
        <ele>669.22</ele>
        <time>2019-08-20T12:31:53Z</time>
      </trkpt>
      <trkpt lat="48.07117" lon="6.87289">
        <ele>669.22</ele>
        <time>2019-08-20T12:31:58Z</time>
      </trkpt>
      <trkpt lat="48.07119" lon="6.87296">
        <ele>669.7</ele>
        <time>2019-08-20T12:32:07Z</time>
      </trkpt>
      <trkpt lat="48.07116" lon="6.87306">
        <ele>669.7</ele>
        <time>2019-08-20T12:32:18Z</time>
      </trkpt>
      <trkpt lat="48.07113" lon="6.87319">
        <ele>669.7</ele>
        <time>2019-08-20T12:32:31Z</time>
      </trkpt>
      <trkpt lat="48.07112" lon="6.8732">
        <ele>669.7</ele>
        <time>2019-08-20T12:32:33Z</time>
      </trkpt>
      <trkpt lat="48.07101" lon="6.8733">
        <ele>670.18</ele>
        <time>2019-08-20T12:32:44Z</time>
      </trkpt>
      <trkpt lat="48.07091" lon="6.87334">
        <ele>670.18</ele>
        <time>2019-08-20T12:32:56Z</time>
      </trkpt>
      <trkpt lat="48.07079" lon="6.87338">
        <ele>670.66</ele>
        <time>2019-08-20T12:33:12Z</time>
      </trkpt>
      <trkpt lat="48.07072" lon="6.8735">
        <ele>670.66</ele>
        <time>2019-08-20T12:33:30Z</time>
      </trkpt>
      <trkpt lat="48.0707" lon="6.87374">
        <ele>671.14</ele>
        <time>2019-08-20T12:33:43Z</time>
      </trkpt>
      <trkpt lat="48.07066" lon="6.87379">
        <ele>671.62</ele>
        <time>2019-08-20T12:33:55Z</time>
      </trkpt>
      <trkpt lat="48.07061" lon="6.87386">
        <ele>671.62</ele>
        <time>2019-08-20T12:34:08Z</time>
      </trkpt>
      <trkpt lat="48.07053" lon="6.87394">
        <ele>672.1</ele>
        <time>2019-08-20T12:34:21Z</time>
      </trkpt>
      <trkpt lat="48.07052" lon="6.87394">
        <ele>672.1</ele>
        <time>2019-08-20T12:34:22Z</time>
      </trkpt>
      <trkpt lat="48.07051" lon="6.874">
        <ele>672.1</ele>
        <time>2019-08-20T12:34:27Z</time>
      </trkpt>
      <trkpt lat="48.07056" lon="6.87407">
        <ele>672.1</ele>
        <time>2019-08-20T12:34:35Z</time>
      </trkpt>
      <trkpt lat="48.07045" lon="6.87434">
        <ele>671.14</ele>
        <time>2019-08-20T12:41:27Z</time>
      </trkpt>
      <trkpt lat="48.07044" lon="6.87435">
        <ele>670.66</ele>
        <time>2019-08-20T12:41:28Z</time>
      </trkpt>
      <trkpt lat="48.07032" lon="6.87417">
        <ele>671.14</ele>
        <time>2019-08-20T12:41:44Z</time>
      </trkpt>
      <trkpt lat="48.07029" lon="6.8742">
        <ele>671.62</ele>
        <time>2019-08-20T12:41:52Z</time>
      </trkpt>
      <trkpt lat="48.07021" lon="6.8743">
        <ele>671.62</ele>
        <time>2019-08-20T12:42:08Z</time>
      </trkpt>
      <trkpt lat="48.07016" lon="6.87436">
        <ele>671.62</ele>
        <time>2019-08-20T12:42:21Z</time>
      </trkpt>
      <trkpt lat="48.07014" lon="6.87436">
        <ele>671.62</ele>
        <time>2019-08-20T12:42:25Z</time>
      </trkpt>
      <trkpt lat="48.07016" lon="6.87436">
        <ele>671.62</ele>
        <time>2019-08-20T13:06:29Z</time>
      </trkpt>
      <trkpt lat="48.07005" lon="6.87444">
        <ele>671.62</ele>
        <time>2019-08-20T13:06:30Z</time>
      </trkpt>
      <trkpt lat="48.07" lon="6.87454">
        <ele>671.62</ele>
        <time>2019-08-20T13:06:47Z</time>
      </trkpt>
      <trkpt lat="48.07" lon="6.87455">
        <ele>672.1</ele>
        <time>2019-08-20T13:06:48Z</time>
      </trkpt>
      <trkpt lat="48.06992" lon="6.87471">
        <ele>673.06</ele>
        <time>2019-08-20T13:07:02Z</time>
      </trkpt>
      <trkpt lat="48.0699" lon="6.87493">
        <ele>674.02</ele>
        <time>2019-08-20T13:07:19Z</time>
      </trkpt>
      <trkpt lat="48.06987" lon="6.87508">
        <ele>673.54</ele>
        <time>2019-08-20T13:07:33Z</time>
      </trkpt>
      <trkpt lat="48.06985" lon="6.87527">
        <ele>673.54</ele>
        <time>2019-08-20T13:07:47Z</time>
      </trkpt>
      <trkpt lat="48.06985" lon="6.87543">
        <ele>674.02</ele>
        <time>2019-08-20T13:08:01Z</time>
      </trkpt>
      <trkpt lat="48.06987" lon="6.87555">
        <ele>673.54</ele>
        <time>2019-08-20T13:08:15Z</time>
      </trkpt>
      <trkpt lat="48.06991" lon="6.87568">
        <ele>674.02</ele>
        <time>2019-08-20T13:08:28Z</time>
      </trkpt>
      <trkpt lat="48.06991" lon="6.87579">
        <ele>673.54</ele>
        <time>2019-08-20T13:08:39Z</time>
      </trkpt>
      <trkpt lat="48.06994" lon="6.87595">
        <ele>673.54</ele>
        <time>2019-08-20T13:08:54Z</time>
      </trkpt>
      <trkpt lat="48.07002" lon="6.87609">
        <ele>674.02</ele>
        <time>2019-08-20T13:09:07Z</time>
      </trkpt>
      <trkpt lat="48.07004" lon="6.87615">
        <ele>673.54</ele>
        <time>2019-08-20T13:09:13Z</time>
      </trkpt>
      <trkpt lat="48.07005" lon="6.87619">
        <ele>673.54</ele>
        <time>2019-08-20T13:09:16Z</time>
      </trkpt>
      <trkpt lat="48.07006" lon="6.87624">
        <ele>673.06</ele>
        <time>2019-08-20T13:09:19Z</time>
      </trkpt>
      <trkpt lat="48.07007" lon="6.87643">
        <ele>673.06</ele>
        <time>2019-08-20T13:09:34Z</time>
      </trkpt>
      <trkpt lat="48.07009" lon="6.8765">
        <ele>673.54</ele>
        <time>2019-08-20T13:09:44Z</time>
      </trkpt>
      <trkpt lat="48.07013" lon="6.87662">
        <ele>673.54</ele>
        <time>2019-08-20T13:09:55Z</time>
      </trkpt>
      <trkpt lat="48.07017" lon="6.87675">
        <ele>674.02</ele>
        <time>2019-08-20T13:10:09Z</time>
      </trkpt>
      <trkpt lat="48.0702" lon="6.87682">
        <ele>674.02</ele>
        <time>2019-08-20T13:10:20Z</time>
      </trkpt>
      <trkpt lat="48.07019" lon="6.87682">
        <ele>674.02</ele>
        <time>2019-08-20T13:10:22Z</time>
      </trkpt>
      <trkpt lat="48.07021" lon="6.87689">
        <ele>674.02</ele>
        <time>2019-08-20T13:10:27Z</time>
      </trkpt>
      <trkpt lat="48.07024" lon="6.87698">
        <ele>674.02</ele>
        <time>2019-08-20T13:10:38Z</time>
      </trkpt>
      <trkpt lat="48.07033" lon="6.87714">
        <ele>674.02</ele>
        <time>2019-08-20T13:10:52Z</time>
      </trkpt>
      <trkpt lat="48.07045" lon="6.87731">
        <ele>674.02</ele>
        <time>2019-08-20T13:11:07Z</time>
      </trkpt>
      <trkpt lat="48.07048" lon="6.87736">
        <ele>674.02</ele>
        <time>2019-08-20T13:11:13Z</time>
      </trkpt>
      <trkpt lat="48.07049" lon="6.87756">
        <ele>674.5</ele>
        <time>2019-08-20T13:11:26Z</time>
      </trkpt>
      <trkpt lat="48.07054" lon="6.87778">
        <ele>674.5</ele>
        <time>2019-08-20T13:11:43Z</time>
      </trkpt>
      <trkpt lat="48.07056" lon="6.87783">
        <ele>674.5</ele>
        <time>2019-08-20T13:11:47Z</time>
      </trkpt>
      <trkpt lat="48.07062" lon="6.87786">
        <ele>674.5</ele>
        <time>2019-08-20T13:11:53Z</time>
      </trkpt>
      <trkpt lat="48.07069" lon="6.87781">
        <ele>674.02</ele>
        <time>2019-08-20T13:11:59Z</time>
      </trkpt>
      <trkpt lat="48.07078" lon="6.87775">
        <ele>673.54</ele>
        <time>2019-08-20T13:12:08Z</time>
      </trkpt>
      <trkpt lat="48.07087" lon="6.87779">
        <ele>673.06</ele>
        <time>2019-08-20T13:12:19Z</time>
      </trkpt>
      <trkpt lat="48.07094" lon="6.87787">
        <ele>673.06</ele>
        <time>2019-08-20T13:12:31Z</time>
      </trkpt>
      <trkpt lat="48.07099" lon="6.87789">
        <ele>673.06</ele>
        <time>2019-08-20T13:12:45Z</time>
      </trkpt>
      <trkpt lat="48.07097" lon="6.87791">
        <ele>673.06</ele>
        <time>2019-08-20T13:13:00Z</time>
      </trkpt>
      <trkpt lat="48.07096" lon="6.87793">
        <ele>673.06</ele>
        <time>2019-08-20T13:13:03Z</time>
      </trkpt>
      <trkpt lat="48.07098" lon="6.87791">
        <ele>673.06</ele>
        <time>2019-08-20T13:13:21Z</time>
      </trkpt>
      <trkpt lat="48.071" lon="6.87784">
        <ele>673.06</ele>
        <time>2019-08-20T13:14:43Z</time>
      </trkpt>
      <trkpt lat="48.07094" lon="6.87786">
        <ele>672.58</ele>
        <time>2019-08-20T13:14:55Z</time>
      </trkpt>
      <trkpt lat="48.07087" lon="6.87791">
        <ele>672.58</ele>
        <time>2019-08-20T13:15:08Z</time>
      </trkpt>
      <trkpt lat="48.07086" lon="6.87803">
        <ele>673.54</ele>
        <time>2019-08-20T13:15:19Z</time>
      </trkpt>
      <trkpt lat="48.07095" lon="6.87813">
        <ele>673.54</ele>
        <time>2019-08-20T13:15:32Z</time>
      </trkpt>
      <trkpt lat="48.07101" lon="6.87827">
        <ele>673.54</ele>
        <time>2019-08-20T13:15:46Z</time>
      </trkpt>
      <trkpt lat="48.0711" lon="6.87825">
        <ele>673.54</ele>
        <time>2019-08-20T13:15:58Z</time>
      </trkpt>
      <trkpt lat="48.07104" lon="6.87823">
        <ele>673.06</ele>
        <time>2019-08-20T13:16:14Z</time>
      </trkpt>
      <trkpt lat="48.07099" lon="6.87841">
        <ele>673.06</ele>
        <time>2019-08-20T13:16:29Z</time>
      </trkpt>
      <trkpt lat="48.07102" lon="6.87851">
        <ele>673.06</ele>
        <time>2019-08-20T13:16:36Z</time>
      </trkpt>
      <trkpt lat="48.07115" lon="6.87848">
        <ele>673.54</ele>
        <time>2019-08-20T13:16:51Z</time>
      </trkpt>
      <trkpt lat="48.07115" lon="6.87839">
        <ele>673.54</ele>
        <time>2019-08-20T13:17:07Z</time>
      </trkpt>
      <trkpt lat="48.07114" lon="6.87836">
        <ele>673.06</ele>
        <time>2019-08-20T13:17:26Z</time>
      </trkpt>
      <trkpt lat="48.07139" lon="6.87879">
        <ele>673.06</ele>
        <time>2019-08-20T13:21:39Z</time>
      </trkpt>
      <trkpt lat="48.07121" lon="6.87875">
        <ele>673.06</ele>
        <time>2019-08-20T13:21:56Z</time>
      </trkpt>
      <trkpt lat="48.07125" lon="6.87886">
        <ele>673.54</ele>
        <time>2019-08-20T13:22:09Z</time>
      </trkpt>
      <trkpt lat="48.07132" lon="6.87896">
        <ele>674.02</ele>
        <time>2019-08-20T13:22:22Z</time>
      </trkpt>
      <trkpt lat="48.07141" lon="6.87913">
        <ele>674.02</ele>
        <time>2019-08-20T13:22:38Z</time>
      </trkpt>
      <trkpt lat="48.07148" lon="6.87938">
        <ele>674.98</ele>
        <time>2019-08-20T13:22:57Z</time>
      </trkpt>
      <trkpt lat="48.07153" lon="6.87955">
        <ele>674.5</ele>
        <time>2019-08-20T13:23:12Z</time>
      </trkpt>
      <trkpt lat="48.07156" lon="6.87964">
        <ele>674.5</ele>
        <time>2019-08-20T13:23:19Z</time>
      </trkpt>
      <trkpt lat="48.07156" lon="6.87968">
        <ele>674.5</ele>
        <time>2019-08-20T13:23:22Z</time>
      </trkpt>
      <trkpt lat="48.07147" lon="6.87979">
        <ele>675.46</ele>
        <time>2019-08-20T13:23:35Z</time>
      </trkpt>
      <trkpt lat="48.07147" lon="6.87995">
        <ele>675.94</ele>
        <time>2019-08-20T13:23:50Z</time>
      </trkpt>
      <trkpt lat="48.07152" lon="6.88016">
        <ele>675.46</ele>
        <time>2019-08-20T13:24:08Z</time>
      </trkpt>
      <trkpt lat="48.07158" lon="6.88042">
        <ele>676.42</ele>
        <time>2019-08-20T13:24:28Z</time>
      </trkpt>
      <trkpt lat="48.07159" lon="6.88055">
        <ele>676.42</ele>
        <time>2019-08-20T13:24:37Z</time>
      </trkpt>
      <trkpt lat="48.07153" lon="6.88073">
        <ele>676.91</ele>
        <time>2019-08-20T13:24:51Z</time>
      </trkpt>
      <trkpt lat="48.07142" lon="6.88086">
        <ele>677.87</ele>
        <time>2019-08-20T13:25:07Z</time>
      </trkpt>
      <trkpt lat="48.07145" lon="6.88108">
        <ele>678.35</ele>
        <time>2019-08-20T13:25:22Z</time>
      </trkpt>
      <trkpt lat="48.07146" lon="6.88111">
        <ele>678.35</ele>
        <time>2019-08-20T13:25:24Z</time>
      </trkpt>
      <trkpt lat="48.07155" lon="6.88128">
        <ele>678.83</ele>
        <time>2019-08-20T13:25:41Z</time>
      </trkpt>
      <trkpt lat="48.07161" lon="6.88137">
        <ele>678.83</ele>
        <time>2019-08-20T13:25:54Z</time>
      </trkpt>
      <trkpt lat="48.07166" lon="6.88146">
        <ele>678.35</ele>
        <time>2019-08-20T13:26:01Z</time>
      </trkpt>
      <trkpt lat="48.07167" lon="6.88148">
        <ele>678.35</ele>
        <time>2019-08-20T13:26:03Z</time>
      </trkpt>
      <trkpt lat="48.07181" lon="6.88165">
        <ele>677.39</ele>
        <time>2019-08-20T13:26:21Z</time>
      </trkpt>
      <trkpt lat="48.07195" lon="6.88178">
        <ele>678.35</ele>
        <time>2019-08-20T13:26:38Z</time>
      </trkpt>
      <trkpt lat="48.07212" lon="6.88194">
        <ele>677.39</ele>
        <time>2019-08-20T13:26:57Z</time>
      </trkpt>
      <trkpt lat="48.07226" lon="6.88205">
        <ele>677.39</ele>
        <time>2019-08-20T13:27:12Z</time>
      </trkpt>
      <trkpt lat="48.07231" lon="6.88206">
        <ele>677.39</ele>
        <time>2019-08-20T13:27:18Z</time>
      </trkpt>
      <trkpt lat="48.07245" lon="6.88226">
        <ele>676.91</ele>
        <time>2019-08-20T13:27:33Z</time>
      </trkpt>
      <trkpt lat="48.07252" lon="6.88232">
        <ele>676.42</ele>
        <time>2019-08-20T13:27:40Z</time>
      </trkpt>
      <trkpt lat="48.07263" lon="6.8824">
        <ele>675.94</ele>
        <time>2019-08-20T13:27:50Z</time>
      </trkpt>
      <trkpt lat="48.07278" lon="6.88255">
        <ele>675.46</ele>
        <time>2019-08-20T13:28:06Z</time>
      </trkpt>
      <trkpt lat="48.07292" lon="6.88269">
        <ele>674.98</ele>
        <time>2019-08-20T13:28:20Z</time>
      </trkpt>
      <trkpt lat="48.07304" lon="6.88281">
        <ele>674.98</ele>
        <time>2019-08-20T13:28:33Z</time>
      </trkpt>
      <trkpt lat="48.07309" lon="6.88295">
        <ele>674.5</ele>
        <time>2019-08-20T13:28:47Z</time>
      </trkpt>
      <trkpt lat="48.07316" lon="6.88305">
        <ele>673.54</ele>
        <time>2019-08-20T13:28:59Z</time>
      </trkpt>
      <trkpt lat="48.07323" lon="6.88308">
        <ele>674.02</ele>
        <time>2019-08-20T13:29:04Z</time>
      </trkpt>
      <trkpt lat="48.07324" lon="6.88308">
        <ele>674.02</ele>
        <time>2019-08-20T13:29:05Z</time>
      </trkpt>
      <trkpt lat="48.07325" lon="6.88309">
        <ele>674.02</ele>
        <time>2019-08-20T13:29:06Z</time>
      </trkpt>
      <trkpt lat="48.07326" lon="6.8831">
        <ele>674.02</ele>
        <time>2019-08-20T13:29:07Z</time>
      </trkpt>
      <trkpt lat="48.07328" lon="6.88314">
        <ele>673.54</ele>
        <time>2019-08-20T13:29:08Z</time>
      </trkpt>
      <trkpt lat="48.07329" lon="6.88318">
        <ele>673.54</ele>
        <time>2019-08-20T13:29:09Z</time>
      </trkpt>
      <trkpt lat="48.0733" lon="6.88319">
        <ele>673.54</ele>
        <time>2019-08-20T13:29:10Z</time>
      </trkpt>
      <trkpt lat="48.07346" lon="6.88335">
        <ele>673.06</ele>
        <time>2019-08-20T13:29:23Z</time>
      </trkpt>
      <trkpt lat="48.07362" lon="6.88343">
        <ele>673.06</ele>
        <time>2019-08-20T13:29:39Z</time>
      </trkpt>
      <trkpt lat="48.07366" lon="6.88346">
        <ele>673.06</ele>
        <time>2019-08-20T13:29:45Z</time>
      </trkpt>
      <trkpt lat="48.07377" lon="6.88354">
        <ele>673.06</ele>
        <time>2019-08-20T13:29:56Z</time>
      </trkpt>
      <trkpt lat="48.07395" lon="6.88376">
        <ele>673.06</ele>
        <time>2019-08-20T13:30:12Z</time>
      </trkpt>
      <trkpt lat="48.07398" lon="6.88379">
        <ele>673.06</ele>
        <time>2019-08-20T13:30:15Z</time>
      </trkpt>
      <trkpt lat="48.07399" lon="6.8838">
        <ele>673.06</ele>
        <time>2019-08-20T13:30:16Z</time>
      </trkpt>
      <trkpt lat="48.07415" lon="6.88391">
        <ele>673.06</ele>
        <time>2019-08-20T13:30:31Z</time>
      </trkpt>
      <trkpt lat="48.07418" lon="6.88398">
        <ele>673.06</ele>
        <time>2019-08-20T13:30:46Z</time>
      </trkpt>
      <trkpt lat="48.07417" lon="6.88399">
        <ele>673.06</ele>
        <time>2019-08-20T13:30:47Z</time>
      </trkpt>
      <trkpt lat="48.07417" lon="6.88401">
        <ele>673.54</ele>
        <time>2019-08-20T13:30:48Z</time>
      </trkpt>
      <trkpt lat="48.07415" lon="6.88409">
        <ele>674.5</ele>
        <time>2019-08-20T13:30:54Z</time>
      </trkpt>
      <trkpt lat="48.07424" lon="6.88424">
        <ele>675.46</ele>
        <time>2019-08-20T13:31:06Z</time>
      </trkpt>
      <trkpt lat="48.07431" lon="6.88442">
        <ele>675.46</ele>
        <time>2019-08-20T13:31:20Z</time>
      </trkpt>
      <trkpt lat="48.07433" lon="6.88444">
        <ele>675.46</ele>
        <time>2019-08-20T13:31:22Z</time>
      </trkpt>
      <trkpt lat="48.07434" lon="6.88448">
        <ele>675.94</ele>
        <time>2019-08-20T13:31:25Z</time>
      </trkpt>
      <trkpt lat="48.07447" lon="6.88468">
        <ele>676.42</ele>
        <time>2019-08-20T13:31:41Z</time>
      </trkpt>
      <trkpt lat="48.07453" lon="6.8848">
        <ele>676.91</ele>
        <time>2019-08-20T13:31:52Z</time>
      </trkpt>
      <trkpt lat="48.07457" lon="6.88488">
        <ele>677.39</ele>
        <time>2019-08-20T13:32:08Z</time>
      </trkpt>
      <trkpt lat="48.07461" lon="6.88493">
        <ele>677.87</ele>
        <time>2019-08-20T13:32:38Z</time>
      </trkpt>
      <trkpt lat="48.07461" lon="6.88492">
        <ele>677.39</ele>
        <time>2019-08-20T13:33:02Z</time>
      </trkpt>
      <trkpt lat="48.07462" lon="6.88493">
        <ele>677.39</ele>
        <time>2019-08-20T13:33:04Z</time>
      </trkpt>
      <trkpt lat="48.07475" lon="6.88513">
        <ele>677.39</ele>
        <time>2019-08-20T13:33:22Z</time>
      </trkpt>
      <trkpt lat="48.07479" lon="6.88518">
        <ele>677.87</ele>
        <time>2019-08-20T13:33:27Z</time>
      </trkpt>
      <trkpt lat="48.0748" lon="6.88519">
        <ele>677.39</ele>
        <time>2019-08-20T13:33:28Z</time>
      </trkpt>
      <trkpt lat="48.07486" lon="6.88527">
        <ele>676.91</ele>
        <time>2019-08-20T13:33:35Z</time>
      </trkpt>
      <trkpt lat="48.07487" lon="6.88527">
        <ele>677.39</ele>
        <time>2019-08-20T13:33:36Z</time>
      </trkpt>
      <trkpt lat="48.07489" lon="6.88537">
        <ele>677.39</ele>
        <time>2019-08-20T13:33:47Z</time>
      </trkpt>
      <trkpt lat="48.07492" lon="6.88536">
        <ele>676.91</ele>
        <time>2019-08-20T13:34:14Z</time>
      </trkpt>
      <trkpt lat="48.07497" lon="6.88548">
        <ele>676.91</ele>
        <time>2019-08-20T13:34:32Z</time>
      </trkpt>
      <trkpt lat="48.0751" lon="6.88565">
        <ele>675.94</ele>
        <time>2019-08-20T13:34:49Z</time>
      </trkpt>
      <trkpt lat="48.07521" lon="6.88587">
        <ele>674.02</ele>
        <time>2019-08-20T13:35:05Z</time>
      </trkpt>
      <trkpt lat="48.07537" lon="6.886">
        <ele>672.58</ele>
        <time>2019-08-20T13:35:21Z</time>
      </trkpt>
      <trkpt lat="48.0755" lon="6.88616">
        <ele>671.62</ele>
        <time>2019-08-20T13:35:35Z</time>
      </trkpt>
      <trkpt lat="48.07551" lon="6.88617">
        <ele>671.14</ele>
        <time>2019-08-20T13:35:36Z</time>
      </trkpt>
      <trkpt lat="48.07563" lon="6.88627">
        <ele>670.18</ele>
        <time>2019-08-20T13:35:48Z</time>
      </trkpt>
      <trkpt lat="48.07576" lon="6.8864">
        <ele>668.73</ele>
        <time>2019-08-20T13:36:03Z</time>
      </trkpt>
      <trkpt lat="48.07595" lon="6.88665">
        <ele>667.29</ele>
        <time>2019-08-20T13:36:24Z</time>
      </trkpt>
      <trkpt lat="48.07618" lon="6.88676">
        <ele>666.33</ele>
        <time>2019-08-20T13:36:45Z</time>
      </trkpt>
      <trkpt lat="48.07637" lon="6.8869">
        <ele>667.77</ele>
        <time>2019-08-20T13:37:03Z</time>
      </trkpt>
      <trkpt lat="48.07657" lon="6.88702">
        <ele>669.22</ele>
        <time>2019-08-20T13:37:21Z</time>
      </trkpt>
      <trkpt lat="48.07675" lon="6.8872">
        <ele>669.22</ele>
        <time>2019-08-20T13:37:39Z</time>
      </trkpt>
      <trkpt lat="48.07689" lon="6.88744">
        <ele>669.22</ele>
        <time>2019-08-20T13:37:57Z</time>
      </trkpt>
      <trkpt lat="48.07709" lon="6.8876">
        <ele>668.73</ele>
        <time>2019-08-20T13:38:13Z</time>
      </trkpt>
      <trkpt lat="48.07723" lon="6.88789">
        <ele>668.73</ele>
        <time>2019-08-20T13:38:34Z</time>
      </trkpt>
      <trkpt lat="48.07735" lon="6.88822">
        <ele>666.81</ele>
        <time>2019-08-20T13:38:55Z</time>
      </trkpt>
      <trkpt lat="48.07743" lon="6.88852">
        <ele>666.81</ele>
        <time>2019-08-20T13:39:14Z</time>
      </trkpt>
      <trkpt lat="48.07753" lon="6.88883">
        <ele>665.85</ele>
        <time>2019-08-20T13:39:34Z</time>
      </trkpt>
      <trkpt lat="48.07757" lon="6.88901">
        <ele>667.29</ele>
        <time>2019-08-20T13:39:47Z</time>
      </trkpt>
      <trkpt lat="48.07761" lon="6.8892">
        <ele>667.77</ele>
        <time>2019-08-20T13:40:03Z</time>
      </trkpt>
      <trkpt lat="48.07765" lon="6.8893">
        <ele>668.25</ele>
        <time>2019-08-20T13:40:13Z</time>
      </trkpt>
      <trkpt lat="48.07766" lon="6.88932">
        <ele>668.25</ele>
        <time>2019-08-20T13:40:14Z</time>
      </trkpt>
      <trkpt lat="48.07768" lon="6.88938">
        <ele>668.73</ele>
        <time>2019-08-20T13:40:19Z</time>
      </trkpt>
      <trkpt lat="48.07769" lon="6.88941">
        <ele>669.22</ele>
        <time>2019-08-20T13:40:21Z</time>
      </trkpt>
      <trkpt lat="48.07773" lon="6.88949">
        <ele>669.22</ele>
        <time>2019-08-20T13:40:27Z</time>
      </trkpt>
      <trkpt lat="48.07776" lon="6.88956">
        <ele>669.7</ele>
        <time>2019-08-20T13:40:32Z</time>
      </trkpt>
      <trkpt lat="48.07781" lon="6.88962">
        <ele>669.7</ele>
        <time>2019-08-20T13:40:38Z</time>
      </trkpt>
      <trkpt lat="48.07781" lon="6.88964">
        <ele>669.7</ele>
        <time>2019-08-20T13:40:39Z</time>
      </trkpt>
      <trkpt lat="48.07794" lon="6.88983">
        <ele>669.22</ele>
        <time>2019-08-20T13:40:56Z</time>
      </trkpt>
      <trkpt lat="48.07819" lon="6.88987">
        <ele>667.77</ele>
        <time>2019-08-20T13:41:15Z</time>
      </trkpt>
      <trkpt lat="48.07837" lon="6.88979">
        <ele>666.33</ele>
        <time>2019-08-20T13:41:32Z</time>
      </trkpt>
      <trkpt lat="48.07847" lon="6.88978">
        <ele>665.85</ele>
        <time>2019-08-20T13:41:42Z</time>
      </trkpt>
      <trkpt lat="48.07857" lon="6.89">
        <ele>666.33</ele>
        <time>2019-08-20T13:41:55Z</time>
      </trkpt>
      <trkpt lat="48.07866" lon="6.8902">
        <ele>667.29</ele>
        <time>2019-08-20T13:42:11Z</time>
      </trkpt>
      <trkpt lat="48.07872" lon="6.89036">
        <ele>667.29</ele>
        <time>2019-08-20T13:42:24Z</time>
      </trkpt>
      <trkpt lat="48.07879" lon="6.89058">
        <ele>667.77</ele>
        <time>2019-08-20T13:42:38Z</time>
      </trkpt>
      <trkpt lat="48.07887" lon="6.89079">
        <ele>668.73</ele>
        <time>2019-08-20T13:42:52Z</time>
      </trkpt>
      <trkpt lat="48.07896" lon="6.89106">
        <ele>669.22</ele>
        <time>2019-08-20T13:43:09Z</time>
      </trkpt>
      <trkpt lat="48.07901" lon="6.89119">
        <ele>670.18</ele>
        <time>2019-08-20T13:43:18Z</time>
      </trkpt>
      <trkpt lat="48.07908" lon="6.89141">
        <ele>670.18</ele>
        <time>2019-08-20T13:43:32Z</time>
      </trkpt>
      <trkpt lat="48.07911" lon="6.89151">
        <ele>670.66</ele>
        <time>2019-08-20T13:43:39Z</time>
      </trkpt>
      <trkpt lat="48.07913" lon="6.89156">
        <ele>670.66</ele>
        <time>2019-08-20T13:43:42Z</time>
      </trkpt>
      <trkpt lat="48.07913" lon="6.89158">
        <ele>670.66</ele>
        <time>2019-08-20T13:43:43Z</time>
      </trkpt>
      <trkpt lat="48.07914" lon="6.8916">
        <ele>670.66</ele>
        <time>2019-08-20T13:43:44Z</time>
      </trkpt>
      <trkpt lat="48.07914" lon="6.89161">
        <ele>670.66</ele>
        <time>2019-08-20T13:43:45Z</time>
      </trkpt>
      <trkpt lat="48.07919" lon="6.89187">
        <ele>671.14</ele>
        <time>2019-08-20T13:44:01Z</time>
      </trkpt>
      <trkpt lat="48.07923" lon="6.89199">
        <ele>671.14</ele>
        <time>2019-08-20T13:44:10Z</time>
      </trkpt>
      <trkpt lat="48.07923" lon="6.89201">
        <ele>671.62</ele>
        <time>2019-08-20T13:44:11Z</time>
      </trkpt>
      <trkpt lat="48.07933" lon="6.89233">
        <ele>672.1</ele>
        <time>2019-08-20T13:44:30Z</time>
      </trkpt>
      <trkpt lat="48.07929" lon="6.89238">
        <ele>672.58</ele>
        <time>2019-08-20T13:44:34Z</time>
      </trkpt>
      <trkpt lat="48.07921" lon="6.89249">
        <ele>673.54</ele>
        <time>2019-08-20T13:44:43Z</time>
      </trkpt>
      <trkpt lat="48.07915" lon="6.89262">
        <ele>674.02</ele>
        <time>2019-08-20T13:44:53Z</time>
      </trkpt>
      <trkpt lat="48.07907" lon="6.89275">
        <ele>675.46</ele>
        <time>2019-08-20T13:45:06Z</time>
      </trkpt>
      <trkpt lat="48.07895" lon="6.89293">
        <ele>676.42</ele>
        <time>2019-08-20T13:45:22Z</time>
      </trkpt>
      <trkpt lat="48.07887" lon="6.89311">
        <ele>677.39</ele>
        <time>2019-08-20T13:45:36Z</time>
      </trkpt>
      <trkpt lat="48.07883" lon="6.89333">
        <ele>679.31</ele>
        <time>2019-08-20T13:45:51Z</time>
      </trkpt>
      <trkpt lat="48.0788" lon="6.89351">
        <ele>680.75</ele>
        <time>2019-08-20T13:46:06Z</time>
      </trkpt>
      <trkpt lat="48.07878" lon="6.89372">
        <ele>681.71</ele>
        <time>2019-08-20T13:46:22Z</time>
      </trkpt>
      <trkpt lat="48.07875" lon="6.89397">
        <ele>683.63</ele>
        <time>2019-08-20T13:46:39Z</time>
      </trkpt>
      <trkpt lat="48.07876" lon="6.89403">
        <ele>683.63</ele>
        <time>2019-08-20T13:46:44Z</time>
      </trkpt>
      <trkpt lat="48.07877" lon="6.89404">
        <ele>683.63</ele>
        <time>2019-08-20T13:46:45Z</time>
      </trkpt>
      <trkpt lat="48.07879" lon="6.89403">
        <ele>684.12</ele>
        <time>2019-08-20T13:46:53Z</time>
      </trkpt>
      <trkpt lat="48.07881" lon="6.89406">
        <ele>684.6</ele>
        <time>2019-08-20T13:47:04Z</time>
      </trkpt>
      <trkpt lat="48.07882" lon="6.89409">
        <ele>684.12</ele>
        <time>2019-08-20T13:47:07Z</time>
      </trkpt>
      <trkpt lat="48.07886" lon="6.89427">
        <ele>683.63</ele>
        <time>2019-08-20T13:47:18Z</time>
      </trkpt>
      <trkpt lat="48.07887" lon="6.89439">
        <ele>683.15</ele>
        <time>2019-08-20T13:47:33Z</time>
      </trkpt>
      <trkpt lat="48.07891" lon="6.89449">
        <ele>683.15</ele>
        <time>2019-08-20T13:47:50Z</time>
      </trkpt>
      <trkpt lat="48.07893" lon="6.89454">
        <ele>683.15</ele>
        <time>2019-08-20T13:47:56Z</time>
      </trkpt>
      <trkpt lat="48.07894" lon="6.89458">
        <ele>683.15</ele>
        <time>2019-08-20T13:47:59Z</time>
      </trkpt>
      <trkpt lat="48.07898" lon="6.8947">
        <ele>682.67</ele>
        <time>2019-08-20T13:48:10Z</time>
      </trkpt>
      <trkpt lat="48.07899" lon="6.89475">
        <ele>682.67</ele>
        <time>2019-08-20T13:48:15Z</time>
      </trkpt>
      <trkpt lat="48.07905" lon="6.89494">
        <ele>683.15</ele>
        <time>2019-08-20T13:48:28Z</time>
      </trkpt>
      <trkpt lat="48.07908" lon="6.89511">
        <ele>684.6</ele>
        <time>2019-08-20T13:48:41Z</time>
      </trkpt>
      <trkpt lat="48.07915" lon="6.8953">
        <ele>685.08</ele>
        <time>2019-08-20T13:48:58Z</time>
      </trkpt>
      <trkpt lat="48.07922" lon="6.89557">
        <ele>686.04</ele>
        <time>2019-08-20T13:49:16Z</time>
      </trkpt>
      <trkpt lat="48.07929" lon="6.89583">
        <ele>683.63</ele>
        <time>2019-08-20T13:49:36Z</time>
      </trkpt>
      <trkpt lat="48.07938" lon="6.8961">
        <ele>683.63</ele>
        <time>2019-08-20T13:49:54Z</time>
      </trkpt>
      <trkpt lat="48.07937" lon="6.89612">
        <ele>683.63</ele>
        <time>2019-08-20T13:50:15Z</time>
      </trkpt>
      <trkpt lat="48.07943" lon="6.89625">
        <ele>684.12</ele>
        <time>2019-08-20T13:50:45Z</time>
      </trkpt>
      <trkpt lat="48.07944" lon="6.89626">
        <ele>684.12</ele>
        <time>2019-08-20T13:50:46Z</time>
      </trkpt>
      <trkpt lat="48.07945" lon="6.89627">
        <ele>684.6</ele>
        <time>2019-08-20T13:50:47Z</time>
      </trkpt>
      <trkpt lat="48.07951" lon="6.89646">
        <ele>686.04</ele>
        <time>2019-08-20T13:51:00Z</time>
      </trkpt>
      <trkpt lat="48.07952" lon="6.89647">
        <ele>686.04</ele>
        <time>2019-08-20T13:51:01Z</time>
      </trkpt>
      <trkpt lat="48.0796" lon="6.89666">
        <ele>687</ele>
        <time>2019-08-20T13:51:15Z</time>
      </trkpt>
      <trkpt lat="48.07966" lon="6.89683">
        <ele>688.44</ele>
        <time>2019-08-20T13:51:29Z</time>
      </trkpt>
      <trkpt lat="48.0797" lon="6.89705">
        <ele>689.88</ele>
        <time>2019-08-20T13:51:41Z</time>
      </trkpt>
      <trkpt lat="48.0797" lon="6.89707">
        <ele>690.36</ele>
        <time>2019-08-20T13:51:42Z</time>
      </trkpt>
      <trkpt lat="48.07977" lon="6.89726">
        <ele>691.33</ele>
        <time>2019-08-20T13:51:56Z</time>
      </trkpt>
      <trkpt lat="48.07984" lon="6.8975">
        <ele>691.81</ele>
        <time>2019-08-20T13:52:11Z</time>
      </trkpt>
      <trkpt lat="48.07987" lon="6.89762">
        <ele>691.33</ele>
        <time>2019-08-20T13:52:18Z</time>
      </trkpt>
      <trkpt lat="48.07986" lon="6.89786">
        <ele>692.29</ele>
        <time>2019-08-20T13:52:33Z</time>
      </trkpt>
      <trkpt lat="48.0799" lon="6.89805">
        <ele>692.29</ele>
        <time>2019-08-20T13:52:48Z</time>
      </trkpt>
      <trkpt lat="48.07999" lon="6.89825">
        <ele>693.25</ele>
        <time>2019-08-20T13:53:02Z</time>
      </trkpt>
      <trkpt lat="48.08002" lon="6.89833">
        <ele>691.81</ele>
        <time>2019-08-20T13:53:12Z</time>
      </trkpt>
      <trkpt lat="48.08003" lon="6.89834">
        <ele>692.29</ele>
        <time>2019-08-20T13:53:13Z</time>
      </trkpt>
      <trkpt lat="48.08004" lon="6.89836">
        <ele>692.29</ele>
        <time>2019-08-20T13:53:14Z</time>
      </trkpt>
      <trkpt lat="48.08013" lon="6.89843">
        <ele>691.81</ele>
        <time>2019-08-20T13:53:23Z</time>
      </trkpt>
      <trkpt lat="48.08014" lon="6.89844">
        <ele>692.29</ele>
        <time>2019-08-20T13:53:24Z</time>
      </trkpt>
      <trkpt lat="48.08018" lon="6.8985">
        <ele>690.84</ele>
        <time>2019-08-20T13:53:29Z</time>
      </trkpt>
      <trkpt lat="48.08018" lon="6.89851">
        <ele>691.33</ele>
        <time>2019-08-20T13:53:30Z</time>
      </trkpt>
      <trkpt lat="48.0802" lon="6.89854">
        <ele>691.33</ele>
        <time>2019-08-20T13:53:33Z</time>
      </trkpt>
      <trkpt lat="48.08022" lon="6.89856">
        <ele>690.84</ele>
        <time>2019-08-20T13:53:34Z</time>
      </trkpt>
      <trkpt lat="48.08023" lon="6.89857">
        <ele>690.84</ele>
        <time>2019-08-20T13:53:35Z</time>
      </trkpt>
      <trkpt lat="48.08029" lon="6.89861">
        <ele>690.36</ele>
        <time>2019-08-20T13:53:40Z</time>
      </trkpt>
      <trkpt lat="48.08029" lon="6.89862">
        <ele>690.36</ele>
        <time>2019-08-20T13:53:41Z</time>
      </trkpt>
      <trkpt lat="48.0803" lon="6.89863">
        <ele>690.84</ele>
        <time>2019-08-20T13:53:42Z</time>
      </trkpt>
      <trkpt lat="48.08033" lon="6.89879">
        <ele>690.36</ele>
        <time>2019-08-20T13:53:56Z</time>
      </trkpt>
      <trkpt lat="48.08037" lon="6.89896">
        <ele>690.36</ele>
        <time>2019-08-20T13:54:11Z</time>
      </trkpt>
      <trkpt lat="48.0805" lon="6.89918">
        <ele>690.84</ele>
        <time>2019-08-20T13:54:25Z</time>
      </trkpt>
      <trkpt lat="48.08052" lon="6.89923">
        <ele>690.84</ele>
        <time>2019-08-20T13:54:28Z</time>
      </trkpt>
      <trkpt lat="48.0806" lon="6.89947">
        <ele>691.33</ele>
        <time>2019-08-20T13:54:44Z</time>
      </trkpt>
      <trkpt lat="48.08061" lon="6.89955">
        <ele>691.81</ele>
        <time>2019-08-20T13:54:50Z</time>
      </trkpt>
      <trkpt lat="48.08062" lon="6.89966">
        <ele>691.33</ele>
        <time>2019-08-20T13:55:04Z</time>
      </trkpt>
      <trkpt lat="48.08059" lon="6.89973">
        <ele>691.81</ele>
        <time>2019-08-20T13:55:32Z</time>
      </trkpt>
      <trkpt lat="48.08066" lon="6.89979">
        <ele>690.84</ele>
        <time>2019-08-20T13:55:45Z</time>
      </trkpt>
      <trkpt lat="48.08069" lon="6.89987">
        <ele>689.88</ele>
        <time>2019-08-20T13:56:00Z</time>
      </trkpt>
      <trkpt lat="48.0807" lon="6.89993">
        <ele>689.4</ele>
        <time>2019-08-20T13:56:06Z</time>
      </trkpt>
      <trkpt lat="48.08076" lon="6.90009">
        <ele>688.44</ele>
        <time>2019-08-20T13:56:21Z</time>
      </trkpt>
      <trkpt lat="48.08082" lon="6.90019">
        <ele>688.92</ele>
        <time>2019-08-20T13:56:36Z</time>
      </trkpt>
      <trkpt lat="48.08086" lon="6.90037">
        <ele>689.88</ele>
        <time>2019-08-20T13:56:49Z</time>
      </trkpt>
      <trkpt lat="48.08087" lon="6.90058">
        <ele>690.36</ele>
        <time>2019-08-20T13:57:03Z</time>
      </trkpt>
      <trkpt lat="48.08088" lon="6.90074">
        <ele>691.81</ele>
        <time>2019-08-20T13:57:17Z</time>
      </trkpt>
      <trkpt lat="48.08091" lon="6.90091">
        <ele>693.25</ele>
        <time>2019-08-20T13:57:32Z</time>
      </trkpt>
      <trkpt lat="48.08095" lon="6.90104">
        <ele>693.73</ele>
        <time>2019-08-20T13:57:47Z</time>
      </trkpt>
      <trkpt lat="48.08097" lon="6.90111">
        <ele>693.73</ele>
        <time>2019-08-20T13:58:02Z</time>
      </trkpt>
      <trkpt lat="48.081" lon="6.90123">
        <ele>694.69</ele>
        <time>2019-08-20T13:58:14Z</time>
      </trkpt>
      <trkpt lat="48.08102" lon="6.90133">
        <ele>696.13</ele>
        <time>2019-08-20T13:58:26Z</time>
      </trkpt>
      <trkpt lat="48.08106" lon="6.90139">
        <ele>696.61</ele>
        <time>2019-08-20T13:58:39Z</time>
      </trkpt>
      <trkpt lat="48.08107" lon="6.9015">
        <ele>697.57</ele>
        <time>2019-08-20T13:58:58Z</time>
      </trkpt>
      <trkpt lat="48.08109" lon="6.90166">
        <ele>698.53</ele>
        <time>2019-08-20T13:59:10Z</time>
      </trkpt>
      <trkpt lat="48.08108" lon="6.90178">
        <ele>699.98</ele>
        <time>2019-08-20T13:59:23Z</time>
      </trkpt>
      <trkpt lat="48.08109" lon="6.90179">
        <ele>699.98</ele>
        <time>2019-08-20T13:59:24Z</time>
      </trkpt>
      <trkpt lat="48.08117" lon="6.90181">
        <ele>699.98</ele>
        <time>2019-08-20T13:59:39Z</time>
      </trkpt>
      <trkpt lat="48.08119" lon="6.90183">
        <ele>699.98</ele>
        <time>2019-08-20T14:00:00Z</time>
      </trkpt>
      <trkpt lat="48.08121" lon="6.90187">
        <ele>699.98</ele>
        <time>2019-08-20T14:00:19Z</time>
      </trkpt>
      <trkpt lat="48.08128" lon="6.90202">
        <ele>700.46</ele>
        <time>2019-08-20T14:00:34Z</time>
      </trkpt>
      <trkpt lat="48.08134" lon="6.9021">
        <ele>700.94</ele>
        <time>2019-08-20T14:00:43Z</time>
      </trkpt>
      <trkpt lat="48.08144" lon="6.90217">
        <ele>701.42</ele>
        <time>2019-08-20T14:00:55Z</time>
      </trkpt>
      <trkpt lat="48.08158" lon="6.90226">
        <ele>701.42</ele>
        <time>2019-08-20T14:01:10Z</time>
      </trkpt>
      <trkpt lat="48.08168" lon="6.90243">
        <ele>700.94</ele>
        <time>2019-08-20T14:01:23Z</time>
      </trkpt>
      <trkpt lat="48.08174" lon="6.90259">
        <ele>700.94</ele>
        <time>2019-08-20T14:01:37Z</time>
      </trkpt>
      <trkpt lat="48.08183" lon="6.90275">
        <ele>699.98</ele>
        <time>2019-08-20T14:01:52Z</time>
      </trkpt>
      <trkpt lat="48.08194" lon="6.90287">
        <ele>699.5</ele>
        <time>2019-08-20T14:02:07Z</time>
      </trkpt>
      <trkpt lat="48.08204" lon="6.90302">
        <ele>697.57</ele>
        <time>2019-08-20T14:02:24Z</time>
      </trkpt>
      <trkpt lat="48.08213" lon="6.9031">
        <ele>696.13</ele>
        <time>2019-08-20T14:02:37Z</time>
      </trkpt>
      <trkpt lat="48.08222" lon="6.90328">
        <ele>694.21</ele>
        <time>2019-08-20T14:02:51Z</time>
      </trkpt>
      <trkpt lat="48.08228" lon="6.90341">
        <ele>691.81</ele>
        <time>2019-08-20T14:03:02Z</time>
      </trkpt>
      <trkpt lat="48.08231" lon="6.90352">
        <ele>690.84</ele>
        <time>2019-08-20T14:03:10Z</time>
      </trkpt>
      <trkpt lat="48.08231" lon="6.90354">
        <ele>691.33</ele>
        <time>2019-08-20T14:03:11Z</time>
      </trkpt>
      <trkpt lat="48.08231" lon="6.90355">
        <ele>691.33</ele>
        <time>2019-08-20T14:03:12Z</time>
      </trkpt>
      <trkpt lat="48.08231" lon="6.90373">
        <ele>690.36</ele>
        <time>2019-08-20T14:03:24Z</time>
      </trkpt>
      <trkpt lat="48.08232" lon="6.9038">
        <ele>689.88</ele>
        <time>2019-08-20T14:03:32Z</time>
      </trkpt>
      <trkpt lat="48.08227" lon="6.9039">
        <ele>690.84</ele>
        <time>2019-08-20T14:03:47Z</time>
      </trkpt>
      <trkpt lat="48.08224" lon="6.90406">
        <ele>691.81</ele>
        <time>2019-08-20T14:04:04Z</time>
      </trkpt>
      <trkpt lat="48.0821" lon="6.90437">
        <ele>693.73</ele>
        <time>2019-08-20T14:04:26Z</time>
      </trkpt>
      <trkpt lat="48.08202" lon="6.90464">
        <ele>695.17</ele>
        <time>2019-08-20T14:04:47Z</time>
      </trkpt>
      <trkpt lat="48.08198" lon="6.90485">
        <ele>696.13</ele>
        <time>2019-08-20T14:05:04Z</time>
      </trkpt>
      <trkpt lat="48.08192" lon="6.90514">
        <ele>696.61</ele>
        <time>2019-08-20T14:05:25Z</time>
      </trkpt>
      <trkpt lat="48.08195" lon="6.90528">
        <ele>695.65</ele>
        <time>2019-08-20T14:05:39Z</time>
      </trkpt>
      <trkpt lat="48.082" lon="6.90549">
        <ele>694.69</ele>
        <time>2019-08-20T14:05:55Z</time>
      </trkpt>
      <trkpt lat="48.08205" lon="6.90576">
        <ele>695.17</ele>
        <time>2019-08-20T14:06:12Z</time>
      </trkpt>
      <trkpt lat="48.08214" lon="6.90607">
        <ele>695.17</ele>
        <time>2019-08-20T14:06:33Z</time>
      </trkpt>
      <trkpt lat="48.08214" lon="6.90633">
        <ele>695.65</ele>
        <time>2019-08-20T14:06:53Z</time>
      </trkpt>
      <trkpt lat="48.08214" lon="6.90639">
        <ele>696.13</ele>
        <time>2019-08-20T14:06:58Z</time>
      </trkpt>
      <trkpt lat="48.08212" lon="6.90658">
        <ele>697.57</ele>
        <time>2019-08-20T14:07:15Z</time>
      </trkpt>
      <trkpt lat="48.08212" lon="6.90681">
        <ele>699.02</ele>
        <time>2019-08-20T14:07:34Z</time>
      </trkpt>
      <trkpt lat="48.08218" lon="6.90702">
        <ele>697.57</ele>
        <time>2019-08-20T14:07:50Z</time>
      </trkpt>
      <trkpt lat="48.08223" lon="6.9072">
        <ele>697.09</ele>
        <time>2019-08-20T14:08:05Z</time>
      </trkpt>
      <trkpt lat="48.08223" lon="6.90721">
        <ele>697.57</ele>
        <time>2019-08-20T14:08:06Z</time>
      </trkpt>
      <trkpt lat="48.08226" lon="6.90737">
        <ele>698.05</ele>
        <time>2019-08-20T14:08:19Z</time>
      </trkpt>
      <trkpt lat="48.08231" lon="6.90764">
        <ele>699.02</ele>
        <time>2019-08-20T14:08:39Z</time>
      </trkpt>
      <trkpt lat="48.08239" lon="6.9079">
        <ele>699.5</ele>
        <time>2019-08-20T14:08:57Z</time>
      </trkpt>
      <trkpt lat="48.0824" lon="6.90791">
        <ele>699.02</ele>
        <time>2019-08-20T14:08:58Z</time>
      </trkpt>
      <trkpt lat="48.08254" lon="6.908">
        <ele>698.53</ele>
        <time>2019-08-20T14:09:13Z</time>
      </trkpt>
      <trkpt lat="48.08274" lon="6.90815">
        <ele>696.13</ele>
        <time>2019-08-20T14:09:32Z</time>
      </trkpt>
      <trkpt lat="48.08283" lon="6.9083">
        <ele>694.21</ele>
        <time>2019-08-20T14:09:47Z</time>
      </trkpt>
      <trkpt lat="48.08295" lon="6.90842">
        <ele>693.25</ele>
        <time>2019-08-20T14:10:01Z</time>
      </trkpt>
      <trkpt lat="48.08306" lon="6.90856">
        <ele>691.81</ele>
        <time>2019-08-20T14:10:17Z</time>
      </trkpt>
      <trkpt lat="48.08306" lon="6.90858">
        <ele>691.81</ele>
        <time>2019-08-20T14:10:18Z</time>
      </trkpt>
      <trkpt lat="48.0831" lon="6.90876">
        <ele>691.33</ele>
        <time>2019-08-20T14:10:30Z</time>
      </trkpt>
      <trkpt lat="48.08309" lon="6.90889">
        <ele>691.33</ele>
        <time>2019-08-20T14:10:45Z</time>
      </trkpt>
      <trkpt lat="48.08311" lon="6.90893">
        <ele>691.33</ele>
        <time>2019-08-20T14:10:57Z</time>
      </trkpt>
      <trkpt lat="48.08311" lon="6.90918">
        <ele>691.33</ele>
        <time>2019-08-20T14:11:11Z</time>
      </trkpt>
      <trkpt lat="48.08307" lon="6.90928">
        <ele>691.81</ele>
        <time>2019-08-20T14:11:17Z</time>
      </trkpt>
      <trkpt lat="48.08307" lon="6.9093">
        <ele>691.81</ele>
        <time>2019-08-20T14:11:18Z</time>
      </trkpt>
      <trkpt lat="48.08308" lon="6.90933">
        <ele>691.33</ele>
        <time>2019-08-20T14:11:19Z</time>
      </trkpt>
      <trkpt lat="48.08304" lon="6.90952">
        <ele>692.77</ele>
        <time>2019-08-20T14:11:31Z</time>
      </trkpt>
      <trkpt lat="48.08292" lon="6.90968">
        <ele>693.25</ele>
        <time>2019-08-20T14:11:45Z</time>
      </trkpt>
      <trkpt lat="48.08287" lon="6.90976">
        <ele>695.17</ele>
        <time>2019-08-20T14:11:52Z</time>
      </trkpt>
      <trkpt lat="48.08287" lon="6.90978">
        <ele>695.17</ele>
        <time>2019-08-20T14:11:53Z</time>
      </trkpt>
      <trkpt lat="48.08286" lon="6.90979">
        <ele>695.17</ele>
        <time>2019-08-20T14:11:54Z</time>
      </trkpt>
      <trkpt lat="48.08276" lon="6.91011">
        <ele>696.13</ele>
        <time>2019-08-20T14:12:15Z</time>
      </trkpt>
      <trkpt lat="48.08271" lon="6.91043">
        <ele>698.05</ele>
        <time>2019-08-20T14:12:38Z</time>
      </trkpt>
      <trkpt lat="48.08264" lon="6.91081">
        <ele>700.94</ele>
        <time>2019-08-20T14:13:02Z</time>
      </trkpt>
      <trkpt lat="48.08258" lon="6.91114">
        <ele>702.38</ele>
        <time>2019-08-20T14:13:28Z</time>
      </trkpt>
      <trkpt lat="48.08255" lon="6.91129">
        <ele>703.34</ele>
        <time>2019-08-20T14:13:37Z</time>
      </trkpt>
      <trkpt lat="48.08252" lon="6.91147">
        <ele>703.82</ele>
        <time>2019-08-20T14:13:50Z</time>
      </trkpt>
      <trkpt lat="48.0825" lon="6.91171">
        <ele>705.75</ele>
        <time>2019-08-20T14:14:06Z</time>
      </trkpt>
      <trkpt lat="48.08248" lon="6.91198">
        <ele>707.67</ele>
        <time>2019-08-20T14:14:28Z</time>
      </trkpt>
      <trkpt lat="48.08246" lon="6.9122">
        <ele>708.63</ele>
        <time>2019-08-20T14:14:46Z</time>
      </trkpt>
      <trkpt lat="48.08243" lon="6.91247">
        <ele>710.55</ele>
        <time>2019-08-20T14:15:04Z</time>
      </trkpt>
      <trkpt lat="48.0824" lon="6.91278">
        <ele>712.47</ele>
        <time>2019-08-20T14:15:24Z</time>
      </trkpt>
      <trkpt lat="48.08241" lon="6.913">
        <ele>712.95</ele>
        <time>2019-08-20T14:15:39Z</time>
      </trkpt>
      <trkpt lat="48.08244" lon="6.91302">
        <ele>713.44</ele>
        <time>2019-08-20T14:15:42Z</time>
      </trkpt>
      <trkpt lat="48.08258" lon="6.91301">
        <ele>713.44</ele>
        <time>2019-08-20T14:16:00Z</time>
      </trkpt>
      <trkpt lat="48.08275" lon="6.913">
        <ele>711.99</ele>
        <time>2019-08-20T14:16:18Z</time>
      </trkpt>
      <trkpt lat="48.0828" lon="6.91309">
        <ele>711.51</ele>
        <time>2019-08-20T14:16:32Z</time>
      </trkpt>
      <trkpt lat="48.08281" lon="6.91326">
        <ele>710.07</ele>
        <time>2019-08-20T14:16:46Z</time>
      </trkpt>
      <trkpt lat="48.08287" lon="6.91348">
        <ele>708.15</ele>
        <time>2019-08-20T14:17:06Z</time>
      </trkpt>
      <trkpt lat="48.08289" lon="6.91354">
        <ele>705.75</ele>
        <time>2019-08-20T14:17:26Z</time>
      </trkpt>
      <trkpt lat="48.08294" lon="6.91354">
        <ele>703.34</ele>
        <time>2019-08-20T14:17:37Z</time>
      </trkpt>
      <trkpt lat="48.083" lon="6.91362">
        <ele>699.5</ele>
        <time>2019-08-20T14:17:54Z</time>
      </trkpt>
      <trkpt lat="48.08307" lon="6.91356">
        <ele>697.09</ele>
        <time>2019-08-20T14:18:10Z</time>
      </trkpt>
      <trkpt lat="48.08307" lon="6.91343">
        <ele>696.61</ele>
        <time>2019-08-20T14:18:28Z</time>
      </trkpt>
      <trkpt lat="48.08306" lon="6.91333">
        <ele>698.05</ele>
        <time>2019-08-20T14:18:45Z</time>
      </trkpt>
      <trkpt lat="48.08306" lon="6.91314">
        <ele>697.57</ele>
        <time>2019-08-20T14:18:59Z</time>
      </trkpt>
      <trkpt lat="48.08313" lon="6.91293">
        <ele>696.13</ele>
        <time>2019-08-20T14:19:15Z</time>
      </trkpt>
      <trkpt lat="48.08317" lon="6.91284">
        <ele>696.61</ele>
        <time>2019-08-20T14:19:30Z</time>
      </trkpt>
      <trkpt lat="48.08323" lon="6.9127">
        <ele>697.09</ele>
        <time>2019-08-20T14:19:43Z</time>
      </trkpt>
      <trkpt lat="48.08328" lon="6.91258">
        <ele>697.09</ele>
        <time>2019-08-20T14:19:53Z</time>
      </trkpt>
      <trkpt lat="48.08338" lon="6.9124">
        <ele>694.69</ele>
        <time>2019-08-20T14:20:10Z</time>
      </trkpt>
      <trkpt lat="48.08344" lon="6.91227">
        <ele>695.65</ele>
        <time>2019-08-20T14:20:24Z</time>
      </trkpt>
      <trkpt lat="48.08349" lon="6.91216">
        <ele>694.69</ele>
        <time>2019-08-20T14:20:39Z</time>
      </trkpt>
      <trkpt lat="48.08356" lon="6.91206">
        <ele>694.69</ele>
        <time>2019-08-20T14:20:56Z</time>
      </trkpt>
      <trkpt lat="48.08366" lon="6.91198">
        <ele>694.69</ele>
        <time>2019-08-20T14:21:11Z</time>
      </trkpt>
      <trkpt lat="48.08369" lon="6.91195">
        <ele>694.69</ele>
        <time>2019-08-20T14:21:23Z</time>
      </trkpt>
      <trkpt lat="48.08367" lon="6.91189">
        <ele>694.69</ele>
        <time>2019-08-20T14:21:59Z</time>
      </trkpt>
      <trkpt lat="48.08374" lon="6.91185">
        <ele>695.65</ele>
        <time>2019-08-20T14:22:19Z</time>
      </trkpt>
      <trkpt lat="48.08381" lon="6.91177">
        <ele>694.69</ele>
        <time>2019-08-20T14:22:32Z</time>
      </trkpt>
      <trkpt lat="48.08388" lon="6.91167">
        <ele>695.17</ele>
        <time>2019-08-20T14:22:45Z</time>
      </trkpt>
      <trkpt lat="48.084" lon="6.91171">
        <ele>695.17</ele>
        <time>2019-08-20T14:23:01Z</time>
      </trkpt>
      <trkpt lat="48.08417" lon="6.9117">
        <ele>693.73</ele>
        <time>2019-08-20T14:23:18Z</time>
      </trkpt>
      <trkpt lat="48.08431" lon="6.91159">
        <ele>694.69</ele>
        <time>2019-08-20T14:23:32Z</time>
      </trkpt>
      <trkpt lat="48.08433" lon="6.91149">
        <ele>695.17</ele>
        <time>2019-08-20T14:23:47Z</time>
      </trkpt>
      <trkpt lat="48.08435" lon="6.91148">
        <ele>695.17</ele>
        <time>2019-08-20T14:23:58Z</time>
      </trkpt>
      <trkpt lat="48.08434" lon="6.91142">
        <ele>695.17</ele>
        <time>2019-08-20T14:24:29Z</time>
      </trkpt>
      <trkpt lat="48.08435" lon="6.9114">
        <ele>695.17</ele>
        <time>2019-08-20T14:24:57Z</time>
      </trkpt>
      <trkpt lat="48.08437" lon="6.91138">
        <ele>696.61</ele>
        <time>2019-08-20T14:25:16Z</time>
      </trkpt>
      <trkpt lat="48.08437" lon="6.9115">
        <ele>695.65</ele>
        <time>2019-08-20T14:25:45Z</time>
      </trkpt>
      <trkpt lat="48.08442" lon="6.91142">
        <ele>695.17</ele>
        <time>2019-08-20T14:25:57Z</time>
      </trkpt>
      <trkpt lat="48.08446" lon="6.9114">
        <ele>694.69</ele>
        <time>2019-08-20T14:26:11Z</time>
      </trkpt>
      <trkpt lat="48.08448" lon="6.91129">
        <ele>695.17</ele>
        <time>2019-08-20T14:26:37Z</time>
      </trkpt>
      <trkpt lat="48.08443" lon="6.91114">
        <ele>694.21</ele>
        <time>2019-08-20T14:26:52Z</time>
      </trkpt>
      <trkpt lat="48.08442" lon="6.91092">
        <ele>694.21</ele>
        <time>2019-08-20T14:27:06Z</time>
      </trkpt>
      <trkpt lat="48.0845" lon="6.91085">
        <ele>693.25</ele>
        <time>2019-08-20T14:27:16Z</time>
      </trkpt>
      <trkpt lat="48.0845" lon="6.91083">
        <ele>693.73</ele>
        <time>2019-08-20T14:27:34Z</time>
      </trkpt>
      <trkpt lat="48.0845" lon="6.91085">
        <ele>693.73</ele>
        <time>2019-08-20T14:27:48Z</time>
      </trkpt>
      <trkpt lat="48.08452" lon="6.91084">
        <ele>693.25</ele>
        <time>2019-08-20T14:28:06Z</time>
      </trkpt>
      <trkpt lat="48.0845" lon="6.91077">
        <ele>693.73</ele>
        <time>2019-08-20T14:28:27Z</time>
      </trkpt>
      <trkpt lat="48.08442" lon="6.91073">
        <ele>693.73</ele>
        <time>2019-08-20T14:28:40Z</time>
      </trkpt>
      <trkpt lat="48.08441" lon="6.91074">
        <ele>693.73</ele>
        <time>2019-08-20T14:29:08Z</time>
      </trkpt>
      <trkpt lat="48.08439" lon="6.9108">
        <ele>694.21</ele>
        <time>2019-08-20T14:29:31Z</time>
      </trkpt>
      <trkpt lat="48.08442" lon="6.91074">
        <ele>694.21</ele>
        <time>2019-08-20T14:29:57Z</time>
      </trkpt>
      <trkpt lat="48.08439" lon="6.91069">
        <ele>693.25</ele>
        <time>2019-08-20T14:30:16Z</time>
      </trkpt>
      <trkpt lat="48.08433" lon="6.91051">
        <ele>693.73</ele>
        <time>2019-08-20T14:30:30Z</time>
      </trkpt>
      <trkpt lat="48.0843" lon="6.91035">
        <ele>694.69</ele>
        <time>2019-08-20T14:30:44Z</time>
      </trkpt>
      <trkpt lat="48.08427" lon="6.91013">
        <ele>694.69</ele>
        <time>2019-08-20T14:31:00Z</time>
      </trkpt>
      <trkpt lat="48.08424" lon="6.91005">
        <ele>694.21</ele>
        <time>2019-08-20T14:31:15Z</time>
      </trkpt>
      <trkpt lat="48.08422" lon="6.91004">
        <ele>694.21</ele>
        <time>2019-08-20T14:31:19Z</time>
      </trkpt>
      <trkpt lat="48.08414" lon="6.91014">
        <ele>697.09</ele>
        <time>2019-08-20T14:31:32Z</time>
      </trkpt>
      <trkpt lat="48.08411" lon="6.91019">
        <ele>697.57</ele>
        <time>2019-08-20T14:31:38Z</time>
      </trkpt>
      <trkpt lat="48.08398" lon="6.91035">
        <ele>699.5</ele>
        <time>2019-08-20T14:31:55Z</time>
      </trkpt>
      <trkpt lat="48.08394" lon="6.91044">
        <ele>700.46</ele>
        <time>2019-08-20T14:32:06Z</time>
      </trkpt>
      <trkpt lat="48.0839" lon="6.91049">
        <ele>701.42</ele>
        <time>2019-08-20T14:32:20Z</time>
      </trkpt>
      <trkpt lat="48.08384" lon="6.91059">
        <ele>703.34</ele>
        <time>2019-08-20T14:32:32Z</time>
      </trkpt>
      <trkpt lat="48.08377" lon="6.91065">
        <ele>703.82</ele>
        <time>2019-08-20T14:32:41Z</time>
      </trkpt>
      <trkpt lat="48.08373" lon="6.91076">
        <ele>704.3</ele>
        <time>2019-08-20T14:32:50Z</time>
      </trkpt>
      <trkpt lat="48.08372" lon="6.91078">
        <ele>704.3</ele>
        <time>2019-08-20T14:32:52Z</time>
      </trkpt>
      <trkpt lat="48.08364" lon="6.91098">
        <ele>705.26</ele>
        <time>2019-08-20T14:33:04Z</time>
      </trkpt>
      <trkpt lat="48.08363" lon="6.91101">
        <ele>704.78</ele>
        <time>2019-08-20T14:33:06Z</time>
      </trkpt>
      <trkpt lat="48.08355" lon="6.91111">
        <ele>705.75</ele>
        <time>2019-08-20T14:33:15Z</time>
      </trkpt>
      <trkpt lat="48.08352" lon="6.91123">
        <ele>706.71</ele>
        <time>2019-08-20T14:33:27Z</time>
      </trkpt>
      <trkpt lat="48.08345" lon="6.91149">
        <ele>707.19</ele>
        <time>2019-08-20T14:33:44Z</time>
      </trkpt>
      <trkpt lat="48.08343" lon="6.91151">
        <ele>707.19</ele>
        <time>2019-08-20T14:33:46Z</time>
      </trkpt>
      <trkpt lat="48.08333" lon="6.9116">
        <ele>708.15</ele>
        <time>2019-08-20T14:34:00Z</time>
      </trkpt>
      <trkpt lat="48.08333" lon="6.91161">
        <ele>708.15</ele>
        <time>2019-08-20T14:34:01Z</time>
      </trkpt>
      <trkpt lat="48.08325" lon="6.9118">
        <ele>709.11</ele>
        <time>2019-08-20T14:34:16Z</time>
      </trkpt>
      <trkpt lat="48.08314" lon="6.91209">
        <ele>710.07</ele>
        <time>2019-08-20T14:34:35Z</time>
      </trkpt>
      <trkpt lat="48.08304" lon="6.91233">
        <ele>710.07</ele>
        <time>2019-08-20T14:34:50Z</time>
      </trkpt>
      <trkpt lat="48.08295" lon="6.91257">
        <ele>710.55</ele>
        <time>2019-08-20T14:35:06Z</time>
      </trkpt>
      <trkpt lat="48.08286" lon="6.9128">
        <ele>710.55</ele>
        <time>2019-08-20T14:35:22Z</time>
      </trkpt>
      <trkpt lat="48.08278" lon="6.91299">
        <ele>711.51</ele>
        <time>2019-08-20T14:35:34Z</time>
      </trkpt>
      <trkpt lat="48.08282" lon="6.91321">
        <ele>710.07</ele>
        <time>2019-08-20T14:35:46Z</time>
      </trkpt>
      <trkpt lat="48.0829" lon="6.91346">
        <ele>708.15</ele>
        <time>2019-08-20T14:36:01Z</time>
      </trkpt>
      <trkpt lat="48.08292" lon="6.91368">
        <ele>706.23</ele>
        <time>2019-08-20T14:36:15Z</time>
      </trkpt>
      <trkpt lat="48.08299" lon="6.91398">
        <ele>704.3</ele>
        <time>2019-08-20T14:36:31Z</time>
      </trkpt>
      <trkpt lat="48.08303" lon="6.91411">
        <ele>703.34</ele>
        <time>2019-08-20T14:36:38Z</time>
      </trkpt>
      <trkpt lat="48.08313" lon="6.91433">
        <ele>701.42</ele>
        <time>2019-08-20T14:36:53Z</time>
      </trkpt>
      <trkpt lat="48.08326" lon="6.9145">
        <ele>700.94</ele>
        <time>2019-08-20T14:37:08Z</time>
      </trkpt>
      <trkpt lat="48.08345" lon="6.91456">
        <ele>700.94</ele>
        <time>2019-08-20T14:37:24Z</time>
      </trkpt>
      <trkpt lat="48.08366" lon="6.91452">
        <ele>700.46</ele>
        <time>2019-08-20T14:37:42Z</time>
      </trkpt>
      <trkpt lat="48.08369" lon="6.91457">
        <ele>700.46</ele>
        <time>2019-08-20T14:37:49Z</time>
      </trkpt>
      <trkpt lat="48.08362" lon="6.91476">
        <ele>700.46</ele>
        <time>2019-08-20T14:38:03Z</time>
      </trkpt>
      <trkpt lat="48.08358" lon="6.91501">
        <ele>701.42</ele>
        <time>2019-08-20T14:38:22Z</time>
      </trkpt>
      <trkpt lat="48.08362" lon="6.91528">
        <ele>701.42</ele>
        <time>2019-08-20T14:38:35Z</time>
      </trkpt>
      <trkpt lat="48.08365" lon="6.91553">
        <ele>701.42</ele>
        <time>2019-08-20T14:38:52Z</time>
      </trkpt>
      <trkpt lat="48.08372" lon="6.91582">
        <ele>702.38</ele>
        <time>2019-08-20T14:39:11Z</time>
      </trkpt>
      <trkpt lat="48.08365" lon="6.91616">
        <ele>702.86</ele>
        <time>2019-08-20T14:39:32Z</time>
      </trkpt>
      <trkpt lat="48.08358" lon="6.9164">
        <ele>702.38</ele>
        <time>2019-08-20T14:39:46Z</time>
      </trkpt>
      <trkpt lat="48.08348" lon="6.91657">
        <ele>703.34</ele>
        <time>2019-08-20T14:40:01Z</time>
      </trkpt>
      <trkpt lat="48.08335" lon="6.91688">
        <ele>704.3</ele>
        <time>2019-08-20T14:40:22Z</time>
      </trkpt>
      <trkpt lat="48.08327" lon="6.91716">
        <ele>704.78</ele>
        <time>2019-08-20T14:40:42Z</time>
      </trkpt>
      <trkpt lat="48.08319" lon="6.91742">
        <ele>704.78</ele>
        <time>2019-08-20T14:41:01Z</time>
      </trkpt>
      <trkpt lat="48.08313" lon="6.91766">
        <ele>706.23</ele>
        <time>2019-08-20T14:41:20Z</time>
      </trkpt>
      <trkpt lat="48.08297" lon="6.91796">
        <ele>706.23</ele>
        <time>2019-08-20T14:41:41Z</time>
      </trkpt>
      <trkpt lat="48.0829" lon="6.91817">
        <ele>706.23</ele>
        <time>2019-08-20T14:41:57Z</time>
      </trkpt>
      <trkpt lat="48.08291" lon="6.91832">
        <ele>705.75</ele>
        <time>2019-08-20T14:42:07Z</time>
      </trkpt>
      <trkpt lat="48.08287" lon="6.91852">
        <ele>706.23</ele>
        <time>2019-08-20T14:42:20Z</time>
      </trkpt>
      <trkpt lat="48.08287" lon="6.91855">
        <ele>706.71</ele>
        <time>2019-08-20T14:42:22Z</time>
      </trkpt>
      <trkpt lat="48.08291" lon="6.91859">
        <ele>706.71</ele>
        <time>2019-08-20T14:42:25Z</time>
      </trkpt>
      <trkpt lat="48.08298" lon="6.91873">
        <ele>707.19</ele>
        <time>2019-08-20T14:42:34Z</time>
      </trkpt>
      <trkpt lat="48.08302" lon="6.91877">
        <ele>706.71</ele>
        <time>2019-08-20T14:42:38Z</time>
      </trkpt>
      <trkpt lat="48.08309" lon="6.919">
        <ele>707.19</ele>
        <time>2019-08-20T14:42:54Z</time>
      </trkpt>
      <trkpt lat="48.0831" lon="6.91919">
        <ele>707.67</ele>
        <time>2019-08-20T14:43:07Z</time>
      </trkpt>
      <trkpt lat="48.08306" lon="6.91939">
        <ele>708.63</ele>
        <time>2019-08-20T14:43:22Z</time>
      </trkpt>
      <trkpt lat="48.08308" lon="6.91957">
        <ele>708.63</ele>
        <time>2019-08-20T14:43:34Z</time>
      </trkpt>
      <trkpt lat="48.08309" lon="6.91973">
        <ele>709.11</ele>
        <time>2019-08-20T14:43:44Z</time>
      </trkpt>
      <trkpt lat="48.08305" lon="6.91996">
        <ele>710.07</ele>
        <time>2019-08-20T14:43:58Z</time>
      </trkpt>
      <trkpt lat="48.08303" lon="6.92014">
        <ele>711.03</ele>
        <time>2019-08-20T14:44:12Z</time>
      </trkpt>
      <trkpt lat="48.083" lon="6.9203">
        <ele>711.03</ele>
        <time>2019-08-20T14:44:24Z</time>
      </trkpt>
      <trkpt lat="48.08299" lon="6.92046">
        <ele>712.47</ele>
        <time>2019-08-20T14:44:39Z</time>
      </trkpt>
      <trkpt lat="48.08292" lon="6.92069">
        <ele>712.95</ele>
        <time>2019-08-20T14:44:55Z</time>
      </trkpt>
      <trkpt lat="48.08288" lon="6.92095">
        <ele>713.44</ele>
        <time>2019-08-20T14:45:12Z</time>
      </trkpt>
      <trkpt lat="48.08286" lon="6.92099">
        <ele>713.44</ele>
        <time>2019-08-20T14:45:15Z</time>
      </trkpt>
      <trkpt lat="48.08267" lon="6.92101">
        <ele>714.4</ele>
        <time>2019-08-20T14:45:32Z</time>
      </trkpt>
      <trkpt lat="48.08258" lon="6.92099">
        <ele>715.36</ele>
        <time>2019-08-20T14:45:40Z</time>
      </trkpt>
      <trkpt lat="48.08242" lon="6.92095">
        <ele>716.8</ele>
        <time>2019-08-20T14:45:55Z</time>
      </trkpt>
      <trkpt lat="48.08227" lon="6.9209">
        <ele>718.24</ele>
        <time>2019-08-20T14:46:10Z</time>
      </trkpt>
      <trkpt lat="48.08223" lon="6.9209">
        <ele>718.72</ele>
        <time>2019-08-20T14:46:13Z</time>
      </trkpt>
      <trkpt lat="48.08218" lon="6.92101">
        <ele>718.72</ele>
        <time>2019-08-20T14:46:20Z</time>
      </trkpt>
      <trkpt lat="48.08213" lon="6.92135">
        <ele>718.24</ele>
        <time>2019-08-20T14:46:39Z</time>
      </trkpt>
      <trkpt lat="48.0821" lon="6.92162">
        <ele>718.24</ele>
        <time>2019-08-20T14:46:55Z</time>
      </trkpt>
      <trkpt lat="48.08202" lon="6.92191">
        <ele>718.24</ele>
        <time>2019-08-20T14:47:13Z</time>
      </trkpt>
      <trkpt lat="48.08198" lon="6.92218">
        <ele>718.24</ele>
        <time>2019-08-20T14:47:28Z</time>
      </trkpt>
      <trkpt lat="48.08193" lon="6.92246">
        <ele>718.72</ele>
        <time>2019-08-20T14:47:45Z</time>
      </trkpt>
      <trkpt lat="48.08189" lon="6.92278">
        <ele>719.68</ele>
        <time>2019-08-20T14:48:04Z</time>
      </trkpt>
      <trkpt lat="48.08188" lon="6.92289">
        <ele>720.16</ele>
        <time>2019-08-20T14:48:12Z</time>
      </trkpt>
      <trkpt lat="48.08186" lon="6.92299">
        <ele>720.16</ele>
        <time>2019-08-20T14:48:18Z</time>
      </trkpt>
      <trkpt lat="48.08182" lon="6.92328">
        <ele>721.61</ele>
        <time>2019-08-20T14:48:34Z</time>
      </trkpt>
      <trkpt lat="48.08181" lon="6.92341">
        <ele>720.65</ele>
        <time>2019-08-20T14:48:41Z</time>
      </trkpt>
      <trkpt lat="48.08176" lon="6.92366">
        <ele>721.13</ele>
        <time>2019-08-20T14:48:56Z</time>
      </trkpt>
      <trkpt lat="48.08175" lon="6.92382">
        <ele>721.13</ele>
        <time>2019-08-20T14:49:06Z</time>
      </trkpt>
      <trkpt lat="48.08176" lon="6.92395">
        <ele>721.13</ele>
        <time>2019-08-20T14:49:13Z</time>
      </trkpt>
      <trkpt lat="48.08184" lon="6.92409">
        <ele>720.65</ele>
        <time>2019-08-20T14:49:24Z</time>
      </trkpt>
      <trkpt lat="48.08189" lon="6.92416">
        <ele>720.16</ele>
        <time>2019-08-20T14:49:29Z</time>
      </trkpt>
      <trkpt lat="48.082" lon="6.92431">
        <ele>718.72</ele>
        <time>2019-08-20T14:49:44Z</time>
      </trkpt>
      <trkpt lat="48.0821" lon="6.92436">
        <ele>718.72</ele>
        <time>2019-08-20T14:49:53Z</time>
      </trkpt>
      <trkpt lat="48.08218" lon="6.92444">
        <ele>718.72</ele>
        <time>2019-08-20T14:50:04Z</time>
      </trkpt>
      <trkpt lat="48.08224" lon="6.92473">
        <ele>718.72</ele>
        <time>2019-08-20T14:50:22Z</time>
      </trkpt>
      <trkpt lat="48.08231" lon="6.925">
        <ele>719.68</ele>
        <time>2019-08-20T14:50:39Z</time>
      </trkpt>
      <trkpt lat="48.08237" lon="6.92539">
        <ele>720.65</ele>
        <time>2019-08-20T14:51:02Z</time>
      </trkpt>
      <trkpt lat="48.08241" lon="6.9257">
        <ele>721.13</ele>
        <time>2019-08-20T14:51:20Z</time>
      </trkpt>
      <trkpt lat="48.08247" lon="6.92594">
        <ele>721.61</ele>
        <time>2019-08-20T14:51:34Z</time>
      </trkpt>
      <trkpt lat="48.08253" lon="6.92624">
        <ele>722.09</ele>
        <time>2019-08-20T14:51:51Z</time>
      </trkpt>
      <trkpt lat="48.08253" lon="6.92649">
        <ele>722.09</ele>
        <time>2019-08-20T14:52:06Z</time>
      </trkpt>
      <trkpt lat="48.08252" lon="6.9268">
        <ele>723.05</ele>
        <time>2019-08-20T14:52:23Z</time>
      </trkpt>
      <trkpt lat="48.08253" lon="6.92707">
        <ele>722.09</ele>
        <time>2019-08-20T14:52:38Z</time>
      </trkpt>
      <trkpt lat="48.08251" lon="6.92731">
        <ele>722.57</ele>
        <time>2019-08-20T14:52:52Z</time>
      </trkpt>
      <trkpt lat="48.08251" lon="6.92759">
        <ele>722.57</ele>
        <time>2019-08-20T14:53:08Z</time>
      </trkpt>
      <trkpt lat="48.08252" lon="6.92786">
        <ele>722.57</ele>
        <time>2019-08-20T14:53:23Z</time>
      </trkpt>
      <trkpt lat="48.08248" lon="6.92802">
        <ele>723.05</ele>
        <time>2019-08-20T14:53:34Z</time>
      </trkpt>
      <trkpt lat="48.08241" lon="6.92834">
        <ele>723.05</ele>
        <time>2019-08-20T14:53:52Z</time>
      </trkpt>
      <trkpt lat="48.08241" lon="6.92867">
        <ele>723.05</ele>
        <time>2019-08-20T14:54:10Z</time>
      </trkpt>
      <trkpt lat="48.08242" lon="6.92896">
        <ele>723.05</ele>
        <time>2019-08-20T14:54:27Z</time>
      </trkpt>
      <trkpt lat="48.08246" lon="6.9292">
        <ele>723.53</ele>
        <time>2019-08-20T14:54:41Z</time>
      </trkpt>
      <trkpt lat="48.0825" lon="6.92945">
        <ele>724.49</ele>
        <time>2019-08-20T14:54:57Z</time>
      </trkpt>
      <trkpt lat="48.08257" lon="6.92974">
        <ele>724.49</ele>
        <time>2019-08-20T14:55:15Z</time>
      </trkpt>
      <trkpt lat="48.08265" lon="6.93013">
        <ele>724.49</ele>
        <time>2019-08-20T14:55:39Z</time>
      </trkpt>
      <trkpt lat="48.08266" lon="6.93016">
        <ele>724.97</ele>
        <time>2019-08-20T14:55:41Z</time>
      </trkpt>
      <trkpt lat="48.08275" lon="6.9305">
        <ele>724.49</ele>
        <time>2019-08-20T14:56:00Z</time>
      </trkpt>
      <trkpt lat="48.08278" lon="6.93074">
        <ele>724.97</ele>
        <time>2019-08-20T14:56:15Z</time>
      </trkpt>
      <trkpt lat="48.08276" lon="6.93094">
        <ele>724.97</ele>
        <time>2019-08-20T14:56:28Z</time>
      </trkpt>
      <trkpt lat="48.08276" lon="6.9311">
        <ele>724.97</ele>
        <time>2019-08-20T14:56:36Z</time>
      </trkpt>
      <trkpt lat="48.08274" lon="6.93133">
        <ele>725.45</ele>
        <time>2019-08-20T14:56:51Z</time>
      </trkpt>
      <trkpt lat="48.08269" lon="6.9315">
        <ele>726.41</ele>
        <time>2019-08-20T14:57:05Z</time>
      </trkpt>
      <trkpt lat="48.08268" lon="6.93156">
        <ele>726.41</ele>
        <time>2019-08-20T14:57:09Z</time>
      </trkpt>
      <trkpt lat="48.08267" lon="6.93181">
        <ele>726.41</ele>
        <time>2019-08-20T14:57:24Z</time>
      </trkpt>
      <trkpt lat="48.08262" lon="6.93199">
        <ele>726.89</ele>
        <time>2019-08-20T14:57:34Z</time>
      </trkpt>
      <trkpt lat="48.08262" lon="6.93206">
        <ele>726.89</ele>
        <time>2019-08-20T14:57:38Z</time>
      </trkpt>
      <trkpt lat="48.08263" lon="6.93236">
        <ele>727.37</ele>
        <time>2019-08-20T14:57:54Z</time>
      </trkpt>
      <trkpt lat="48.08261" lon="6.93259">
        <ele>727.86</ele>
        <time>2019-08-20T14:58:08Z</time>
      </trkpt>
      <trkpt lat="48.08259" lon="6.93288">
        <ele>728.34</ele>
        <time>2019-08-20T14:58:25Z</time>
      </trkpt>
      <trkpt lat="48.08259" lon="6.93317">
        <ele>728.34</ele>
        <time>2019-08-20T14:58:42Z</time>
      </trkpt>
      <trkpt lat="48.0826" lon="6.93318">
        <ele>728.34</ele>
        <time>2019-08-20T14:58:43Z</time>
      </trkpt>
      <trkpt lat="48.08263" lon="6.93324">
        <ele>728.34</ele>
        <time>2019-08-20T14:58:47Z</time>
      </trkpt>
      <trkpt lat="48.08273" lon="6.93338">
        <ele>728.82</ele>
        <time>2019-08-20T14:58:58Z</time>
      </trkpt>
      <trkpt lat="48.0828" lon="6.93358">
        <ele>729.3</ele>
        <time>2019-08-20T14:59:13Z</time>
      </trkpt>
      <trkpt lat="48.0828" lon="6.93393">
        <ele>729.3</ele>
        <time>2019-08-20T14:59:33Z</time>
      </trkpt>
      <trkpt lat="48.08277" lon="6.93414">
        <ele>730.26</ele>
        <time>2019-08-20T14:59:48Z</time>
      </trkpt>
      <trkpt lat="48.08273" lon="6.93442">
        <ele>730.74</ele>
        <time>2019-08-20T15:00:06Z</time>
      </trkpt>
      <trkpt lat="48.08264" lon="6.93474">
        <ele>730.74</ele>
        <time>2019-08-20T15:00:26Z</time>
      </trkpt>
      <trkpt lat="48.08259" lon="6.93498">
        <ele>731.7</ele>
        <time>2019-08-20T15:00:42Z</time>
      </trkpt>
      <trkpt lat="48.08247" lon="6.93522">
        <ele>731.7</ele>
        <time>2019-08-20T15:01:02Z</time>
      </trkpt>
      <trkpt lat="48.0823" lon="6.93532">
        <ele>732.18</ele>
        <time>2019-08-20T15:01:17Z</time>
      </trkpt>
      <trkpt lat="48.0821" lon="6.93554">
        <ele>732.66</ele>
        <time>2019-08-20T15:01:37Z</time>
      </trkpt>
      <trkpt lat="48.0819" lon="6.93568">
        <ele>733.14</ele>
        <time>2019-08-20T15:01:56Z</time>
      </trkpt>
      <trkpt lat="48.08189" lon="6.93567">
        <ele>733.14</ele>
        <time>2019-08-20T15:01:57Z</time>
      </trkpt>
      <trkpt lat="48.08182" lon="6.93561">
        <ele>733.14</ele>
        <time>2019-08-20T15:02:04Z</time>
      </trkpt>
      <trkpt lat="48.08178" lon="6.9356">
        <ele>733.14</ele>
        <time>2019-08-20T15:02:07Z</time>
      </trkpt>
      <trkpt lat="48.08166" lon="6.9359">
        <ele>734.1</ele>
        <time>2019-08-20T15:02:26Z</time>
      </trkpt>
      <trkpt lat="48.08163" lon="6.93598">
        <ele>733.62</ele>
        <time>2019-08-20T15:02:31Z</time>
      </trkpt>
      <trkpt lat="48.08161" lon="6.93607">
        <ele>734.58</ele>
        <time>2019-08-20T15:02:36Z</time>
      </trkpt>
      <trkpt lat="48.08152" lon="6.9363">
        <ele>734.58</ele>
        <time>2019-08-20T15:02:52Z</time>
      </trkpt>
      <trkpt lat="48.08144" lon="6.93655">
        <ele>734.58</ele>
        <time>2019-08-20T15:03:07Z</time>
      </trkpt>
      <trkpt lat="48.08135" lon="6.93681">
        <ele>735.07</ele>
        <time>2019-08-20T15:03:23Z</time>
      </trkpt>
      <trkpt lat="48.08133" lon="6.9369">
        <ele>735.07</ele>
        <time>2019-08-20T15:03:29Z</time>
      </trkpt>
      <trkpt lat="48.08123" lon="6.93714">
        <ele>735.55</ele>
        <time>2019-08-20T15:03:45Z</time>
      </trkpt>
      <trkpt lat="48.08112" lon="6.93731">
        <ele>736.03</ele>
        <time>2019-08-20T15:04:01Z</time>
      </trkpt>
      <trkpt lat="48.08105" lon="6.93741">
        <ele>736.03</ele>
        <time>2019-08-20T15:04:09Z</time>
      </trkpt>
      <trkpt lat="48.08088" lon="6.93758">
        <ele>736.99</ele>
        <time>2019-08-20T15:04:24Z</time>
      </trkpt>
      <trkpt lat="48.08084" lon="6.9376">
        <ele>737.47</ele>
        <time>2019-08-20T15:04:28Z</time>
      </trkpt>
      <trkpt lat="48.0808" lon="6.9376">
        <ele>736.99</ele>
        <time>2019-08-20T15:04:32Z</time>
      </trkpt>
      <trkpt lat="48.08068" lon="6.93761">
        <ele>736.99</ele>
        <time>2019-08-20T15:04:41Z</time>
      </trkpt>
      <trkpt lat="48.08057" lon="6.93758">
        <ele>736.99</ele>
        <time>2019-08-20T15:04:50Z</time>
      </trkpt>
      <trkpt lat="48.08055" lon="6.93758">
        <ele>736.99</ele>
        <time>2019-08-20T15:04:52Z</time>
      </trkpt>
      <trkpt lat="48.08038" lon="6.93754">
        <ele>737.95</ele>
        <time>2019-08-20T15:05:06Z</time>
      </trkpt>
      <trkpt lat="48.0802" lon="6.93756">
        <ele>738.43</ele>
        <time>2019-08-20T15:05:20Z</time>
      </trkpt>
      <trkpt lat="48.08002" lon="6.9376">
        <ele>738.43</ele>
        <time>2019-08-20T15:05:36Z</time>
      </trkpt>
      <trkpt lat="48.07991" lon="6.93768">
        <ele>738.91</ele>
        <time>2019-08-20T15:05:49Z</time>
      </trkpt>
      <trkpt lat="48.07969" lon="6.93775">
        <ele>739.39</ele>
        <time>2019-08-20T15:06:05Z</time>
      </trkpt>
      <trkpt lat="48.07949" lon="6.93778">
        <ele>739.87</ele>
        <time>2019-08-20T15:06:20Z</time>
      </trkpt>
      <trkpt lat="48.07936" lon="6.93791">
        <ele>739.87</ele>
        <time>2019-08-20T15:06:33Z</time>
      </trkpt>
      <trkpt lat="48.07926" lon="6.93809">
        <ele>740.35</ele>
        <time>2019-08-20T15:06:46Z</time>
      </trkpt>
      <trkpt lat="48.07921" lon="6.93828">
        <ele>741.31</ele>
        <time>2019-08-20T15:06:57Z</time>
      </trkpt>
      <trkpt lat="48.07922" lon="6.93837">
        <ele>740.83</ele>
        <time>2019-08-20T15:07:01Z</time>
      </trkpt>
      <trkpt lat="48.07916" lon="6.93868">
        <ele>741.31</ele>
        <time>2019-08-20T15:07:17Z</time>
      </trkpt>
      <trkpt lat="48.07911" lon="6.93891">
        <ele>741.79</ele>
        <time>2019-08-20T15:07:30Z</time>
      </trkpt>
      <trkpt lat="48.07905" lon="6.93917">
        <ele>742.76</ele>
        <time>2019-08-20T15:07:45Z</time>
      </trkpt>
      <trkpt lat="48.07897" lon="6.9393">
        <ele>743.24</ele>
        <time>2019-08-20T15:07:55Z</time>
      </trkpt>
      <trkpt lat="48.07877" lon="6.9394">
        <ele>744.68</ele>
        <time>2019-08-20T15:08:13Z</time>
      </trkpt>
      <trkpt lat="48.07864" lon="6.93962">
        <ele>744.2</ele>
        <time>2019-08-20T15:08:28Z</time>
      </trkpt>
      <trkpt lat="48.07857" lon="6.93983">
        <ele>743.72</ele>
        <time>2019-08-20T15:08:41Z</time>
      </trkpt>
      <trkpt lat="48.07851" lon="6.94005">
        <ele>742.76</ele>
        <time>2019-08-20T15:08:54Z</time>
      </trkpt>
      <trkpt lat="48.07842" lon="6.94034">
        <ele>743.24</ele>
        <time>2019-08-20T15:09:10Z</time>
      </trkpt>
      <trkpt lat="48.07829" lon="6.9406">
        <ele>742.76</ele>
        <time>2019-08-20T15:09:28Z</time>
      </trkpt>
      <trkpt lat="48.07819" lon="6.94081">
        <ele>742.28</ele>
        <time>2019-08-20T15:09:43Z</time>
      </trkpt>
      <trkpt lat="48.07813" lon="6.94093">
        <ele>742.28</ele>
        <time>2019-08-20T15:09:51Z</time>
      </trkpt>
      <trkpt lat="48.07796" lon="6.9411">
        <ele>741.79</ele>
        <time>2019-08-20T15:10:08Z</time>
      </trkpt>
      <trkpt lat="48.0779" lon="6.94134">
        <ele>741.79</ele>
        <time>2019-08-20T15:10:22Z</time>
      </trkpt>
      <trkpt lat="48.07795" lon="6.94156">
        <ele>741.31</ele>
        <time>2019-08-20T15:10:36Z</time>
      </trkpt>
      <trkpt lat="48.07793" lon="6.94169">
        <ele>740.83</ele>
        <time>2019-08-20T15:10:44Z</time>
      </trkpt>
      <trkpt lat="48.07781" lon="6.94183">
        <ele>741.79</ele>
        <time>2019-08-20T15:10:59Z</time>
      </trkpt>
      <trkpt lat="48.07776" lon="6.94198">
        <ele>742.28</ele>
        <time>2019-08-20T15:11:13Z</time>
      </trkpt>
      <trkpt lat="48.0776" lon="6.94235">
        <ele>741.31</ele>
        <time>2019-08-20T15:11:34Z</time>
      </trkpt>
      <trkpt lat="48.07755" lon="6.9426">
        <ele>742.28</ele>
        <time>2019-08-20T15:11:51Z</time>
      </trkpt>
      <trkpt lat="48.07749" lon="6.94283">
        <ele>742.76</ele>
        <time>2019-08-20T15:12:07Z</time>
      </trkpt>
      <trkpt lat="48.07748" lon="6.94288">
        <ele>742.28</ele>
        <time>2019-08-20T15:12:10Z</time>
      </trkpt>
      <trkpt lat="48.07737" lon="6.94302">
        <ele>742.28</ele>
        <time>2019-08-20T15:12:22Z</time>
      </trkpt>
      <trkpt lat="48.0773" lon="6.9431">
        <ele>742.28</ele>
        <time>2019-08-20T15:12:35Z</time>
      </trkpt>
      <trkpt lat="48.07728" lon="6.94316">
        <ele>742.76</ele>
        <time>2019-08-20T15:12:43Z</time>
      </trkpt>
      <trkpt lat="48.07729" lon="6.94336">
        <ele>743.72</ele>
        <time>2019-08-20T15:12:57Z</time>
      </trkpt>
      <trkpt lat="48.07722" lon="6.94337">
        <ele>741.79</ele>
        <time>2019-08-20T15:13:13Z</time>
      </trkpt>
      <trkpt lat="48.07717" lon="6.94338">
        <ele>740.83</ele>
        <time>2019-08-20T15:13:31Z</time>
      </trkpt>
      <trkpt lat="48.07717" lon="6.9434">
        <ele>741.31</ele>
        <time>2019-08-20T15:14:05Z</time>
      </trkpt>
      <trkpt lat="48.07721" lon="6.94339">
        <ele>741.31</ele>
        <time>2019-08-20T15:14:37Z</time>
      </trkpt>
      <trkpt lat="48.07725" lon="6.94342">
        <ele>741.31</ele>
        <time>2019-08-20T15:15:02Z</time>
      </trkpt>
      <trkpt lat="48.0773" lon="6.94343">
        <ele>743.24</ele>
        <time>2019-08-20T15:15:14Z</time>
      </trkpt>
      <trkpt lat="48.07734" lon="6.94354">
        <ele>744.2</ele>
        <time>2019-08-20T15:15:27Z</time>
      </trkpt>
      <trkpt lat="48.07735" lon="6.94357">
        <ele>743.24</ele>
        <time>2019-08-20T15:15:29Z</time>
      </trkpt>
      <trkpt lat="48.07737" lon="6.94362">
        <ele>743.24</ele>
        <time>2019-08-20T15:15:33Z</time>
      </trkpt>
      <trkpt lat="48.07749" lon="6.94365">
        <ele>743.24</ele>
        <time>2019-08-20T15:15:48Z</time>
      </trkpt>
      <trkpt lat="48.0775" lon="6.94365">
        <ele>742.76</ele>
        <time>2019-08-20T15:15:49Z</time>
      </trkpt>
      <trkpt lat="48.07752" lon="6.94364">
        <ele>744.68</ele>
        <time>2019-08-20T15:15:51Z</time>
      </trkpt>
      <trkpt lat="48.07754" lon="6.94363">
        <ele>744.2</ele>
        <time>2019-08-20T15:15:53Z</time>
      </trkpt>
      <trkpt lat="48.07764" lon="6.94358">
        <ele>744.2</ele>
        <time>2019-08-20T15:16:04Z</time>
      </trkpt>
      <trkpt lat="48.0777" lon="6.94353">
        <ele>744.2</ele>
        <time>2019-08-20T15:16:10Z</time>
      </trkpt>
      <trkpt lat="48.0778" lon="6.94332">
        <ele>744.68</ele>
        <time>2019-08-20T15:16:26Z</time>
      </trkpt>
      <trkpt lat="48.07785" lon="6.94307">
        <ele>744.68</ele>
        <time>2019-08-20T15:16:41Z</time>
      </trkpt>
      <trkpt lat="48.078" lon="6.94297">
        <ele>744.2</ele>
        <time>2019-08-20T15:16:58Z</time>
      </trkpt>
      <trkpt lat="48.07814" lon="6.94286">
        <ele>743.24</ele>
        <time>2019-08-20T15:17:11Z</time>
      </trkpt>
      <trkpt lat="48.07817" lon="6.94284">
        <ele>743.24</ele>
        <time>2019-08-20T15:17:15Z</time>
      </trkpt>
      <trkpt lat="48.07819" lon="6.94281">
        <ele>742.76</ele>
        <time>2019-08-20T15:17:17Z</time>
      </trkpt>
      <trkpt lat="48.07823" lon="6.94271">
        <ele>742.28</ele>
        <time>2019-08-20T15:17:23Z</time>
      </trkpt>
      <trkpt lat="48.07832" lon="6.94259">
        <ele>742.28</ele>
        <time>2019-08-20T15:17:33Z</time>
      </trkpt>
      <trkpt lat="48.07847" lon="6.94247">
        <ele>741.31</ele>
        <time>2019-08-20T15:17:50Z</time>
      </trkpt>
      <trkpt lat="48.07857" lon="6.94247">
        <ele>740.83</ele>
        <time>2019-08-20T15:17:59Z</time>
      </trkpt>
      <trkpt lat="48.07863" lon="6.94254">
        <ele>740.83</ele>
        <time>2019-08-20T15:18:07Z</time>
      </trkpt>
      <trkpt lat="48.07865" lon="6.94263">
        <ele>741.31</ele>
        <time>2019-08-20T15:18:12Z</time>
      </trkpt>
      <trkpt lat="48.07871" lon="6.94293">
        <ele>741.31</ele>
        <time>2019-08-20T15:18:31Z</time>
      </trkpt>
      <trkpt lat="48.07882" lon="6.94323">
        <ele>742.28</ele>
        <time>2019-08-20T15:18:50Z</time>
      </trkpt>
      <trkpt lat="48.07893" lon="6.94351">
        <ele>742.76</ele>
        <time>2019-08-20T15:19:09Z</time>
      </trkpt>
      <trkpt lat="48.07897" lon="6.9435">
        <ele>742.28</ele>
        <time>2019-08-20T15:19:13Z</time>
      </trkpt>
      <trkpt lat="48.07909" lon="6.94341">
        <ele>742.76</ele>
        <time>2019-08-20T15:19:26Z</time>
      </trkpt>
      <trkpt lat="48.07921" lon="6.94337">
        <ele>742.28</ele>
        <time>2019-08-20T15:19:43Z</time>
      </trkpt>
      <trkpt lat="48.07918" lon="6.94335">
        <ele>742.28</ele>
        <time>2019-08-20T15:20:04Z</time>
      </trkpt>
      <trkpt lat="48.07919" lon="6.94336">
        <ele>741.79</ele>
        <time>2019-08-20T15:20:28Z</time>
      </trkpt>
      <trkpt lat="48.07925" lon="6.94335">
        <ele>742.76</ele>
        <time>2019-08-20T15:20:43Z</time>
      </trkpt>
      <trkpt lat="48.07924" lon="6.94334">
        <ele>742.28</ele>
        <time>2019-08-20T15:20:58Z</time>
      </trkpt>
    </trkseg>
  </trk>
</gpx>